Provisional Data: Lackawanna River near Forest City, PA


Please select a monitoring station.
Please select start date.
Please select start date.

Toggle Unit: C/F Toggle Unit: C/F
Sample Time Temperature (C) Temperature (F) Specific Conductivity (mS/cm) pH   Turbidity (NTU+) DO (mg/L)
3/7/2021 12:00:00 AM 0.28 32.504 0.096 6.94 4.22 13.35
3/7/2021 12:15:00 AM 0.27 32.486 0.093 6.94 4.01 13.33
3/7/2021 12:30:00 AM 0.24 32.432 0.094 6.93 4.15 13.32
3/7/2021 12:45:00 AM 0.22 32.396 0.094 6.93 4.2 13.32
3/7/2021 1:00:00 AM 0.21 32.378 0.094 6.93 4.44 13.31
3/7/2021 1:15:00 AM 0.2 32.36 0.094 6.93 4.01 13.31
3/7/2021 1:30:00 AM 0.19 32.342 0.096 6.93 3.92 13.31
3/7/2021 1:45:00 AM 0.19 32.342 0.093 6.93 4.59 13.29
3/7/2021 2:00:00 AM 0.19 32.342 0.094 6.93 3.85 13.29
3/7/2021 2:15:00 AM 0.18 32.324 0.094 6.92 4.35 13.29
3/7/2021 2:30:00 AM 0.17 32.306 0.093 6.92 4.39 13.28
3/7/2021 2:45:00 AM 0.16 32.288 0.093 6.92 4.23 13.28
3/7/2021 3:00:00 AM 0.16 32.288 0.095 6.92 3.82 13.27
3/7/2021 3:15:00 AM 0.15 32.27 0.094 6.93 3.85 13.26
3/7/2021 3:30:00 AM 0.16 32.288 0.094 6.93 4.01 13.26
3/7/2021 3:45:00 AM 0.17 32.306 0.093 6.93 3.89 13.25
3/7/2021 4:00:00 AM 0.17 32.306 0.095 6.93 4.02 13.27
3/7/2021 4:15:00 AM 0.17 32.306 0.093 6.92 3.99 13.25
3/7/2021 4:30:00 AM 0.17 32.306 0.095 6.92 3.86 13.25
3/7/2021 4:45:00 AM 0.17 32.306 0.096 6.92 4.15 13.24
3/7/2021 5:00:00 AM 0.17 32.306 0.093 6.92 3.79 13.24
3/7/2021 5:15:00 AM 0.17 32.306 0.094 6.92 4.28 13.24
3/7/2021 5:30:00 AM 0.17 32.306 0.094 6.91 4.01 13.23
3/7/2021 5:45:00 AM 0.17 32.306 0.094 6.91 4.1 13.23
3/7/2021 6:00:00 AM 0.16 32.288 0.095 6.91 4.02 13.23
3/7/2021 6:15:00 AM 0.17 32.306 0.096 6.91 3.99 13.22
3/7/2021 6:30:00 AM 0.17 32.306 0.095 6.91 3.76 13.22
3/7/2021 6:45:00 AM 0.17 32.306 0.094 6.91 3.88 13.21
3/7/2021 7:00:00 AM 0.18 32.324 0.094 6.91 3.95 13.22
3/7/2021 7:15:00 AM 0.18 32.324 0.094 6.91 3.91 13.21
3/7/2021 7:30:00 AM 0.18 32.324 0.096 6.9 4.02 13.21
3/7/2021 7:45:00 AM 0.18 32.324 0.094 6.91 3.8 13.19
3/7/2021 8:00:00 AM 0.18 32.324 0.095 6.91 3.99 13.19
3/7/2021 8:15:00 AM 0.18 32.324 0.095 6.9 3.85 13.2
3/7/2021 8:30:00 AM 0.19 32.342 0.094 6.91 3.67 13.2
3/7/2021 8:45:00 AM 0.22 32.396 0.095 6.91 3.87 13.22
3/7/2021 9:00:00 AM 0.25 32.45 0.095 6.91 3.91 13.22
3/7/2021 9:15:00 AM 0.29 32.522 0.096 6.9 3.61 13.22
3/7/2021 9:30:00 AM 0.34 32.612 0.095 6.92 3.87 13.26
3/7/2021 9:45:00 AM 0.39 32.702 0.093 6.92 3.97 13.27
3/7/2021 10:00:00 AM 0.45 32.81 0.095 6.92 3.85 13.29
3/7/2021 10:15:00 AM 0.51 32.918 0.094 6.92 3.92 13.31
3/7/2021 10:30:00 AM 0.57 33.026 0.094 6.92 3.8 13.34
3/7/2021 10:45:00 AM 0.62 33.116 0.092 6.92 4.14 13.33
3/7/2021 11:00:00 AM 0.7 33.26 0.096 6.92 3.9 13.35
3/7/2021 11:15:00 AM 0.78 33.404 0.093 6.93 3.87 13.34
3/7/2021 11:30:00 AM 0.88 33.584 0.094 6.92 3.75 13.36
3/7/2021 11:45:00 AM 0.95 33.71 0.092 6.93 3.82 13.37
3/7/2021 12:00:00 PM 1.03 33.854 0.093 6.93 3.83 13.38
3/7/2021 12:15:00 PM 1.1 33.98 0.092 6.94 3.65 13.4
3/7/2021 12:30:00 PM 1.18 34.124 0.094 6.94 3.87 13.41
3/7/2021 12:45:00 PM 1.27 34.286 0.092 6.95 3.8 13.43
3/7/2021 1:00:00 PM 1.34 34.412 0.091 6.95 3.85 13.45
3/7/2021 1:15:00 PM 1.41 34.538 0.093 6.96 3.74 13.45
3/7/2021 1:30:00 PM 1.47 34.646 0.092 6.97 3.86 13.47
3/7/2021 1:45:00 PM 1.54 34.772 0.093 6.96 3.75 13.49
3/7/2021 2:00:00 PM 1.6 34.88 0.092 6.97 3.68 13.51
3/7/2021 2:15:00 PM 1.66 34.988 0.093 6.97 3.81 13.54
3/7/2021 2:30:00 PM 1.7 35.06 0.089 6.98 3.5 13.55
3/7/2021 2:45:00 PM 1.74 35.132 0.092 6.99 3.76 13.57
3/7/2021 3:00:00 PM 1.76 35.168 0.091 6.99 3.78 13.59
3/7/2021 3:15:00 PM 1.77 35.186 0.09 6.99 3.7 13.59
3/7/2021 3:30:00 PM 1.8 35.24 0.091 7 3.85 13.6
3/7/2021 3:45:00 PM 1.83 35.294 0.09 7 3.83 13.62
3/7/2021 4:00:00 PM 1.85 35.33 0.091 7.01 3.93 13.63
3/7/2021 4:15:00 PM 1.89 35.402 0.089 7.01 4.02 13.63
3/7/2021 4:30:00 PM 1.91 35.438 0.09 7.01 4.08 13.65
3/7/2021 4:45:00 PM 1.92 35.456 0.089 7.01 4.42 13.64
3/7/2021 5:00:00 PM 1.91 35.438 0.092 7.01 4.55 13.66
3/7/2021 5:15:00 PM 1.91 35.438 0.089 7.01 4.28 13.66
3/7/2021 5:30:00 PM 1.88 35.384 0.09 7.02 4.32 13.67
3/7/2021 5:45:00 PM 1.84 35.312 0.091 7.02 4.45 13.66
3/7/2021 6:00:00 PM 1.78 35.204 0.088 7.02 4.44 13.68
3/7/2021 6:15:00 PM 1.71 35.078 0.091 7.02 4.67 13.68
3/7/2021 6:30:00 PM 1.65 34.97 0.089 7.02 4.74 13.68
3/7/2021 6:45:00 PM 1.58 34.844 0.093 7.02 4.32 13.68
3/7/2021 7:00:00 PM 1.52 34.736 0.091 7.02 4.83 13.66
3/7/2021 7:15:00 PM 1.45 34.61 0.09 7.02 4.48 13.67
3/7/2021 7:30:00 PM 1.37 34.466 0.09 7.02 4.46 13.66
3/7/2021 7:45:00 PM 1.31 34.358 0.089 7.01 4.84 13.65
3/7/2021 8:00:00 PM 1.24 34.232 0.092 7.02 4.81 13.63
3/7/2021 8:15:00 PM 1.19 34.142 0.091 7.01 4.74 13.61
3/7/2021 8:30:00 PM 1.13 34.034 0.092 7 4.4 13.58
3/7/2021 8:45:00 PM 1.07 33.926 0.093 7 4.64 13.58
3/7/2021 9:00:00 PM 1.02 33.836 0.091 6.99 4.65 13.56
3/7/2021 9:15:00 PM 0.97 33.746 0.09 6.99 4.16 13.55
3/7/2021 9:30:00 PM 0.93 33.674 0.091 6.98 3.92 13.53
3/7/2021 9:45:00 PM 0.87 33.566 0.094 6.98 4.11 13.52
3/7/2021 10:00:00 PM 0.8 33.44 0.093 6.97 4.54 13.49
3/7/2021 10:15:00 PM 0.75 33.35 0.092 6.96 3.97 13.48
3/7/2021 10:30:00 PM 0.7 33.26 0.093 6.96 4.18 13.46
3/7/2021 10:45:00 PM 0.63 33.134 0.093 6.95 4.49 13.45
3/7/2021 11:00:00 PM 0.58 33.044 0.091 6.94 4.67 13.44
3/7/2021 11:15:00 PM 0.52 32.936 0.092 6.94 5.21 13.43
3/7/2021 11:30:00 PM 0.47 32.846 0.092 6.95 4.51 13.43
3/7/2021 11:45:00 PM 0.44 32.792 0.093 6.94 4.68 13.41
3/8/2021 12:00:00 AM 0.4 32.72 0.092 6.94 4.35 13.41
3/8/2021 12:15:00 AM 0.36 32.648 0.091 6.94 4.19 13.39
3/8/2021 12:30:00 AM 0.32 32.576 0.092 6.94 4.29 13.39
3/8/2021 12:45:00 AM 0.29 32.522 0.094 6.94 4.3 13.39
3/8/2021 1:00:00 AM 0.27 32.486 0.094 6.94 4.13 13.38
3/8/2021 1:15:00 AM 0.25 32.45 0.093 6.94 4.15 13.38
3/8/2021 1:30:00 AM 0.23 32.414 0.091 6.94 4.04 13.38
3/8/2021 1:45:00 AM 0.22 32.396 0.094 6.94 4.59 13.37
3/8/2021 2:00:00 AM 0.22 32.396 0.093 6.94 4.55 13.37
3/8/2021 2:15:00 AM 0.21 32.378 0.094 6.94 4.43 13.36
3/8/2021 2:30:00 AM 0.2 32.36 0.093 6.93 4.17 13.36
3/8/2021 2:45:00 AM 0.19 32.342 0.092 6.93 4.1 13.36
3/8/2021 3:00:00 AM 0.19 32.342 0.094 6.93 4.72 13.35
3/8/2021 3:15:00 AM 0.18 32.324 0.092 6.93 4.29 13.35
3/8/2021 3:30:00 AM 0.18 32.324 0.091 6.93 4.08 13.36
3/8/2021 3:45:00 AM 0.17 32.306 0.095 6.93 3.79 13.36
3/8/2021 4:00:00 AM 0.17 32.306 0.091 6.93 3.68 13.37
3/8/2021 4:15:00 AM 0.16 32.288 0.094 6.94 3.93 13.36
3/8/2021 4:30:00 AM 0.16 32.288 0.092 6.93 3.91 13.37
3/8/2021 4:45:00 AM 0.16 32.288 0.095 6.93 3.95 13.36
3/8/2021 5:00:00 AM 0.16 32.288 0.094 6.93 4.06 13.37
3/8/2021 5:15:00 AM 0.16 32.288 0.094 6.93 4.22 13.37
3/8/2021 5:30:00 AM 0.15 32.27 0.092 6.93 3.97 13.37
3/8/2021 5:45:00 AM 0.15 32.27 0.093 6.93 3.86 13.37
3/8/2021 6:00:00 AM 0.15 32.27 0.092 6.93 4.12 13.37
3/8/2021 6:15:00 AM 0.15 32.27 0.092 6.93 4.33 13.37
3/8/2021 6:30:00 AM 0.15 32.27 0.094 6.93 3.98 13.37
3/8/2021 6:45:00 AM 0.15 32.27 0.093 6.93 3.92 13.37
3/8/2021 7:00:00 AM 0.15 32.27 0.094 6.93 3.95 13.37
3/8/2021 7:15:00 AM 0.15 32.27 0.092 6.93 4.87 13.37
3/8/2021 7:30:00 AM 0.16 32.288 0.093 6.92 3.53 13.37
3/8/2021 7:45:00 AM 0.16 32.288 0.092 6.92 3.59 13.37
3/8/2021 8:00:00 AM 0.17 32.306 0.094 6.92 3.44 13.36
3/8/2021 8:15:00 AM 0.17 32.306 0.093 6.92 3.32 13.37
3/8/2021 8:30:00 AM 0.19 32.342 0.092 6.92 3.52 13.36
3/8/2021 8:45:00 AM 0.21 32.378 0.096 6.92 3.27 13.37
3/8/2021 9:00:00 AM 0.24 32.432 0.093 6.92 3.4 13.37
3/8/2021 9:15:00 AM 0.28 32.504 0.091 6.92 3.5 13.38
3/8/2021 9:30:00 AM 0.34 32.612 0.093 6.92 3.62 13.38
3/8/2021 9:45:00 AM 0.41 32.738 0.09 6.93 3.44 13.39
3/8/2021 10:00:00 AM 0.47 32.846 0.092 6.93 3.77 13.41
3/8/2021 10:15:00 AM 0.53 32.954 0.093 6.93 3.45 13.43
3/8/2021 10:30:00 AM 0.6 33.08 0.093 6.93 3.32 13.42
3/8/2021 10:45:00 AM 0.67 33.206 0.092 6.94 3.48 13.43
3/8/2021 11:00:00 AM 0.75 33.35 0.092 6.93 3.42 13.43
3/8/2021 11:15:00 AM 0.83 33.494 0.092 6.93 3.38 13.42
3/8/2021 11:30:00 AM 0.91 33.638 0.092 6.93 3.5 13.45
3/8/2021 11:45:00 AM 1 33.8 0.094 6.94 3.49 13.42
3/8/2021 12:00:00 PM 1.08 33.944 0.091 6.94 3.23 13.43
3/8/2021 12:15:00 PM 1.17 34.106 0.09 6.95 3.3 13.44
3/8/2021 12:30:00 PM 1.24 34.232 0.092 6.95 3.07 13.44
3/8/2021 12:45:00 PM 1.32 34.376 0.091 6.95 3.2 13.47
3/8/2021 1:00:00 PM 1.39 34.502 0.091 6.96 3.15 13.48
3/8/2021 1:15:00 PM 1.47 34.646 0.089 6.97 3.08 13.49
3/8/2021 1:30:00 PM 1.54 34.772 0.089 6.96 3.07 13.49
3/8/2021 1:45:00 PM 1.6 34.88 0.089 6.97 3.09 13.5
3/8/2021 2:00:00 PM 1.66 34.988 0.089 6.97 3.11 13.49
3/8/2021 2:15:00 PM 1.69 35.042 0.091 6.97 3.06 13.5
3/8/2021 2:30:00 PM 1.75 35.15 0.09 6.97 3.07 13.5
3/8/2021 2:45:00 PM 1.79 35.222 0.091 6.97 3.04 13.51
3/8/2021 3:00:00 PM 1.82 35.276 0.09 6.98 3.15 13.51
3/8/2021 3:15:00 PM 1.87 35.366 0.089 6.98 3.16 13.52
3/8/2021 3:30:00 PM 1.89 35.402 0.09 6.98 3.25 13.53
3/8/2021 3:45:00 PM 1.91 35.438 0.089 6.98 3.31 13.53
3/8/2021 4:00:00 PM 1.97 35.546 0.089 6.97 3.38 13.53
3/8/2021 4:15:00 PM 2.02 35.636 0.09 6.98 3.46 13.56
3/8/2021 4:30:00 PM 2.08 35.744 0.091 6.99 3.46 13.58
3/8/2021 4:45:00 PM 2.12 35.816 0.091 6.99 3.38 13.6
3/8/2021 5:00:00 PM 2.13 35.834 0.089 6.99 3.52 13.6
3/8/2021 5:15:00 PM 2.13 35.834 0.089 7 3.69 13.61
3/8/2021 5:30:00 PM 2.1 35.78 0.087 6.99 3.56 13.61
3/8/2021 5:45:00 PM 2.05 35.69 0.089 7 3.67 13.62
3/8/2021 6:00:00 PM 2.02 35.636 0.089 7.01 3.63 13.65
3/8/2021 6:15:00 PM 1.99 35.582 0.09 7.01 3.65 13.64
3/8/2021 6:30:00 PM 1.96 35.528 0.09 7.02 3.62 13.65
3/8/2021 6:45:00 PM 1.94 35.492 0.088 7.01 3.68 13.64
3/8/2021 7:00:00 PM 1.93 35.474 0.089 7 3.84 13.64
3/8/2021 7:15:00 PM 1.9 35.42 0.089 7.01 3.91 13.63
3/8/2021 7:30:00 PM 1.88 35.384 0.092 7.01 3.73 13.64
3/8/2021 7:45:00 PM 1.86 35.348 0.089 7.01 3.7 13.61
3/8/2021 8:00:00 PM 1.82 35.276 0.09 7 3.81 13.61
3/8/2021 8:15:00 PM 1.77 35.186 0.091 7 3.8 13.58
3/8/2021 8:30:00 PM 1.74 35.132 0.089 7 3.73 13.57
3/8/2021 8:45:00 PM 1.7 35.06 0.09 7 3.96 13.53
3/8/2021 9:00:00 PM 1.65 34.97 0.091 7 3.94 13.53
3/8/2021 9:15:00 PM 1.6 34.88 0.09 6.99 3.57 13.52
3/8/2021 9:30:00 PM 1.55 34.79 0.089 6.99 3.94 13.5
3/8/2021 9:45:00 PM 1.5 34.7 0.091 6.99 3.74 13.48
3/8/2021 10:00:00 PM 1.45 34.61 0.088 6.99 3.91 13.47
3/8/2021 10:15:00 PM 1.4 34.52 0.091 6.99 3.84 13.46
3/8/2021 10:30:00 PM 1.34 34.412 0.091 6.98 3.85 13.45
3/8/2021 10:45:00 PM 1.28 34.304 0.089 6.98 3.78 13.44
3/8/2021 11:00:00 PM 1.22 34.196 0.09 6.97 3.49 13.43
3/8/2021 11:15:00 PM 1.17 34.106 0.09 6.97 3.75 13.42
3/8/2021 11:30:00 PM 1.11 33.998 0.091 6.97 3.68 13.4
3/8/2021 11:45:00 PM 1.06 33.908 0.092 6.97 3.89 13.39
3/9/2021 12:00:00 AM 1.02 33.836 0.093 6.96 3.65 13.39
3/9/2021 12:15:00 AM 0.97 33.746 0.088 6.96 3.71 13.37
3/9/2021 12:30:00 AM 0.94 33.692 0.09 6.96 3.67 13.37
3/9/2021 12:45:00 AM 0.91 33.638 0.092 6.95 3.76 13.34
3/9/2021 1:00:00 AM 0.88 33.584 0.088 6.95 3.98 13.34
3/9/2021 1:15:00 AM 0.85 33.53 0.09 6.95 3.8 13.32
3/9/2021 1:30:00 AM 0.82 33.476 0.092 6.95 3.61 13.31
3/9/2021 1:45:00 AM 0.8 33.44 0.093 6.95 3.58 13.3
3/9/2021 2:00:00 AM 0.79 33.422 0.091 6.95 3.73 13.3
3/9/2021 2:15:00 AM 0.77 33.386 0.091 6.95 3.75 13.28
3/9/2021 2:30:00 AM 0.74 33.332 0.09 6.94 3.88 13.26
3/9/2021 2:45:00 AM 0.73 33.314 0.09 6.95 4.06 13.25
3/9/2021 3:00:00 AM 0.72 33.296 0.09 6.95 3.93 13.25
3/9/2021 3:15:00 AM 0.7 33.26 0.092 6.95 3.94 13.24
3/9/2021 3:30:00 AM 0.7 33.26 0.091 6.95 3.91 13.23
3/9/2021 3:45:00 AM 0.7 33.26 0.091 6.95 3.71 13.23
3/9/2021 4:00:00 AM 0.7 33.26 0.091 6.95 3.76 13.24
3/9/2021 4:15:00 AM 0.69 33.242 0.09 6.95 3.49 13.24
3/9/2021 4:30:00 AM 0.69 33.242 0.09 6.95 3.66 13.24
3/9/2021 4:45:00 AM 0.68 33.224 0.09 6.95 3.74 13.22
3/9/2021 5:00:00 AM 0.67 33.206 0.092 6.95 3.49 13.22
3/9/2021 5:15:00 AM 0.67 33.206 0.092 6.94 3.51 13.2
3/9/2021 5:30:00 AM 0.65 33.17 0.091 6.95 3.64 13.21
3/9/2021 5:45:00 AM 0.64 33.152 0.091 6.94 3.42 13.21
3/9/2021 6:00:00 AM 0.62 33.116 0.091 6.94 3.42 13.19
3/9/2021 6:15:00 AM 0.61 33.098 0.092 6.95 3.6 13.19
3/9/2021 6:30:00 AM 0.6 33.08 0.092 6.94 3.41 13.2
3/9/2021 6:45:00 AM 0.59 33.062 0.09 6.95 3.53 13.2
3/9/2021 7:00:00 AM 0.59 33.062 0.09 6.95 3.44 13.2
3/9/2021 7:15:00 AM 0.6 33.08 0.092 6.95 3.42 13.2
3/9/2021 7:30:00 AM 0.6 33.08 0.092 6.95 3.35 13.2
3/9/2021 7:45:00 AM 0.6 33.08 0.091 6.95 3.68 13.21
3/9/2021 8:00:00 AM 0.59 33.062 0.092 6.95 3.4 13.21
3/9/2021 8:15:00 AM 0.6 33.08 0.09 6.95 3.32 13.21
3/9/2021 8:30:00 AM 0.62 33.116 0.092 6.95 3.3 13.21
3/9/2021 8:45:00 AM 0.66 33.188 0.091 6.95 3.38 13.22
3/9/2021 9:00:00 AM 0.71 33.278 0.091 6.95 3.48 13.22
3/9/2021 9:15:00 AM 0.77 33.386 0.093 6.95 3.33 13.23
3/9/2021 9:30:00 AM 0.84 33.512 0.089 6.96 3.38 13.25
3/9/2021 9:45:00 AM 0.93 33.674 0.09 6.95 3.42 13.25
3/9/2021 10:00:00 AM 1.02 33.836 0.091 6.96 3.47 13.28
3/9/2021 10:15:00 AM 1.13 34.034 0.091 6.96 3.48 13.29
3/9/2021 10:30:00 AM 1.23 34.214 0.09 6.96 3.58 13.32
3/9/2021 10:45:00 AM 1.34 34.412 0.091 6.97 3.46 13.31
3/9/2021 11:00:00 AM 1.45 34.61 0.091 6.97 3.52 13.33
3/9/2021 11:15:00 AM 1.6 34.88 0.09 6.98 3.54 13.37
3/9/2021 11:30:00 AM 1.71 35.078 0.091 6.98 3.44 13.39
3/9/2021 11:45:00 AM 1.83 35.294 0.089 6.99 3.55 13.38
3/9/2021 12:00:00 PM 2.01 35.618 0.09 6.99 3.8 13.4
3/9/2021 12:15:00 PM 2.13 35.834 0.09 7 3.57 13.42
3/9/2021 12:30:00 PM 2.29 36.122 0.089 7.01 3.41 13.45
3/9/2021 12:45:00 PM 2.39 36.302 0.089 7.01 3.59 13.46
3/9/2021 1:00:00 PM 2.54 36.572 0.088 7 3.51 13.44
3/9/2021 1:15:00 PM 2.7 36.86 0.089 7.01 3.78 13.46
3/9/2021 1:30:00 PM 2.8 37.04 0.09 7.01 3.81 13.48
3/9/2021 1:45:00 PM 2.92 37.256 0.091 7.02 3.93 13.48
3/9/2021 2:00:00 PM 3.09 37.562 0.086 7.02 3.85 13.5
3/9/2021 2:15:00 PM 3.2 37.76 0.089 7.03 4.22 13.5
3/9/2021 2:30:00 PM 3.27 37.886 0.089 7.03 4.03 13.52
3/9/2021 2:45:00 PM 3.35 38.03 0.089 7.03 3.99 13.52
3/9/2021 3:00:00 PM 3.41 38.138 0.088 7.03 4.1 13.53
3/9/2021 3:15:00 PM 3.5 38.3 0.091 7.03 4.4 13.55
3/9/2021 3:30:00 PM 3.52 38.336 0.086 7.03 4.02 13.54
3/9/2021 3:45:00 PM 3.53 38.354 0.087 7.03 4.13 13.56
3/9/2021 4:00:00 PM 3.61 38.498 0.089 7.03 4.04 13.57
3/9/2021 4:15:00 PM 3.64 38.552 0.087 7.03 4.22 13.59
3/9/2021 4:30:00 PM 3.62 38.516 0.089 7.03 3.89 13.57
3/9/2021 4:45:00 PM 3.62 38.516 0.087 7.03 3.78 13.58
3/9/2021 5:00:00 PM 3.59 38.462 0.088 7.02 4.12 13.58
3/9/2021 5:15:00 PM 3.57 38.426 0.088 7.03 4.06 13.6
3/9/2021 5:30:00 PM 3.53 38.354 0.087 7.02 4.28 13.6
3/9/2021 5:45:00 PM 3.5 38.3 0.089 7.02 4.08 13.6
3/9/2021 6:00:00 PM 3.42 38.156 0.088 7.02 4.08 13.59
3/9/2021 6:15:00 PM 3.34 38.012 0.09 7.01 4.01 13.59
3/9/2021 6:30:00 PM 3.27 37.886 0.091 7.01 4.11 13.6
3/9/2021 6:45:00 PM 3.19 37.742 0.09 7.01 4.2 13.6
3/9/2021 7:00:00 PM 3.1 37.58 0.088 7.01 4.32 13.58
3/9/2021 7:15:00 PM 3.01 37.418 0.087 7 4.06 13.59
3/9/2021 7:30:00 PM 2.92 37.256 0.089 7 3.97 13.58
3/9/2021 7:45:00 PM 2.84 37.112 0.089 7 4.23 13.56
3/9/2021 8:00:00 PM 2.73 36.914 0.09 6.99 4.29 13.55
3/9/2021 8:15:00 PM 2.67 36.806 0.092 6.99 4.14 13.51
3/9/2021 8:30:00 PM 2.56 36.608 0.092 6.97 4.31 13.49
3/9/2021 8:45:00 PM 2.49 36.482 0.091 6.97 4.28 13.46
3/9/2021 9:00:00 PM 2.41 36.338 0.089 6.96 4.18 13.43
3/9/2021 9:15:00 PM 2.34 36.212 0.09 6.96 4.44 13.41
3/9/2021 9:30:00 PM 2.24 36.032 0.091 6.95 4.29 13.38
3/9/2021 9:45:00 PM 2.16 35.888 0.09 6.94 4.32 13.37
3/9/2021 10:00:00 PM 2.06 35.708 0.091 6.94 4.39 13.34
3/9/2021 10:15:00 PM 1.99 35.582 0.091 6.93 4.42 13.33
3/9/2021 10:30:00 PM 1.9 35.42 0.09 6.92 4.48 13.3
3/9/2021 10:45:00 PM 1.81 35.258 0.089 6.91 4.46 13.28
3/9/2021 11:00:00 PM 1.71 35.078 0.092 6.91 4.44 13.28
3/9/2021 11:15:00 PM 1.62 34.916 0.09 6.91 4.59 13.26
3/9/2021 11:30:00 PM 1.52 34.736 0.093 6.91 4.37 13.25
3/9/2021 11:45:00 PM 1.44 34.592 0.092 6.9 4.55 13.22
3/10/2021 12:00:00 AM 1.35 34.43 0.092 6.89 4.87 13.22
3/10/2021 12:15:00 AM 1.28 34.304 0.092 6.9 4.42 13.21
3/10/2021 12:30:00 AM 1.21 34.178 0.092 6.89 4.69 13.21
3/10/2021 12:45:00 AM 1.14 34.052 0.092 6.89 4.66 13.18
3/10/2021 1:00:00 AM 1.08 33.944 0.096 6.89 4.84 13.18
3/10/2021 1:15:00 AM 1.02 33.836 0.093 6.89 5.08 13.17
3/10/2021 1:30:00 AM 0.98 33.764 0.093 6.89 4.77 13.16
3/10/2021 1:45:00 AM 0.92 33.656 0.092 6.89 5.12 13.14
3/10/2021 2:00:00 AM 0.88 33.584 0.09 6.89 5.01 13.15
3/10/2021 2:15:00 AM 0.82 33.476 0.091 6.9 5.36 13.15
3/10/2021 2:30:00 AM 0.79 33.422 0.093 6.9 4.85 13.13
3/10/2021 2:45:00 AM 0.76 33.368 0.092 6.9 5.35 13.12
3/10/2021 3:00:00 AM 0.74 33.332 0.092 6.9 5.19 13.12
3/10/2021 3:15:00 AM 0.71 33.278 0.091 6.9 5.18 13.12
3/10/2021 3:30:00 AM 0.68 33.224 0.094 6.9 5.1 13.12
3/10/2021 3:45:00 AM 0.66 33.188 0.092 6.9 5.05 13.12
3/10/2021 4:00:00 AM 0.64 33.152 0.092 6.91 5.07 13.13
3/10/2021 4:15:00 AM 0.63 33.134 0.092 6.9 5.5 13.12
3/10/2021 4:30:00 AM 0.62 33.116 0.091 6.91 4.96 13.11
3/10/2021 4:45:00 AM 0.59 33.062 0.092 6.91 5.31 13.11
3/10/2021 5:00:00 AM 0.58 33.044 0.092 6.91 5.47 13.12
3/10/2021 5:15:00 AM 0.57 33.026 0.091 6.92 5.21 13.12
3/10/2021 5:30:00 AM 0.56 33.008 0.09 6.91 5.19 13.12
3/10/2021 5:45:00 AM 0.55 32.99 0.093 6.92 5.28 13.13
3/10/2021 6:00:00 AM 0.56 33.008 0.092 6.92 4.81 13.12
3/10/2021 6:15:00 AM 0.54 32.972 0.09 6.92 5.09 13.14
3/10/2021 6:30:00 AM 0.53 32.954 0.09 6.93 4.97 13.14
3/10/2021 6:45:00 AM 0.53 32.954 0.091 6.93 4.74 13.15
3/10/2021 7:00:00 AM 0.53 32.954 0.09 6.93 5.08 13.15
3/10/2021 7:15:00 AM 0.52 32.936 0.091 6.93 4.45 13.14
3/10/2021 7:30:00 AM 0.53 32.954 0.09 6.93 4.76 13.16
3/10/2021 7:45:00 AM 0.53 32.954 0.091 6.93 4.35 13.15
3/10/2021 8:00:00 AM 0.54 32.972 0.09 6.94 4.25 13.16
3/10/2021 8:15:00 AM 0.54 32.972 0.093 6.94 4.27 13.18
3/10/2021 8:30:00 AM 0.57 33.026 0.09 6.94 4.06 13.18
3/10/2021 8:45:00 AM 0.61 33.098 0.09 6.95 3.88 13.19
3/10/2021 9:00:00 AM 0.66 33.188 0.091 6.95 3.92 13.21
3/10/2021 9:15:00 AM 0.72 33.296 0.088 6.96 4.12 13.23
3/10/2021 9:30:00 AM 0.81 33.458 0.09 6.96 3.88 13.23
3/10/2021 9:45:00 AM 0.93 33.674 0.091 6.96 4.08 13.22
3/10/2021 10:00:00 AM 1.01 33.818 0.091 6.96 4.09 13.21
3/10/2021 10:15:00 AM 1.12 34.016 0.09 6.96 4.2 13.22
3/10/2021 10:30:00 AM 1.24 34.232 0.09 6.96 4.26 13.22
3/10/2021 10:45:00 AM 1.39 34.502 0.089 6.97 4.32 13.23
3/10/2021 11:00:00 AM 1.53 34.754 0.09 6.97 4 13.26
3/10/2021 11:15:00 AM 1.67 35.006 0.089 6.98 4.35 13.28
3/10/2021 11:30:00 AM 1.84 35.312 0.09 6.99 4.11 13.31
3/10/2021 11:45:00 AM 1.98 35.564 0.09 6.99 4.03 13.31
3/10/2021 12:00:00 PM 2.16 35.888 0.088 6.99 4.09 13.32
3/10/2021 12:15:00 PM 2.3 36.14 0.088 7 4.1 13.34
3/10/2021 12:30:00 PM 2.45 36.41 0.089 7 4.1 13.38
3/10/2021 12:45:00 PM 2.6 36.68 0.091 7 4.1 13.39
3/10/2021 1:00:00 PM 2.74 36.932 0.088 7.01 4.23 13.42
3/10/2021 1:15:00 PM 2.88 37.184 0.089 7.01 4.16 13.44
3/10/2021 1:30:00 PM 3.05 37.49 0.089 7.01 3.92 13.47
3/10/2021 1:45:00 PM 3.16 37.688 0.088 7.01 4.36 13.49
3/10/2021 2:00:00 PM 3.29 37.922 0.089 7.01 4 13.5
3/10/2021 2:15:00 PM 3.38 38.084 0.089 7.02 4.23 13.52
3/10/2021 2:30:00 PM 3.48 38.264 0.089 7.02 3.96 13.54
3/10/2021 2:45:00 PM 3.55 38.39 0.09 7.02 4.19 13.57
3/10/2021 3:00:00 PM 3.63 38.534 0.087 7.02 4.1 13.57
3/10/2021 3:15:00 PM 3.7 38.66 0.087 7.03 4.1 13.57
3/10/2021 3:30:00 PM 3.75 38.75 0.089 7.02 4.12 13.62
3/10/2021 3:45:00 PM 3.8 38.84 0.088 7.03 4.07 13.63
3/10/2021 4:00:00 PM 3.85 38.93 0.088 7.02 4.43 13.64
3/10/2021 4:15:00 PM 3.86 38.948 0.088 7.02 4.51 13.64
3/10/2021 4:30:00 PM 3.87 38.966 0.088 7.02 4.41 13.64
3/10/2021 4:45:00 PM 3.86 38.948 0.091 7.02 4.29 13.63
3/10/2021 5:00:00 PM 3.85 38.93 0.092 7.02 4.57 13.63
3/10/2021 5:15:00 PM 3.82 38.876 0.088 7.02 4.8 13.65
3/10/2021 5:30:00 PM 3.78 38.804 0.089 7.02 4.85 13.64
3/10/2021 5:45:00 PM 3.71 38.678 0.089 7.02 4.79 13.64
3/10/2021 6:00:00 PM 3.64 38.552 0.086 7.02 4.89 13.63
3/10/2021 6:15:00 PM 3.55 38.39 0.087 7.01 5 13.62
3/10/2021 6:30:00 PM 3.46 38.228 0.087 7.01 5.08 13.6
3/10/2021 6:45:00 PM 3.36 38.048 0.088 7.01 4.55 13.58
3/10/2021 7:00:00 PM 3.26 37.868 0.086 7 4.74 13.59
3/10/2021 7:15:00 PM 3.14 37.652 0.09 7 4.77 13.59
3/10/2021 7:30:00 PM 3.04 37.472 0.085 7 4.39 13.57
3/10/2021 7:45:00 PM 2.94 37.292 0.088 6.99 4.63 13.55
3/10/2021 8:00:00 PM 2.83 37.094 0.088 6.98 4.33 13.52
3/10/2021 8:15:00 PM 2.75 36.95 0.089 6.98 4.27 13.5
3/10/2021 8:30:00 PM 2.67 36.806 0.089 6.96 4.41 13.48
3/10/2021 8:45:00 PM 2.58 36.644 0.089 6.96 4.72 13.45
3/10/2021 9:00:00 PM 2.5 36.5 0.089 6.95 4.62 13.43
3/10/2021 9:15:00 PM 2.42 36.356 0.087 6.94 4.51 13.41
3/10/2021 9:30:00 PM 2.34 36.212 0.089 6.93 4.65 13.37
3/10/2021 9:45:00 PM 2.25 36.05 0.092 6.93 5.12 13.36
3/10/2021 10:00:00 PM 2.17 35.906 0.091 6.92 5.53 13.33
3/10/2021 10:15:00 PM 2.09 35.762 0.089 6.92 4.9 13.31
3/10/2021 10:30:00 PM 2.01 35.618 0.092 6.91 5.36 13.3
3/10/2021 10:45:00 PM 1.93 35.474 0.091 6.91 5.57 13.28
3/10/2021 11:00:00 PM 1.86 35.348 0.09 6.91 5.18 13.25
3/10/2021 11:15:00 PM 1.8 35.24 0.092 6.91 5.14 13.25
3/10/2021 11:30:00 PM 1.73 35.114 0.091 6.9 4.74 13.25
3/10/2021 11:45:00 PM 1.66 34.988 0.092 6.9 5.55 13.25
3/11/2021 12:00:00 AM 1.6 34.88 0.089 6.91 4.8 13.23
3/11/2021 12:15:00 AM 1.56 34.808 0.09 6.9 4.85 13.21
3/11/2021 12:30:00 AM 1.53 34.754 0.09 6.9 5.27 13.2
3/11/2021 12:45:00 AM 1.47 34.646 0.093 6.9 4.84 13.19
3/11/2021 1:00:00 AM 1.45 34.61 0.092 6.9 4.67 13.18
3/11/2021 1:15:00 AM 1.4 34.52 0.092 6.9 4.76 13.17
3/11/2021 1:30:00 AM 1.36 34.448 0.092 6.89 4.39 13.17
3/11/2021 1:45:00 AM 1.33 34.394 0.093 6.89 4.68 13.17
3/11/2021 2:00:00 AM 1.31 34.358 0.093 6.9 4.51 13.16
3/11/2021 2:15:00 AM 1.29 34.322 0.091 6.89 5.04 13.16
3/11/2021 2:30:00 AM 1.28 34.304 0.09 6.9 4.38 13.16
3/11/2021 2:45:00 AM 1.27 34.286 0.09 6.9 4.48 13.16
3/11/2021 3:00:00 AM 1.25 34.25 0.093 6.9 4.31 13.14
3/11/2021 3:15:00 AM 1.24 34.232 0.092 6.9 4.36 13.15
3/11/2021 3:30:00 AM 1.23 34.214 0.09 6.9 4.45 13.14
3/11/2021 3:45:00 AM 1.21 34.178 0.092 6.9 4.28 13.15
3/11/2021 4:00:00 AM 1.2 34.16 0.09 6.9 4.47 13.15
3/11/2021 4:15:00 AM 1.2 34.16 0.089 6.91 4.32 13.16
3/11/2021 4:30:00 AM 1.2 34.16 0.092 6.92 4.24 13.15
3/11/2021 4:45:00 AM 1.19 34.142 0.09 6.92 4.23 13.15
3/11/2021 5:00:00 AM 1.19 34.142 0.091 6.91 4.42 13.15
3/11/2021 5:15:00 AM 1.19 34.142 0.088 6.92 4.56 13.16
3/11/2021 5:30:00 AM 1.19 34.142 0.091 6.91 4.35 13.16
3/11/2021 5:45:00 AM 1.19 34.142 0.093 6.92 4.37 13.17
3/11/2021 6:00:00 AM 1.19 34.142 0.091 6.92 4.54 13.19
3/11/2021 6:15:00 AM 1.19 34.142 0.091 6.92 4.16 13.19
3/11/2021 6:30:00 AM 1.19 34.142 0.091 6.93 4.39 13.18
3/11/2021 6:45:00 AM 1.2 34.16 0.089 6.93 4.28 13.21
3/11/2021 7:00:00 AM 1.22 34.196 0.091 6.93 4.31 13.2
3/11/2021 7:15:00 AM 1.23 34.214 0.091 6.93 4.07 13.2
3/11/2021 7:30:00 AM 1.25 34.25 0.091 6.94 4.14 13.22
3/11/2021 7:45:00 AM 1.27 34.286 0.092 6.93 4.49 13.21
3/11/2021 8:00:00 AM 1.29 34.322 0.092 6.94 4.36 13.22
3/11/2021 8:15:00 AM 1.33 34.394 0.09 6.93 4.09 13.21
3/11/2021 8:30:00 AM 1.37 34.466 0.089 6.94 4.2 13.23
3/11/2021 8:45:00 AM 1.4 34.52 0.09 6.94 4.18 13.24
3/11/2021 9:00:00 AM 1.45 34.61 0.091 6.94 4.05 13.26
3/11/2021 9:15:00 AM 1.52 34.736 0.09 6.95 4.25 13.29
3/11/2021 9:30:00 AM 1.58 34.844 0.091 6.95 4.17 13.3
3/11/2021 9:45:00 AM 1.67 35.006 0.091 6.95 3.91 13.33
3/11/2021 10:00:00 AM 1.73 35.114 0.09 6.95 3.93 13.34
3/11/2021 10:15:00 AM 1.82 35.276 0.089 6.96 4.07 13.38
3/11/2021 10:30:00 AM 1.93 35.474 0.088 6.96 3.74 13.4
3/11/2021 10:45:00 AM 2.07 35.726 0.091 6.97 3.8 13.42
3/11/2021 11:00:00 AM 2.17 35.906 0.09 6.97 3.7 13.45
3/11/2021 11:15:00 AM 2.32 36.176 0.087 6.97 3.74 13.46
3/11/2021 11:30:00 AM 2.44 36.392 0.088 6.97 3.81 13.5
3/11/2021 11:45:00 AM 2.59 36.662 0.094 6.97 3.79 13.52
3/11/2021 12:00:00 PM 2.7 36.86 0.09 6.98 3.89 13.54
3/11/2021 12:15:00 PM 2.82 37.076 0.09 6.98 4.05 13.55
3/11/2021 12:30:00 PM 2.95 37.31 0.09 6.98 3.94 13.58
3/11/2021 12:45:00 PM 3.07 37.526 0.088 6.98 3.86 13.59
3/11/2021 1:00:00 PM 3.16 37.688 0.087 6.98 4.18 13.61
3/11/2021 1:15:00 PM 3.22 37.796 0.09 6.98 4.03 13.61
3/11/2021 1:30:00 PM 3.29 37.922 0.087 6.98 4.13 13.61
3/11/2021 1:45:00 PM 3.37 38.066 0.09 6.98 4.04 13.62
3/11/2021 2:00:00 PM 3.42 38.156 0.088 6.98 4.17 13.64
3/11/2021 2:15:00 PM 3.45 38.21 0.088 6.98 4.31 13.66
3/11/2021 2:30:00 PM 3.49 38.282 0.091 6.98 4.13 13.65
3/11/2021 2:45:00 PM 3.48 38.264 0.089 6.98 4.31 13.66
3/11/2021 3:00:00 PM 3.46 38.228 0.088 6.98 4.24 13.66
3/11/2021 3:15:00 PM 3.45 38.21 0.09 6.98 4.54 13.65
3/11/2021 3:30:00 PM 3.43 38.174 0.089 6.97 4.24 13.66
3/11/2021 3:45:00 PM 3.39 38.102 0.091 6.97 4.35 13.66
3/11/2021 4:00:00 PM 3.32 37.976 0.088 6.97 4.14 13.66
3/11/2021 4:15:00 PM 3.22 37.796 0.088 6.96 4.57 13.63
3/11/2021 4:30:00 PM 3.16 37.688 0.088 6.96 4.3 13.62
3/11/2021 4:45:00 PM 3.07 37.526 0.089 6.95 4.5 13.61
3/11/2021 5:00:00 PM 3 37.4 0.09 6.95 4.37 13.6
3/11/2021 5:15:00 PM 2.9 37.22 0.09 6.94 4.11 13.58
3/11/2021 5:30:00 PM 2.8 37.04 0.09 6.94 4.35 13.56
3/11/2021 5:45:00 PM 2.71 36.878 0.088 6.93 4.3 13.57
3/11/2021 6:00:00 PM 2.62 36.716 0.093 6.92 4.24 13.54
3/11/2021 6:15:00 PM 2.53 36.554 0.092 6.91 4.29 13.51
3/11/2021 6:30:00 PM 2.42 36.356 0.09 6.91 4.59 13.5
3/11/2021 6:45:00 PM 2.34 36.212 0.093 6.89 4.23 13.47
3/11/2021 7:00:00 PM 2.22 35.996 0.092 6.89 4.44 13.45
3/11/2021 7:15:00 PM 2.12 35.816 0.089 6.87 4.7 13.43
3/11/2021 7:30:00 PM 2.04 35.672 0.09 6.86 4.23 13.41
3/11/2021 7:45:00 PM 1.96 35.528 0.094 6.86 4.65 13.39
3/11/2021 8:00:00 PM 1.9 35.42 0.092 6.86 4.78 13.37
3/11/2021 8:15:00 PM 1.83 35.294 0.091 6.85 4.68 13.36
3/11/2021 8:30:00 PM 1.79 35.222 0.093 6.84 5.02 13.34
3/11/2021 8:45:00 PM 1.74 35.132 0.092 6.84 4.45 13.32
3/11/2021 9:00:00 PM 1.7 35.06 0.092 6.84 4.48 13.32
3/11/2021 9:15:00 PM 1.66 34.988 0.095 6.83 4.7 13.31
3/11/2021 9:30:00 PM 1.64 34.952 0.092 6.84 4.81 13.31
3/11/2021 9:45:00 PM 1.62 34.916 0.091 6.84 5.42 13.3
3/11/2021 10:00:00 PM 1.61 34.898 0.09 6.84 5.18 13.3
3/11/2021 10:15:00 PM 1.59 34.862 0.09 6.84 4.65 13.3
3/11/2021 10:30:00 PM 1.59 34.862 0.092 6.84 4.89 13.29
3/11/2021 10:45:00 PM 1.59 34.862 0.09 6.84 5.42 13.28
3/11/2021 11:00:00 PM 1.59 34.862 0.09 6.85 4.44 13.29
3/11/2021 11:15:00 PM 1.59 34.862 0.09 6.85 4.75 13.3
3/11/2021 11:30:00 PM 1.58 34.844 0.09 6.85 5.67 13.29
3/11/2021 11:45:00 PM 1.58 34.844 0.089 6.85 5.35 13.29
3/12/2021 12:00:00 AM 1.57 34.826 0.09 6.85 4.74 13.28
3/12/2021 12:15:00 AM 1.55 34.79 0.088 6.85 5.45 13.3
3/12/2021 12:30:00 AM 1.52 34.736 0.089 6.84 5.5 13.27
3/12/2021 12:45:00 AM 1.5 34.7 0.09 6.85 5.66 13.28
3/12/2021 1:00:00 AM 1.48 34.664 0.087 6.84 5.73 13.28
3/12/2021 1:15:00 AM 1.46 34.628 0.088 6.84 5.86 13.29
3/12/2021 1:30:00 AM 1.43 34.574 0.088 6.83 7.63 13.28
3/12/2021 1:45:00 AM 1.41 34.538 0.088 6.83 6.69 13.3
3/12/2021 2:00:00 AM 1.4 34.52 0.085 6.83 7.13 13.31
3/12/2021 2:15:00 AM 1.37 34.466 0.086 6.83 6.37 13.32
3/12/2021 2:30:00 AM 1.34 34.412 0.086 6.83 6.39 13.32
3/12/2021 2:45:00 AM 1.3 34.34 0.086 6.82 6.91 13.31
3/12/2021 3:00:00 AM 1.27 34.286 0.086 6.81 6.18 13.31
3/12/2021 3:15:00 AM 1.25 34.25 0.086 6.81 6.79 13.33
3/12/2021 3:30:00 AM 1.25 34.25 0.086 6.8 6.62 13.34
3/12/2021 3:45:00 AM 1.24 34.232 0.085 6.8 7.5 13.35
3/12/2021 4:00:00 AM 1.23 34.214 0.087 6.8 7.56 13.35
3/12/2021 4:15:00 AM 1.21 34.178 0.084 6.8 7.29 13.36
3/12/2021 4:30:00 AM 1.2 34.16 0.084 6.8 7.28 13.38
3/12/2021 4:45:00 AM 1.17 34.106 0.085 6.81 6.9 13.38
3/12/2021 5:00:00 AM 1.15 34.07 0.087 6.8 7.06 13.38
3/12/2021 5:15:00 AM 1.12 34.016 0.085 6.8 6.81 13.4
3/12/2021 5:30:00 AM 1.09 33.962 0.085 6.79 6.9 13.39
3/12/2021 5:45:00 AM 1.07 33.926 0.084 6.79 6.76 13.4
3/12/2021 6:00:00 AM 1.05 33.89 0.084 6.79 7.16 13.41
3/12/2021 6:15:00 AM 1.02 33.836 0.085 6.78 7.13 13.38
3/12/2021 6:30:00 AM 1 33.8 0.084 6.78 7.02 13.4
3/12/2021 6:45:00 AM 0.98 33.764 0.087 6.78 7.22 13.4
3/12/2021 7:00:00 AM 0.95 33.71 0.084 6.77 7.22 13.4
3/12/2021 7:15:00 AM 0.92 33.656 0.083 6.77 7.46 13.4
3/12/2021 7:30:00 AM 0.9 33.62 0.086 6.76 8.33 13.4
3/12/2021 7:45:00 AM 0.89 33.602 0.084 6.76 7.69 13.44
3/12/2021 8:00:00 AM 0.91 33.638 0.084 6.75 8.63 13.46
3/12/2021 8:15:00 AM 0.95 33.71 0.083 6.75 8.41 13.49
3/12/2021 8:30:00 AM 0.99 33.782 0.082 6.75 8.7 13.51
3/12/2021 8:45:00 AM 1.04 33.872 0.083 6.75 9.49 13.52
3/12/2021 9:00:00 AM 1.11 33.998 0.085 6.75 9.36 13.53
3/12/2021 9:15:00 AM 1.19 34.142 0.082 6.76 9.55 13.57
3/12/2021 9:30:00 AM 1.26 34.268 0.081 6.76 9.54 13.58
3/12/2021 9:45:00 AM 1.34 34.412 0.082 6.77 9.13 13.6
3/12/2021 10:00:00 AM 1.4 34.52 0.08 6.76 9.4 13.58
3/12/2021 10:15:00 AM 1.5 34.7 0.082 6.76 9.05 13.64
3/12/2021 10:30:00 AM 1.59 34.862 0.081 6.76 9.15 13.61
3/12/2021 10:45:00 AM 1.7 35.06 0.081 6.76 8.5 13.63
3/12/2021 11:00:00 AM 1.79 35.222 0.079 6.77 8.84 13.6
3/12/2021 11:15:00 AM 1.87 35.366 0.081 6.77 9.21 13.64
3/12/2021 11:30:00 AM 1.97 35.546 0.079 6.78 9.4 13.65
3/12/2021 11:45:00 AM 2.04 35.672 0.079 6.77 8.74 13.59
3/12/2021 12:00:00 PM 2.15 35.87 0.079 6.77 8.86 13.61
3/12/2021 12:15:00 PM 2.25 36.05 0.079 6.78 8.71 13.68
3/12/2021 12:30:00 PM 2.24 36.032 0.079 6.77 8.26 13.64
3/12/2021 12:45:00 PM 2.36 36.248 0.079 6.76 9 13.6
3/12/2021 1:00:00 PM 2.43 36.374 0.078 6.76 8.83 13.63
3/12/2021 1:15:00 PM 2.47 36.446 0.077 6.75 9.16 13.62
3/12/2021 1:30:00 PM 2.49 36.482 0.079 6.74 8.97 13.6
3/12/2021 1:45:00 PM 2.53 36.554 0.079 6.75 9.42 13.66
3/12/2021 2:00:00 PM 2.54 36.572 0.079 6.74 9.87 13.6
3/12/2021 2:15:00 PM 2.53 36.554 0.078 6.75 10.04 13.65
3/12/2021 2:30:00 PM 2.53 36.554 0.077 6.73 9.71 13.56
3/12/2021 2:45:00 PM 2.5 36.5 0.076 6.74 10.54 13.61
3/12/2021 3:00:00 PM 2.43 36.374 0.079 6.73 10.49 13.62
3/12/2021 3:15:00 PM 2.38 36.284 0.078 6.73 10.44 13.61
3/12/2021 3:30:00 PM 2.31 36.158 0.077 6.72 10.88 13.6
3/12/2021 3:45:00 PM 2.2 35.96 0.078 6.71 11.74 13.52
3/12/2021 4:00:00 PM 2.12 35.816 0.078 6.71 11.91 13.6
3/12/2021 4:15:00 PM 2.05 35.69 0.079 6.71 12.73 13.56
3/12/2021 4:30:00 PM 1.99 35.582 0.078 6.71 11.17 13.62
3/12/2021 4:45:00 PM 1.9 35.42 0.077 6.7 12.54 13.6
3/12/2021 5:00:00 PM 1.81 35.258 0.077 6.7 11.4 13.59
3/12/2021 5:15:00 PM 1.71 35.078 0.078 6.68 11.53 13.58
3/12/2021 5:30:00 PM 1.64 34.952 0.078 6.67 10.92 13.55
3/12/2021 5:45:00 PM 1.56 34.808 0.077 6.66 10.48 13.52
3/12/2021 6:00:00 PM 1.49 34.682 0.077 6.66 10.76 13.59
3/12/2021 6:15:00 PM 1.43 34.574 0.077 6.66 10.96 13.56
3/12/2021 6:30:00 PM 1.35 34.43 0.076 6.65 10.31 13.52
3/12/2021 6:45:00 PM 1.31 34.358 0.077 6.64 9.55 13.55
3/12/2021 7:00:00 PM 1.26 34.268 0.073 6.65 9.89 13.58
3/12/2021 7:15:00 PM 1.21 34.178 0.076 6.65 9.37 13.54
3/12/2021 7:30:00 PM 1.16 34.088 0.075 6.65 9.96 13.56
3/12/2021 7:45:00 PM 1.12 34.016 0.076 6.66 10.06 13.54
3/12/2021 8:00:00 PM 1.1 33.98 0.076 6.66 9.86 13.51
3/12/2021 8:15:00 PM 1.09 33.962 0.078 6.67 9.86 13.55
3/12/2021 8:30:00 PM 1.08 33.944 0.076 6.68 10.57 13.51
3/12/2021 8:45:00 PM 1.06 33.908 0.076 6.69 7.91 13.53
3/12/2021 9:00:00 PM 1.06 33.908 0.076 6.69 11.19 13.51
3/12/2021 9:15:00 PM 1.07 33.926 0.077 6.7 13.1 13.52
3/12/2021 9:30:00 PM 1.09 33.962 0.077 6.71 10.52 13.56
3/12/2021 9:45:00 PM 1.11 33.998 0.077 6.71 9.49 13.54
3/12/2021 10:00:00 PM 1.12 34.016 0.075 6.7 11.51 13.53
3/12/2021 10:15:00 PM 1.17 34.106 0.076 6.7 9.04 13.56
3/12/2021 10:30:00 PM 1.16 34.088 0.076 6.72 8.84 13.52
3/12/2021 10:45:00 PM 1.16 34.088 0.076 6.72 8.79 13.5
3/12/2021 11:00:00 PM 1.18 34.124 0.076 6.73 8.78 13.5
3/12/2021 11:15:00 PM 1.16 34.088 0.075 6.73 9.11 13.5
3/12/2021 11:30:00 PM 1.18 34.124 0.075 6.73 9.17 13.52
3/12/2021 11:45:00 PM 1.19 34.142 0.074 6.73 8.75 13.51
3/13/2021 12:00:00 AM 1.17 34.106 0.074 6.73 9.16 13.53
3/13/2021 12:15:00 AM 1.15 34.07 0.074 6.72 8.58 13.51
3/13/2021 12:30:00 AM 1.14 34.052 0.072 6.72 9.11 13.52
3/13/2021 12:45:00 AM 1.11 33.998 0.074 6.71 8.81 13.52
3/13/2021 1:00:00 AM 1.09 33.962 0.072 6.71 9.43 13.55
3/13/2021 1:15:00 AM 1.06 33.908 0.071 6.72 9.08 13.56
3/13/2021 1:30:00 AM 1.05 33.89 0.072 6.7 8.77 13.53
3/13/2021 1:45:00 AM 1.03 33.854 0.072 6.71 8.89 13.56
3/13/2021 2:00:00 AM 1 33.8 0.071 6.71 10 13.57
3/13/2021 2:15:00 AM 0.97 33.746 0.072 6.69 9.06 13.57
3/13/2021 2:30:00 AM 0.97 33.746 0.071 6.71 9.03 13.61
3/13/2021 2:45:00 AM 0.95 33.71 0.073 6.69 9.82 13.59
3/13/2021 3:00:00 AM 0.92 33.656 0.072 6.68 9.45 13.59
3/13/2021 3:15:00 AM 0.91 33.638 0.069 6.68 9.22 13.61
3/13/2021 3:30:00 AM 0.91 33.638 0.071 6.68 9.54 13.62
3/13/2021 3:45:00 AM 0.91 33.638 0.069 6.68 9.6 13.63
3/13/2021 4:00:00 AM 0.89 33.602 0.069 6.67 9.61 13.62
3/13/2021 4:15:00 AM 0.89 33.602 0.068 6.65 9.52 13.62
3/13/2021 4:30:00 AM 0.89 33.602 0.069 6.66 9.94 13.66
3/13/2021 4:45:00 AM 0.87 33.566 0.069 6.66 9.19 13.65
3/13/2021 5:00:00 AM 0.87 33.566 0.069 6.65 9.56 13.66
3/13/2021 5:15:00 AM 0.85 33.53 0.069 6.65 9.6 13.67
3/13/2021 5:30:00 AM 0.83 33.494 0.069 6.64 9 13.63
3/13/2021 5:45:00 AM 0.84 33.512 0.068 6.64 9.58 13.67
3/13/2021 6:00:00 AM 0.84 33.512 0.066 6.63 9.66 13.67
3/13/2021 6:15:00 AM 0.84 33.512 0.067 6.64 9.35 13.67
3/13/2021 6:30:00 AM 0.82 33.476 0.067 6.63 9.22 13.64
3/13/2021 6:45:00 AM 0.85 33.53 0.068 6.64 10.03 13.66
3/13/2021 7:00:00 AM 0.85 33.53 0.066 6.63 9.49 13.68
3/13/2021 7:15:00 AM 0.84 33.512 0.067 6.63 9.57 13.66
3/13/2021 7:30:00 AM 0.85 33.53 0.064 6.63 9.3 13.68
3/13/2021 7:45:00 AM 0.88 33.584 0.067 6.63 9.71 13.68
3/13/2021 8:00:00 AM 0.92 33.656 0.068 6.63 9.36 13.7
3/13/2021 8:15:00 AM 0.98 33.764 0.066 6.64 9.56 13.71
3/13/2021 8:30:00 AM 1 33.8 0.068 6.64 9.71 13.69
3/13/2021 8:45:00 AM 1.07 33.926 0.068 6.64 8.95 13.7
3/13/2021 9:00:00 AM 1.14 34.052 0.066 6.64 9.02 13.7
3/13/2021 9:15:00 AM 1.22 34.196 0.066 6.64 9.1 13.72
3/13/2021 9:30:00 AM 1.27 34.286 0.066 6.65 8.92 13.73
3/13/2021 9:45:00 AM 1.36 34.448 0.066 6.65 8.76 13.75
3/13/2021 10:00:00 AM 1.44 34.592 0.067 6.65 8.87 13.75
3/13/2021 10:15:00 AM 1.54 34.772 0.065 6.66 8.9 13.75
3/13/2021 10:30:00 AM 1.64 34.952 0.065 6.67 8.56 13.77
3/13/2021 10:45:00 AM 1.7 35.06 0.065 6.67 8.55 13.74
3/13/2021 11:00:00 AM 1.82 35.276 0.067 6.66 8.16 13.74
3/13/2021 11:15:00 AM 1.92 35.456 0.066 6.68 8.09 13.76
3/13/2021 11:30:00 AM 2.01 35.618 0.067 6.68 8.2 13.76
3/13/2021 11:45:00 AM 2.1 35.78 0.067 6.68 8.29 13.75
3/13/2021 12:00:00 PM 2.18 35.924 0.065 6.68 8.14 13.75
3/13/2021 12:15:00 PM 2.27 36.086 0.067 6.68 7.85 13.75
3/13/2021 12:30:00 PM 2.32 36.176 0.066 6.69 7.81 13.76
3/13/2021 12:45:00 PM 2.38 36.284 0.065 6.68 7.95 13.74
3/13/2021 1:00:00 PM 2.44 36.392 0.065 6.68 7.7 13.76
3/13/2021 1:15:00 PM 2.46 36.428 0.065 6.68 7.85 13.71
3/13/2021 1:30:00 PM 2.53 36.554 0.066 6.68 7.75 13.77
3/13/2021 1:45:00 PM 2.54 36.572 0.066 6.69 7.34 13.73
3/13/2021 2:00:00 PM 2.56 36.608 0.066 6.68 7.35 13.75
3/13/2021 2:15:00 PM 2.55 36.59 0.065 6.68 7.21 13.72
3/13/2021 2:30:00 PM 2.55 36.59 0.066 6.68 7.17 13.72
3/13/2021 2:45:00 PM 2.52 36.536 0.066 6.67 6.89 13.7
3/13/2021 3:00:00 PM 2.5 36.5 0.065 6.68 7.35 13.72
3/13/2021 3:15:00 PM 2.47 36.446 0.066 6.67 7.01 13.71
3/13/2021 3:30:00 PM 2.41 36.338 0.066 6.67 6.95 13.7
3/13/2021 3:45:00 PM 2.38 36.284 0.066 6.68 6.87 13.76
3/13/2021 4:00:00 PM 2.32 36.176 0.065 6.67 7.18 13.7
3/13/2021 4:15:00 PM 2.24 36.032 0.066 6.66 6.92 13.71
3/13/2021 4:30:00 PM 2.15 35.87 0.066 6.65 7.14 13.69
3/13/2021 4:45:00 PM 2.09 35.762 0.066 6.65 6.71 13.7
3/13/2021 5:00:00 PM 2 35.6 0.065 6.65 6.61 13.7
3/13/2021 5:15:00 PM 1.92 35.456 0.065 6.64 6.68 13.73
3/13/2021 5:30:00 PM 1.82 35.276 0.067 6.63 6.92 13.7
3/13/2021 5:45:00 PM 1.74 35.132 0.066 6.63 6.73 13.69
3/13/2021 6:00:00 PM 1.65 34.97 0.065 6.63 6.64 13.73
3/13/2021 6:15:00 PM 1.57 34.826 0.066 6.62 6.83 13.7
3/13/2021 6:30:00 PM 1.51 34.718 0.066 6.61 6.52 13.74
3/13/2021 6:45:00 PM 1.47 34.646 0.067 6.6 6.46 13.7
3/13/2021 7:00:00 PM 1.41 34.538 0.065 6.6 6.54 13.71
3/13/2021 7:15:00 PM 1.36 34.448 0.066 6.6 6.57 13.7
3/13/2021 7:30:00 PM 1.31 34.358 0.065 6.6 6.91 13.68
3/13/2021 7:45:00 PM 1.26 34.268 0.064 6.6 6.72 13.69
3/13/2021 8:00:00 PM 1.22 34.196 0.064 6.6 6.48 13.7
3/13/2021 8:15:00 PM 1.19 34.142 0.064 6.6 6.45 13.67
3/13/2021 8:30:00 PM 1.16 34.088 0.067 6.59 6.21 13.68
3/13/2021 8:45:00 PM 1.12 34.016 0.064 6.58 6.38 13.7
3/13/2021 9:00:00 PM 1.1 33.98 0.065 6.58 6.22 13.7
3/13/2021 9:15:00 PM 1.08 33.944 0.064 6.58 6.15 13.66
3/13/2021 9:30:00 PM 1.06 33.908 0.066 6.59 6.37 13.71
3/13/2021 9:45:00 PM 1.04 33.872 0.064 6.58 6.38 13.69
3/13/2021 10:00:00 PM 1.02 33.836 0.065 6.58 6.41 13.69
3/13/2021 10:15:00 PM 1.01 33.818 0.065 6.59 6.56 13.68
3/13/2021 10:30:00 PM 1 33.8 0.063 6.58 6.32 13.68
3/13/2021 10:45:00 PM 0.99 33.782 0.064 6.58 6.56 13.69
3/13/2021 11:00:00 PM 0.98 33.764 0.065 6.59 6.22 13.69
3/13/2021 11:15:00 PM 0.98 33.764 0.065 6.59 6.15 13.7
3/13/2021 11:30:00 PM 0.97 33.746 0.064 6.59 5.94 13.68
3/13/2021 11:45:00 PM 0.97 33.746 0.064 6.59 6.27 13.67
3/14/2021 12:00:00 AM 0.96 33.728 0.062 6.59 6.2 13.7
3/14/2021 12:15:00 AM 0.98 33.764 0.063 6.59 6.18 13.7
3/14/2021 12:30:00 AM 0.98 33.764 0.063 6.59 6.38 13.71
3/14/2021 12:45:00 AM 0.97 33.746 0.062 6.59 6.09 13.69
3/14/2021 1:00:00 AM 0.97 33.746 0.062 6.59 6.32 13.69
3/14/2021 1:15:00 AM 0.97 33.746 0.061 6.59 6.24 13.67
3/14/2021 1:30:00 AM 0.99 33.782 0.062 6.6 5.99 13.7
3/14/2021 1:45:00 AM 1 33.8 0.064 6.59 6.09 13.69
3/14/2021 3:00:00 AM 1.03 33.854 0.062 6.62 6 13.72
3/14/2021 4:15:00 AM 1.03 33.854 0.062 6.62 6.07 13.68
3/14/2021 4:30:00 AM 1.05 33.89 0.062 6.61 6.07 13.68
3/14/2021 4:45:00 AM 1.04 33.872 0.064 6.6 5.94 13.61
3/14/2021 5:00:00 AM 1.07 33.926 0.065 6.61 6.03 13.67
3/14/2021 5:15:00 AM 1.08 33.944 0.063 6.61 5.93 13.65
3/14/2021 5:30:00 AM 1.1 33.98 0.064 6.62 5.91 13.67
3/14/2021 5:45:00 AM 1.1 33.98 0.063 6.61 5.92 13.62
3/14/2021 6:00:00 AM 1.13 34.034 0.063 6.61 5.93 13.65
3/14/2021 6:15:00 AM 1.13 34.034 0.063 6.61 5.98 13.59
3/14/2021 6:30:00 AM 1.12 34.016 0.062 6.61 6.16 13.62
3/14/2021 6:45:00 AM 1.12 34.016 0.062 6.61 5.79 13.57
3/14/2021 7:00:00 AM 1.17 34.106 0.061 6.61 5.71 13.63
3/14/2021 7:15:00 AM 1.17 34.106 0.063 6.61 5.73 13.62
3/14/2021 7:30:00 AM 1.19 34.142 0.063 6.61 5.91 13.62
3/14/2021 7:45:00 AM 1.18 34.124 0.062 6.6 6.1 13.6
3/14/2021 8:00:00 AM 1.19 34.142 0.061 6.61 5.61 13.62
3/14/2021 8:15:00 AM 1.2 34.16 0.064 6.6 5.63 13.62
3/14/2021 8:30:00 AM 1.21 34.178 0.061 6.6 5.63 13.62
3/14/2021 8:45:00 AM 1.24 34.232 0.061 6.61 5.5 13.63
3/14/2021 9:00:00 AM 1.29 34.322 0.061 6.6 5.46 13.61
3/14/2021 9:15:00 AM 1.32 34.376 0.061 6.59 5.32 13.57
3/14/2021 9:30:00 AM 1.4 34.52 0.061 6.61 5.67 13.63
3/14/2021 9:45:00 AM 1.46 34.628 0.061 6.61 5.36 13.63
3/14/2021 10:00:00 AM 1.49 34.682 0.06 6.6 5.28 13.57
3/14/2021 10:15:00 AM 1.55 34.79 0.061 6.61 5.36 13.62
3/14/2021 10:30:00 AM 1.58 34.844 0.061 6.6 5.38 13.56
3/14/2021 10:45:00 AM 1.63 34.934 0.059 6.62 5.3 13.64
3/14/2021 11:00:00 AM 1.67 35.006 0.061 6.63 5.22 13.61
3/14/2021 11:15:00 AM 1.74 35.132 0.061 6.64 5.35 13.66
3/14/2021 11:30:00 AM 1.76 35.168 0.062 6.62 5.57 13.61
3/14/2021 11:45:00 AM 1.86 35.348 0.061 6.64 5.41 13.65
3/14/2021 12:00:00 PM 1.93 35.474 0.06 6.65 5.52 13.65
3/14/2021 12:15:00 PM 1.96 35.528 0.06 6.65 5.39 13.62
3/14/2021 12:30:00 PM 2.03 35.654 0.061 6.65 5.53 13.63
3/14/2021 12:45:00 PM 2.05 35.69 0.061 6.65 5.4 13.61
3/14/2021 1:00:00 PM 2.1 35.78 0.059 6.66 5.5 13.62
3/14/2021 1:15:00 PM 2.11 35.798 0.059 6.65 5.7 13.61
3/14/2021 1:30:00 PM 2.16 35.888 0.062 6.66 5.45 13.6
3/14/2021 1:45:00 PM 2.16 35.888 0.062 6.67 5.79 13.61
3/14/2021 2:00:00 PM 2.12 35.816 0.061 6.67 5.89 13.6
3/14/2021 2:15:00 PM 2.1 35.78 0.062 6.66 5.68 13.58
3/14/2021 2:30:00 PM 2.15 35.87 0.061 6.67 5.75 13.6
3/14/2021 2:45:00 PM 2.16 35.888 0.061 6.66 5.73 13.58
3/14/2021 3:00:00 PM 2.2 35.96 0.061 6.67 5.73 13.59
3/14/2021 3:15:00 PM 2.19 35.942 0.061 6.67 6.03 13.56
3/14/2021 3:30:00 PM 2.13 35.834 0.061 6.66 6.48 13.53
3/14/2021 3:45:00 PM 2.18 35.924 0.062 6.67 6.59 13.54
3/14/2021 4:00:00 PM 2.19 35.942 0.061 6.67 6.37 13.56
3/14/2021 4:15:00 PM 2.2 35.96 0.061 6.68 6.04 13.58
3/14/2021 4:30:00 PM 2.21 35.978 0.062 6.68 5.81 13.57
3/14/2021 4:45:00 PM 2.19 35.942 0.061 6.67 5.57 13.57
3/14/2021 5:00:00 PM 2.14 35.852 0.063 6.67 5.84 13.56
3/14/2021 5:15:00 PM 2.08 35.744 0.063 6.66 6.58 13.52
3/14/2021 5:30:00 PM 2.03 35.654 0.061 6.67 5.77 13.53
3/14/2021 5:45:00 PM 1.98 35.564 0.06 6.67 5.79 13.56
3/14/2021 6:00:00 PM 1.91 35.438 0.062 6.66 5.4 13.58
3/14/2021 6:15:00 PM 1.85 35.33 0.06 6.68 5.29 13.58
3/14/2021 6:30:00 PM 1.79 35.222 0.061 6.67 5.22 13.59
3/14/2021 6:45:00 PM 1.73 35.114 0.063 6.67 5.49 13.6
3/14/2021 7:00:00 PM 1.66 34.988 0.062 6.67 5.36 13.6
3/14/2021 7:15:00 PM 1.57 34.826 0.061 6.66 5.24 13.6
3/14/2021 7:30:00 PM 1.5 34.7 0.062 6.66 5.34 13.6
3/14/2021 7:45:00 PM 1.44 34.592 0.062 6.64 5.59 13.56
3/14/2021 8:00:00 PM 1.38 34.484 0.062 6.64 5.28 13.6
3/14/2021 8:15:00 PM 1.32 34.376 0.062 6.64 5.2 13.58
3/14/2021 8:30:00 PM 1.26 34.268 0.061 6.65 5.17 13.61
3/14/2021 8:45:00 PM 1.21 34.178 0.062 6.64 5 13.59
3/14/2021 9:00:00 PM 1.17 34.106 0.062 6.64 5.11 13.6
3/14/2021 9:15:00 PM 1.14 34.052 0.061 6.63 5 13.59
3/14/2021 9:30:00 PM 1.11 33.998 0.062 6.64 4.93 13.61
3/14/2021 9:45:00 PM 1.09 33.962 0.062 6.64 5.17 13.6
3/14/2021 10:00:00 PM 1.07 33.926 0.06 6.64 5.33 13.65
3/14/2021 10:15:00 PM 1.01 33.818 0.061 6.63 5.02 13.6
3/14/2021 10:30:00 PM 1 33.8 0.062 6.64 5.04 13.62
3/14/2021 10:45:00 PM 0.98 33.764 0.058 6.64 5.43 13.63
3/14/2021 11:00:00 PM 0.95 33.71 0.062 6.65 5.01 13.62
3/14/2021 11:15:00 PM 0.97 33.746 0.06 6.65 5.06 13.65
3/14/2021 11:30:00 PM 0.95 33.71 0.061 6.65 5.23 13.64
3/14/2021 11:45:00 PM 0.92 33.656 0.062 6.65 5.21 13.64
3/15/2021 12:00:00 AM 0.92 33.656 0.061 6.66 5.08 13.67
3/15/2021 12:15:00 AM 0.89 33.602 0.061 6.66 5.24 13.66
3/15/2021 12:30:00 AM 0.92 33.656 0.062 6.66 4.93 13.68
3/15/2021 12:45:00 AM 0.92 33.656 0.062 6.66 4.91 13.65
3/15/2021 1:00:00 AM 0.87 33.566 0.059 6.67 4.99 13.67
3/15/2021 1:15:00 AM 0.92 33.656 0.061 6.68 4.89 13.68
3/15/2021 1:30:00 AM 0.91 33.638 0.061 6.68 4.96 13.67
3/15/2021 1:45:00 AM 0.93 33.674 0.06 6.67 4.72 13.69
3/15/2021 2:00:00 AM 0.9 33.62 0.061 6.68 5.02 13.68
3/15/2021 2:15:00 AM 0.86 33.548 0.06 6.69 4.95 13.68
3/15/2021 2:30:00 AM 0.84 33.512 0.061 6.69 5.02 13.67
3/15/2021 2:45:00 AM 0.82 33.476 0.061 6.68 4.97 13.68
3/15/2021 3:00:00 AM 0.8 33.44 0.061 6.68 5.05 13.67
3/15/2021 3:15:00 AM 0.81 33.458 0.059 6.67 5.03 13.69
3/15/2021 3:30:00 AM 0.78 33.404 0.061 6.68 5.4 13.68
3/15/2021 3:45:00 AM 0.79 33.422 0.061 6.68 5.28 13.69
3/15/2021 4:00:00 AM 0.78 33.404 0.061 6.68 5.43 13.69
3/15/2021 4:15:00 AM 0.76 33.368 0.06 6.68 5.06 13.68
3/15/2021 4:30:00 AM 0.74 33.332 0.062 6.68 5.07 13.68
3/15/2021 4:45:00 AM 0.73 33.314 0.061 6.68 5.14 13.69
3/15/2021 5:00:00 AM 0.7 33.26 0.061 6.68 4.99 13.68
3/15/2021 5:15:00 AM 0.67 33.206 0.061 6.68 4.82 13.67
3/15/2021 5:30:00 AM 0.67 33.206 0.06 6.68 4.75 13.67
3/15/2021 5:45:00 AM 0.66 33.188 0.061 6.68 5 13.68
3/15/2021 6:00:00 AM 0.67 33.206 0.06 6.68 4.77 13.69
3/15/2021 6:15:00 AM 0.65 33.17 0.06 6.68 4.8 13.69
3/15/2021 6:30:00 AM 0.62 33.116 0.061 6.68 4.64 13.68
3/15/2021 6:45:00 AM 0.58 33.044 0.061 6.68 4.66 13.67
3/15/2021 7:00:00 AM 0.57 33.026 0.063 6.68 5.03 13.68
3/15/2021 7:15:00 AM 0.55 32.99 0.06 6.68 4.75 13.68
3/15/2021 7:30:00 AM 0.56 33.008 0.06 6.67 4.75 13.68
3/15/2021 7:45:00 AM 0.55 32.99 0.061 6.68 4.71 13.69
3/15/2021 8:00:00 AM 0.56 33.008 0.06 6.68 4.62 13.71
3/15/2021 8:15:00 AM 0.54 32.972 0.059 6.68 5.19 13.7
3/15/2021 8:30:00 AM 0.53 32.954 0.06 6.68 5.42 13.7
3/15/2021 8:45:00 AM 0.56 33.008 0.062 6.68 5.65 13.71
3/15/2021 9:00:00 AM 0.58 33.044 0.062 6.68 5.4 13.7
3/15/2021 9:15:00 AM 0.63 33.134 0.062 6.68 5.62 13.72
3/15/2021 9:30:00 AM 0.69 33.242 0.061 6.69 5.67 13.72
3/15/2021 9:45:00 AM 0.74 33.332 0.061 6.69 5.53 13.72
3/15/2021 10:00:00 AM 0.82 33.476 0.062 6.69 5.24 13.73
3/15/2021 10:15:00 AM 0.88 33.584 0.061 6.7 5.39 13.73
3/15/2021 10:30:00 AM 0.99 33.782 0.061 6.7 5.46 13.75
3/15/2021 10:45:00 AM 1.07 33.926 0.06 6.71 5.75 13.75
3/15/2021 11:00:00 AM 1.18 34.124 0.06 6.71 5.72 13.76
3/15/2021 11:15:00 AM 1.27 34.286 0.06 6.72 5.71 13.75
3/15/2021 11:30:00 AM 1.41 34.538 0.06 6.72 5.73 13.76
3/15/2021 11:45:00 AM 1.51 34.718 0.059 6.73 5.74 13.75
3/15/2021 12:00:00 PM 1.66 34.988 0.061 6.74 5.73 13.76
3/15/2021 12:15:00 PM 1.77 35.186 0.062 6.74 5.56 13.75
3/15/2021 12:30:00 PM 1.9 35.42 0.059 6.75 5.36 13.76
3/15/2021 12:45:00 PM 2.02 35.636 0.064 6.75 5.32 13.76
3/15/2021 1:00:00 PM 2.14 35.852 0.062 6.76 5.34 13.75
3/15/2021 1:15:00 PM 2.28 36.104 0.063 6.76 5.41 13.75
3/15/2021 1:30:00 PM 2.4 36.32 0.06 6.76 5.21 13.74
3/15/2021 1:45:00 PM 2.49 36.482 0.061 6.76 5.38 13.73
3/15/2021 2:00:00 PM 2.6 36.68 0.06 6.77 5.45 13.73
3/15/2021 2:15:00 PM 2.68 36.824 0.062 6.76 5.31 13.71
3/15/2021 2:30:00 PM 2.78 37.004 0.06 6.76 5.24 13.71
3/15/2021 2:45:00 PM 2.83 37.094 0.061 6.76 4.91 13.71
3/15/2021 3:00:00 PM 2.91 37.238 0.061 6.77 5.16 13.7
3/15/2021 3:15:00 PM 2.96 37.328 0.061 6.75 4.98 13.7
3/15/2021 3:30:00 PM 2.97 37.346 0.063 6.76 5.17 13.7
3/15/2021 3:45:00 PM 3 37.4 0.063 6.75 5.05 13.69
3/15/2021 4:00:00 PM 2.97 37.346 0.061 6.75 5.11 13.69
3/15/2021 4:15:00 PM 2.97 37.346 0.062 6.75 5.18 13.67
3/15/2021 4:30:00 PM 2.91 37.238 0.061 6.75 4.94 13.68
3/15/2021 4:45:00 PM 2.89 37.202 0.062 6.75 4.68 13.67
3/15/2021 5:00:00 PM 2.82 37.076 0.061 6.74 4.89 13.67
3/15/2021 5:15:00 PM 2.77 36.986 0.061 6.74 4.78 13.67
3/15/2021 5:30:00 PM 2.68 36.824 0.06 6.74 4.5 13.67
3/15/2021 5:45:00 PM 2.61 36.698 0.061 6.74 4.53 13.67
3/15/2021 6:00:00 PM 2.51 36.518 0.062 6.73 4.79 13.67
3/15/2021 6:15:00 PM 2.4 36.32 0.062 6.73 4.5 13.67
3/15/2021 6:30:00 PM 2.29 36.122 0.061 6.73 4.37 13.67
3/15/2021 6:45:00 PM 2.18 35.924 0.06 6.72 4.41 13.67
3/15/2021 7:00:00 PM 2.08 35.744 0.061 6.72 4.46 13.67
3/15/2021 7:15:00 PM 2 35.6 0.061 6.71 4.6 13.66
3/15/2021 7:30:00 PM 1.88 35.384 0.059 6.7 4.72 13.65
3/15/2021 7:45:00 PM 1.8 35.24 0.063 6.68 4.22 13.64
3/15/2021 8:00:00 PM 1.71 35.078 0.062 6.68 4.62 13.64
3/15/2021 8:15:00 PM 1.64 34.952 0.062 6.68 4.29 13.64
3/15/2021 8:30:00 PM 1.57 34.826 0.062 6.67 4.49 13.63
3/15/2021 8:45:00 PM 1.53 34.754 0.062 6.67 4.45 13.63
3/15/2021 9:00:00 PM 1.47 34.646 0.061 6.68 4.54 13.62
3/15/2021 9:15:00 PM 1.44 34.592 0.06 6.67 4.7 13.61
3/15/2021 9:30:00 PM 1.41 34.538 0.062 6.67 4.76 13.6
3/15/2021 9:45:00 PM 1.36 34.448 0.062 6.67 4.48 13.61
3/15/2021 10:00:00 PM 1.34 34.412 0.062 6.66 4.58 13.6
3/15/2021 10:15:00 PM 1.32 34.376 0.061 6.67 4.77 13.59
3/15/2021 10:30:00 PM 1.29 34.322 0.062 6.67 4.8 13.59
3/15/2021 10:45:00 PM 1.27 34.286 0.061 6.67 4.9 13.58
3/15/2021 11:00:00 PM 1.24 34.232 0.059 6.67 4.76 13.58
3/15/2021 11:15:00 PM 1.2 34.16 0.062 6.68 4.55 13.6
3/15/2021 11:30:00 PM 1.18 34.124 0.062 6.68 4.69 13.59
3/15/2021 11:45:00 PM 1.16 34.088 0.061 6.68 4.9 13.6
3/16/2021 12:00:00 AM 1.14 34.052 0.061 6.69 4.48 13.61
3/16/2021 12:15:00 AM 1.11 33.998 0.061 6.69 4.75 13.6
3/16/2021 12:30:00 AM 1.1 33.98 0.06 6.69 4.56 13.59
3/16/2021 12:45:00 AM 1.08 33.944 0.062 6.7 4.97 13.62
3/16/2021 1:00:00 AM 1.06 33.908 0.062 6.7 4.61 13.63
3/16/2021 1:15:00 AM 1.05 33.89 0.062 6.7 4.92 13.62
3/16/2021 1:30:00 AM 1.04 33.872 0.059 6.71 4.63 13.61
3/16/2021 1:45:00 AM 1.02 33.836 0.06 6.71 4.76 13.59
3/16/2021 2:00:00 AM 1.02 33.836 0.06 6.7 5.01 13.62
3/16/2021 2:15:00 AM 1 33.8 0.06 6.7 5.06 13.59
3/16/2021 2:30:00 AM 1 33.8 0.059 6.7 4.96 13.61
3/16/2021 2:45:00 AM 0.99 33.782 0.058 6.7 4.87 13.61
3/16/2021 3:00:00 AM 0.98 33.764 0.061 6.7 4.93 13.6
3/16/2021 3:15:00 AM 0.98 33.764 0.062 6.7 5.06 13.6
3/16/2021 3:30:00 AM 0.97 33.746 0.06 6.7 5.08 13.6
3/16/2021 3:45:00 AM 0.98 33.764 0.058 6.72 5.37 13.63
3/16/2021 4:00:00 AM 0.98 33.764 0.059 6.71 5.12 13.62
3/16/2021 4:15:00 AM 0.97 33.746 0.061 6.71 5.14 13.61
3/16/2021 4:30:00 AM 0.97 33.746 0.061 6.71 5.11 13.6
3/16/2021 4:45:00 AM 0.97 33.746 0.059 6.71 5.57 13.59
3/16/2021 5:00:00 AM 0.97 33.746 0.061 6.71 5.06 13.61
3/16/2021 5:15:00 AM 0.96 33.728 0.059 6.71 5.21 13.61
3/16/2021 5:30:00 AM 0.96 33.728 0.061 6.72 5 13.6
3/16/2021 5:45:00 AM 0.95 33.71 0.059 6.71 4.92 13.58
3/16/2021 6:00:00 AM 0.94 33.692 0.06 6.72 4.98 13.58
3/16/2021 6:15:00 AM 0.93 33.674 0.06 6.72 4.83 13.58
3/16/2021 6:30:00 AM 0.93 33.674 0.062 6.72 4.72 13.59
3/16/2021 6:45:00 AM 0.93 33.674 0.06 6.72 4.73 13.61
3/16/2021 7:00:00 AM 0.91 33.638 0.06 6.72 4.52 13.6
3/16/2021 7:15:00 AM 0.9 33.62 0.061 6.72 4.42 13.56
3/16/2021 7:30:00 AM 0.88 33.584 0.06 6.71 4.24 13.56
3/16/2021 7:45:00 AM 0.88 33.584 0.06 6.72 4.22 13.56
3/16/2021 8:00:00 AM 0.88 33.584 0.062 6.71 4.43 13.53
3/16/2021 8:15:00 AM 0.86 33.548 0.06 6.72 4.34 13.54
3/16/2021 8:30:00 AM 0.86 33.548 0.061 6.72 4.87 13.54
3/16/2021 8:45:00 AM 0.85 33.53 0.06 6.71 4.62 13.54
3/16/2021 9:00:00 AM 0.86 33.548 0.06 6.72 5.01 13.54
3/16/2021 9:15:00 AM 0.86 33.548 0.061 6.72 4.84 13.53
3/16/2021 9:30:00 AM 0.87 33.566 0.061 6.73 5.14 13.53
3/16/2021 9:45:00 AM 0.88 33.584 0.059 6.73 4.72 13.55
3/16/2021 10:00:00 AM 0.91 33.638 0.061 6.73 4.87 13.58
3/16/2021 10:15:00 AM 0.94 33.692 0.06 6.73 4.57 13.59
3/16/2021 10:30:00 AM 0.96 33.728 0.061 6.73 4.56 13.59
3/16/2021 10:45:00 AM 0.99 33.782 0.06 6.73 4.41 13.61
3/16/2021 11:00:00 AM 1.01 33.818 0.064 6.74 4.64 13.63
3/16/2021 11:15:00 AM 1.04 33.872 0.061 6.74 4.49 13.65
3/16/2021 11:30:00 AM 1.07 33.926 0.061 6.75 4.48 13.66
3/16/2021 11:45:00 AM 1.1 33.98 0.063 6.75 4.37 13.67
3/16/2021 12:00:00 PM 1.12 34.016 0.062 6.75 4.5 13.66
3/16/2021 12:15:00 PM 1.15 34.07 0.061 6.75 4.4 13.69
3/16/2021 12:30:00 PM 1.18 34.124 0.062 6.75 4.28 13.71
3/16/2021 12:45:00 PM 1.19 34.142 0.063 6.76 4.63 13.7
3/16/2021 1:00:00 PM 1.22 34.196 0.061 6.76 4.44 13.72
3/16/2021 1:15:00 PM 1.26 34.268 0.062 6.76 4.13 13.73
3/16/2021 1:30:00 PM 1.3 34.34 0.063 6.76 4.3 13.73
3/16/2021 1:45:00 PM 1.34 34.412 0.063 6.76 4.37 13.73
3/16/2021 2:00:00 PM 1.39 34.502 0.063 6.77 4.39 13.73
3/16/2021 2:15:00 PM 1.41 34.538 0.063 6.77 4.5 13.72
3/16/2021 2:30:00 PM 1.46 34.628 0.063 6.77 4.52 13.73
3/16/2021 2:45:00 PM 1.48 34.664 0.061 6.77 4.5 13.74
3/16/2021 3:00:00 PM 1.49 34.682 0.062 6.78 4.46 13.75
3/16/2021 3:15:00 PM 1.49 34.682 0.062 6.77 4.32 13.73
3/16/2021 3:30:00 PM 1.5 34.7 0.064 6.78 4.41 13.75
3/16/2021 3:45:00 PM 1.49 34.682 0.063 6.79 4.21 13.75
3/16/2021 4:00:00 PM 1.49 34.682 0.064 6.78 4.25 13.75
3/16/2021 4:15:00 PM 1.48 34.664 0.063 6.78 4.73 13.75
3/16/2021 4:30:00 PM 1.47 34.646 0.061 6.78 4.27 13.77
3/16/2021 4:45:00 PM 1.46 34.628 0.062 6.78 4.44 13.76
3/16/2021 5:00:00 PM 1.44 34.592 0.062 6.78 4.67 13.76
3/16/2021 5:15:00 PM 1.42 34.556 0.062 6.78 4.44 13.75
3/16/2021 5:30:00 PM 1.39 34.502 0.062 6.79 4.29 13.75
3/16/2021 5:45:00 PM 1.37 34.466 0.062 6.78 4.36 13.75
3/16/2021 6:00:00 PM 1.35 34.43 0.062 6.78 4.23 13.74
3/16/2021 6:15:00 PM 1.32 34.376 0.062 6.77 4.21 13.74
3/16/2021 6:30:00 PM 1.3 34.34 0.062 6.77 4.55 13.72
3/16/2021 6:45:00 PM 1.3 34.34 0.061 6.77 4.16 13.72
3/16/2021 7:00:00 PM 1.28 34.304 0.063 6.77 4.33 13.72
3/16/2021 7:15:00 PM 1.25 34.25 0.063 6.78 4.54 13.7
3/16/2021 7:30:00 PM 1.23 34.214 0.063 6.78 4.08 13.7
3/16/2021 7:45:00 PM 1.21 34.178 0.063 6.77 4.34 13.69
3/16/2021 8:00:00 PM 1.19 34.142 0.062 6.77 4.55 13.69
3/16/2021 8:15:00 PM 1.18 34.124 0.062 6.76 4.19 13.67
3/16/2021 8:30:00 PM 1.16 34.088 0.061 6.77 4.5 13.66
3/16/2021 8:45:00 PM 1.15 34.07 0.061 6.76 4.47 13.66
3/16/2021 9:00:00 PM 1.15 34.07 0.063 6.76 4.58 13.64
3/16/2021 9:15:00 PM 1.13 34.034 0.062 6.76 4.58 13.64
3/16/2021 9:30:00 PM 1.11 33.998 0.063 6.76 4.43 13.63
3/16/2021 9:45:00 PM 1.11 33.998 0.063 6.76 4.32 13.62
3/16/2021 10:00:00 PM 1.09 33.962 0.063 6.77 4.39 13.63
3/16/2021 10:15:00 PM 1.09 33.962 0.064 6.76 4.46 13.61
3/16/2021 10:30:00 PM 1.07 33.926 0.062 6.76 4.59 13.62
3/16/2021 10:45:00 PM 1.08 33.944 0.061 6.75 4.56 13.6
3/16/2021 11:00:00 PM 1.05 33.89 0.062 6.76 4.56 13.6
3/16/2021 11:15:00 PM 1.05 33.89 0.061 6.75 4.4 13.6
3/16/2021 11:30:00 PM 1.04 33.872 0.059 6.76 4.74 13.6
3/16/2021 11:45:00 PM 1.04 33.872 0.063 6.75 4.46 13.58
3/17/2021 12:00:00 AM 1.03 33.854 0.061 6.76 4.54 13.59
3/17/2021 12:15:00 AM 1.03 33.854 0.063 6.76 4.41 13.59
3/17/2021 12:30:00 AM 1.01 33.818 0.061 6.76 4.63 13.58
3/17/2021 12:45:00 AM 1 33.8 0.063 6.76 4.4 13.59
3/17/2021 1:00:00 AM 0.99 33.782 0.062 6.76 4.39 13.58
3/17/2021 1:15:00 AM 0.99 33.782 0.061 6.76 4.96 13.57
3/17/2021 1:30:00 AM 0.98 33.764 0.062 6.76 4.54 13.56
3/17/2021 1:45:00 AM 0.98 33.764 0.062 6.76 4.5 13.57
3/17/2021 2:00:00 AM 0.97 33.746 0.061 6.76 4.49 13.56
3/17/2021 2:15:00 AM 0.96 33.728 0.061 6.76 4.56 13.55
3/17/2021 2:30:00 AM 0.95 33.71 0.062 6.76 4.63 13.55
3/17/2021 2:45:00 AM 0.95 33.71 0.062 6.76 4.56 13.56
3/17/2021 3:00:00 AM 0.96 33.728 0.06 6.76 4.7 13.54
3/17/2021 3:15:00 AM 0.95 33.71 0.062 6.76 4.57 13.54
3/17/2021 3:30:00 AM 0.95 33.71 0.063 6.75 4.54 13.54
3/17/2021 3:45:00 AM 0.95 33.71 0.061 6.76 4.64 13.54
3/17/2021 4:00:00 AM 0.94 33.692 0.062 6.75 4.54 13.54
3/17/2021 4:15:00 AM 0.94 33.692 0.062 6.75 4.72 13.53
3/17/2021 4:30:00 AM 0.95 33.71 0.063 6.75 4.72 13.51
3/17/2021 4:45:00 AM 0.94 33.692 0.062 6.75 4.61 13.52
3/17/2021 5:00:00 AM 0.94 33.692 0.062 6.75 4.3 13.52
3/17/2021 5:15:00 AM 0.94 33.692 0.063 6.75 4.7 13.5
3/17/2021 5:30:00 AM 0.94 33.692 0.062 6.75 4.64 13.52
3/17/2021 5:45:00 AM 0.93 33.674 0.064 6.75 4.78 13.49
3/17/2021 6:00:00 AM 0.92 33.656 0.061 6.75 4.6 13.52
3/17/2021 6:15:00 AM 0.92 33.656 0.063 6.75 4.7 13.5
3/17/2021 6:30:00 AM 0.92 33.656 0.063 6.75 4.69 13.5
3/17/2021 6:45:00 AM 0.91 33.638 0.063 6.75 6.3 13.49
3/17/2021 7:00:00 AM 0.92 33.656 0.063 6.74 4.54 13.5
3/17/2021 7:15:00 AM 0.92 33.656 0.06 6.75 4.6 13.51
3/17/2021 7:30:00 AM 0.91 33.638 0.063 6.74 4.46 13.49
3/17/2021 7:45:00 AM 0.9 33.62 0.062 6.75 4.69 13.5
3/17/2021 8:00:00 AM 0.9 33.62 0.062 6.75 4.34 13.51
3/17/2021 8:15:00 AM 0.91 33.638 0.062 6.75 4.44 13.49
3/17/2021 8:30:00 AM 0.91 33.638 0.063 6.75 4.91 13.5
3/17/2021 8:45:00 AM 0.91 33.638 0.062 6.75 4.92 13.47
3/17/2021 9:00:00 AM 0.92 33.656 0.064 6.75 5.04 13.48
3/17/2021 9:15:00 AM 0.94 33.692 0.063 6.75 5.42 13.49
3/17/2021 9:30:00 AM 0.96 33.728 0.059 6.75 4.75 13.48
3/17/2021 9:45:00 AM 0.99 33.782 0.061 6.75 4.84 13.46
3/17/2021 10:00:00 AM 1.02 33.836 0.062 6.75 4.48 13.5
3/17/2021 10:15:00 AM 1.06 33.908 0.064 6.76 4.4 13.5
3/17/2021 10:30:00 AM 1.09 33.962 0.061 6.76 4.68 13.51
3/17/2021 10:45:00 AM 1.13 34.034 0.061 6.76 4.5 13.5
3/17/2021 11:00:00 AM 1.17 34.106 0.063 6.77 4.67 13.55
3/17/2021 11:15:00 AM 1.23 34.214 0.062 6.77 4.56 13.56
3/17/2021 11:30:00 AM 1.28 34.304 0.063 6.77 4.21 13.55
3/17/2021 11:45:00 AM 1.32 34.376 0.062 6.77 4.28 13.55
3/17/2021 12:00:00 PM 1.38 34.484 0.061 6.78 4.76 13.6
3/17/2021 12:15:00 PM 1.44 34.592 0.063 6.78 4.13 13.62
3/17/2021 12:30:00 PM 1.48 34.664 0.063 6.79 4.6 13.61
3/17/2021 12:45:00 PM 1.55 34.79 0.062 6.79 4.39 13.65
3/17/2021 1:00:00 PM 1.6 34.88 0.06 6.8 4.31 13.69
3/17/2021 1:15:00 PM 1.66 34.988 0.063 6.79 4.88 13.66
3/17/2021 1:30:00 PM 1.7 35.06 0.061 6.8 4.81 13.68
3/17/2021 1:45:00 PM 1.76 35.168 0.061 6.8 4.48 13.69
3/17/2021 2:00:00 PM 1.81 35.258 0.061 6.8 4.73 13.71
3/17/2021 2:15:00 PM 1.88 35.384 0.062 6.81 4.62 13.7
3/17/2021 2:30:00 PM 1.94 35.492 0.062 6.81 4.24 13.69
3/17/2021 2:45:00 PM 2.04 35.672 0.063 6.81 4.26 13.67
3/17/2021 3:00:00 PM 2.13 35.834 0.061 6.81 4.41 13.71
3/17/2021 3:15:00 PM 2.22 35.996 0.063 6.81 4.16 13.7
3/17/2021 3:30:00 PM 2.31 36.158 0.061 6.81 4.48 13.7
3/17/2021 3:45:00 PM 2.35 36.23 0.063 6.82 4.29 13.74
3/17/2021 4:00:00 PM 2.49 36.482 0.063 6.83 4.32 13.75
3/17/2021 4:15:00 PM 2.53 36.554 0.062 6.83 4.41 13.74
3/17/2021 4:30:00 PM 2.61 36.698 0.062 6.83 4.41 13.76
3/17/2021 4:45:00 PM 2.68 36.824 0.062 6.83 4.56 13.76
3/17/2021 5:00:00 PM 2.71 36.878 0.066 6.83 4.54 13.72
3/17/2021 5:15:00 PM 2.72 36.896 0.061 6.83 4.62 13.75
3/17/2021 5:30:00 PM 2.74 36.932 0.062 6.84 4.35 13.73
3/17/2021 5:45:00 PM 2.72 36.896 0.064 6.84 4.25 13.72
3/17/2021 6:00:00 PM 2.69 36.842 0.065 6.83 4.12 13.72
3/17/2021 6:15:00 PM 2.67 36.806 0.064 6.83 4.24 13.73
3/17/2021 6:30:00 PM 2.68 36.824 0.061 6.83 4.62 13.69
3/17/2021 6:45:00 PM 2.63 36.734 0.062 6.82 4.29 13.72
3/17/2021 7:00:00 PM 2.59 36.662 0.062 6.82 5.04 13.67
3/17/2021 7:15:00 PM 2.52 36.536 0.064 6.82 4.48 13.68
3/17/2021 7:30:00 PM 2.43 36.374 0.061 6.82 4.41 13.69
3/17/2021 7:45:00 PM 2.37 36.266 0.061 6.82 4.36 13.67
3/17/2021 8:00:00 PM 2.26 36.068 0.062 6.81 4.37 13.67
3/17/2021 8:15:00 PM 2.18 35.924 0.062 6.81 5.34 13.66
3/17/2021 8:30:00 PM 2.11 35.798 0.062 6.81 4.28 13.63
3/17/2021 8:45:00 PM 2.05 35.69 0.061 6.81 4.33 13.6
3/17/2021 9:00:00 PM 1.97 35.546 0.063 6.81 4.34 13.59
3/17/2021 9:15:00 PM 1.9 35.42 0.062 6.8 4.31 13.57
3/17/2021 9:30:00 PM 1.86 35.348 0.062 6.79 4.35 13.55
3/17/2021 9:45:00 PM 1.8 35.24 0.062 6.79 4.35 13.54
3/17/2021 10:00:00 PM 1.76 35.168 0.063 6.78 4.23 13.52
3/17/2021 10:15:00 PM 1.71 35.078 0.063 6.78 4.53 13.5
3/17/2021 10:30:00 PM 1.67 35.006 0.061 6.77 4.88 13.5
3/17/2021 10:45:00 PM 1.61 34.898 0.064 6.77 4.19 13.49
3/17/2021 11:00:00 PM 1.57 34.826 0.061 6.77 4.29 13.49
3/17/2021 11:15:00 PM 1.55 34.79 0.062 6.76 4.38 13.47
3/17/2021 11:30:00 PM 1.55 34.79 0.062 6.76 4.41 13.45
3/17/2021 11:45:00 PM 1.53 34.754 0.064 6.76 4.82 13.44
3/18/2021 12:00:00 AM 1.52 34.736 0.063 6.76 4.19 13.43
3/18/2021 12:15:00 AM 1.51 34.718 0.062 6.76 4.25 13.42
3/18/2021 12:30:00 AM 1.51 34.718 0.062 6.76 4.2 13.42
3/18/2021 12:45:00 AM 1.5 34.7 0.063 6.76 4.45 13.41
3/18/2021 1:00:00 AM 1.49 34.682 0.063 6.76 4.85 13.4
3/18/2021 1:15:00 AM 1.51 34.718 0.061 6.76 4.58 13.39
3/18/2021 1:30:00 AM 1.5 34.7 0.062 6.76 4.46 13.39
3/18/2021 1:45:00 AM 1.51 34.718 0.061 6.77 4.77 13.38
3/18/2021 2:00:00 AM 1.53 34.754 0.061 6.77 4.65 13.37
3/18/2021 2:15:00 AM 1.51 34.718 0.061 6.77 4.39 13.38
3/18/2021 2:30:00 AM 1.52 34.736 0.063 6.77 4.6 13.37
3/18/2021 2:45:00 AM 1.53 34.754 0.061 6.77 4.43 13.37
3/18/2021 3:00:00 AM 1.54 34.772 0.061 6.77 4.51 13.35
3/18/2021 3:15:00 AM 1.54 34.772 0.063 6.77 5.48 13.35
3/18/2021 3:30:00 AM 1.55 34.79 0.063 6.78 4.15 13.35
3/18/2021 3:45:00 AM 1.57 34.826 0.061 6.77 4.26 13.34
3/18/2021 4:00:00 AM 1.57 34.826 0.061 6.78 5.08 13.33
3/18/2021 4:15:00 AM 1.58 34.844 0.061 6.78 4.63 13.33
3/18/2021 4:30:00 AM 1.59 34.862 0.065 6.77 4.79 13.32
3/18/2021 4:45:00 AM 1.59 34.862 0.062 6.78 5.29 13.32
3/18/2021 5:00:00 AM 1.58 34.844 0.062 6.78 4.61 13.32
3/18/2021 5:15:00 AM 1.6 34.88 0.061 6.78 4.44 13.31
3/18/2021 5:30:00 AM 1.6 34.88 0.06 6.78 4.38 13.3
3/18/2021 5:45:00 AM 1.61 34.898 0.065 6.78 4.98 13.29
3/18/2021 6:00:00 AM 1.62 34.916 0.064 6.78 4.89 13.28
3/18/2021 6:15:00 AM 1.63 34.934 0.062 6.78 4.83 13.26
3/18/2021 6:30:00 AM 1.65 34.97 0.064 6.78 4.81 13.25
3/18/2021 6:45:00 AM 1.63 34.934 0.062 6.78 4.94 13.26
3/18/2021 7:00:00 AM 1.63 34.934 0.061 6.78 4.45 13.27
3/18/2021 7:15:00 AM 1.66 34.988 0.061 6.78 4.62 13.23
3/18/2021 7:30:00 AM 1.66 34.988 0.063 6.78 4.21 13.23
3/18/2021 7:45:00 AM 1.66 34.988 0.06 6.78 4.41 13.23
3/18/2021 8:00:00 AM 1.66 34.988 0.063 6.78 5.26 13.22
3/18/2021 8:15:00 AM 1.67 35.006 0.062 6.78 4.26 13.23
3/18/2021 8:30:00 AM 1.66 34.988 0.061 6.78 4.64 13.22
3/18/2021 8:45:00 AM 1.68 35.024 0.063 6.78 5.06 13.2
3/18/2021 9:00:00 AM 1.68 35.024 0.062 6.78 4.46 13.22
3/18/2021 9:15:00 AM 1.69 35.042 0.061 6.79 4.62 13.21
3/18/2021 9:30:00 AM 1.7 35.06 0.061 6.78 4.53 13.23
3/18/2021 9:45:00 AM 1.71 35.078 0.06 6.79 4.33 13.22
3/18/2021 10:00:00 AM 1.73 35.114 0.063 6.79 4.7 13.21
3/18/2021 10:15:00 AM 1.75 35.15 0.062 6.79 4.01 13.22
3/18/2021 10:30:00 AM 1.78 35.204 0.061 6.79 3.99 13.22
3/18/2021 10:45:00 AM 1.78 35.204 0.06 6.79 3.97 13.24
3/18/2021 11:00:00 AM 1.82 35.276 0.062 6.79 4.07 13.23
3/18/2021 11:15:00 AM 1.84 35.312 0.063 6.79 4.2 13.25
3/18/2021 11:30:00 AM 1.86 35.348 0.061 6.79 4.24 13.25
3/18/2021 11:45:00 AM 1.88 35.384 0.062 6.8 4.11 13.26
3/18/2021 12:00:00 PM 1.89 35.402 0.062 6.8 3.9 13.26
3/18/2021 12:15:00 PM 1.92 35.456 0.063 6.81 4.16 13.28
3/18/2021 12:30:00 PM 1.96 35.528 0.062 6.8 4.6 13.27
3/18/2021 12:45:00 PM 1.96 35.528 0.064 6.81 4.09 13.28
3/18/2021 1:00:00 PM 2 35.6 0.063 6.81 4.23 13.29
3/18/2021 1:15:00 PM 2.05 35.69 0.061 6.8 4.34 13.28
3/18/2021 1:30:00 PM 2.07 35.726 0.063 6.8 3.99 13.29
3/18/2021 1:45:00 PM 2.09 35.762 0.062 6.81 3.92 13.32
3/18/2021 2:00:00 PM 2.14 35.852 0.061 6.81 4.1 13.32
3/18/2021 2:15:00 PM 2.14 35.852 0.061 6.81 4.43 13.34
3/18/2021 2:30:00 PM 2.19 35.942 0.061 6.82 3.89 13.35
3/18/2021 2:45:00 PM 2.22 35.996 0.064 6.82 4.07 13.36
3/18/2021 3:00:00 PM 2.24 36.032 0.063 6.82 3.89 13.36
3/18/2021 3:15:00 PM 2.27 36.086 0.063 6.82 4.33 13.36
3/18/2021 3:30:00 PM 2.3 36.14 0.062 6.82 4.08 13.34
3/18/2021 3:45:00 PM 2.33 36.194 0.064 6.82 4.47 13.34
3/18/2021 4:00:00 PM 2.35 36.23 0.061 6.82 4.31 13.34
3/18/2021 4:15:00 PM 2.35 36.23 0.059 6.82 4.17 13.33
3/18/2021 4:30:00 PM 2.36 36.248 0.063 6.82 4.21 13.31
3/18/2021 4:45:00 PM 2.36 36.248 0.06 6.82 4.75 13.32
3/18/2021 5:00:00 PM 2.35 36.23 0.063 6.82 4.4 13.32
3/18/2021 5:15:00 PM 2.36 36.248 0.065 6.82 4.16 13.31
3/18/2021 5:30:00 PM 2.37 36.266 0.063 6.81 4.12 13.3
3/18/2021 5:45:00 PM 2.35 36.23 0.064 6.81 4.3 13.29
3/18/2021 6:00:00 PM 2.37 36.266 0.061 6.81 4.42 13.26
3/18/2021 6:15:00 PM 2.36 36.248 0.064 6.81 4.21 13.25
3/18/2021 6:30:00 PM 2.35 36.23 0.062 6.8 4.56 13.23
3/18/2021 6:45:00 PM 2.31 36.158 0.066 6.81 4.53 13.21
3/18/2021 7:00:00 PM 2.31 36.158 0.063 6.8 4.23 13.19
3/18/2021 7:15:00 PM 2.29 36.122 0.062 6.81 4.1 13.17
3/18/2021 7:30:00 PM 2.27 36.086 0.064 6.81 4.33 13.15
3/18/2021 7:45:00 PM 2.26 36.068 0.066 6.8 4.37 13.13
3/18/2021 8:00:00 PM 2.24 36.032 0.065 6.8 4.26 13.11
3/18/2021 8:15:00 PM 2.24 36.032 0.066 6.79 3.95 13.08
3/18/2021 8:30:00 PM 2.21 35.978 0.065 6.78 4 13.08
3/18/2021 8:45:00 PM 2.2 35.96 0.063 6.79 4.39 13.06
3/18/2021 9:00:00 PM 2.2 35.96 0.064 6.78 4.08 13.03
3/18/2021 9:15:00 PM 2.19 35.942 0.066 6.77 4.37 13.02
3/18/2021 9:30:00 PM 2.18 35.924 0.066 6.77 4.56 13
3/18/2021 9:45:00 PM 2.16 35.888 0.064 6.77 4.62 12.99
3/18/2021 10:00:00 PM 2.16 35.888 0.065 6.76 4.53 12.97
3/18/2021 10:15:00 PM 2.16 35.888 0.065 6.76 4.61 12.96
3/18/2021 10:30:00 PM 2.14 35.852 0.063 6.77 4.45 12.96
3/18/2021 10:45:00 PM 2.13 35.834 0.063 6.76 5.02 12.95
3/18/2021 11:00:00 PM 2.11 35.798 0.063 6.76 4.78 12.94
3/18/2021 11:15:00 PM 2.11 35.798 0.064 6.76 4.77 12.92
3/18/2021 11:30:00 PM 2.1 35.78 0.063 6.75 4.99 12.92
3/18/2021 11:45:00 PM 2.06 35.708 0.063 6.75 5.01 12.92
3/19/2021 12:00:00 AM 2.05 35.69 0.061 6.75 5.04 12.92
3/19/2021 12:15:00 AM 2.03 35.654 0.064 6.75 5.31 12.91
3/19/2021 12:30:00 AM 2.01 35.618 0.065 6.74 5.41 12.9
3/19/2021 12:45:00 AM 1.98 35.564 0.065 6.74 5.5 12.9
3/19/2021 1:00:00 AM 1.96 35.528 0.062 6.73 5.62 12.91
3/19/2021 1:15:00 AM 1.95 35.51 0.064 6.74 6.24 12.9
3/19/2021 1:30:00 AM 1.92 35.456 0.063 6.74 6.09 12.9
3/19/2021 1:45:00 AM 1.89 35.402 0.062 6.74 6.41 12.92
3/19/2021 2:00:00 AM 1.87 35.366 0.064 6.73 5.69 12.92
3/19/2021 2:15:00 AM 1.83 35.294 0.063 6.73 5.85 12.92
3/19/2021 2:30:00 AM 1.8 35.24 0.06 6.73 6.01 12.94
3/19/2021 2:45:00 AM 1.78 35.204 0.061 6.73 6.14 12.92
3/19/2021 3:00:00 AM 1.75 35.15 0.062 6.72 6.19 12.94
3/19/2021 3:15:00 AM 1.72 35.096 0.061 6.72 6.12 12.95
3/19/2021 3:30:00 AM 1.68 35.024 0.06 6.71 6.51 12.93
3/19/2021 3:45:00 AM 1.66 34.988 0.063 6.69 6.75 12.92
3/19/2021 4:00:00 AM 1.61 34.898 0.06 6.68 6.82 12.93
3/19/2021 4:15:00 AM 1.56 34.808 0.063 6.68 6.72 12.95
3/19/2021 4:30:00 AM 1.52 34.736 0.06 6.68 6.79 12.95
3/19/2021 4:45:00 AM 1.47 34.646 0.061 6.68 6.77 12.94
3/19/2021 5:00:00 AM 1.42 34.556 0.062 6.68 6.63 12.97
3/19/2021 5:15:00 AM 1.37 34.466 0.062 6.67 6.51 12.98
3/19/2021 5:30:00 AM 1.32 34.376 0.06 6.68 6.9 13.01
3/19/2021 5:45:00 AM 1.27 34.286 0.063 6.67 6.98 13
3/19/2021 6:00:00 AM 1.22 34.196 0.062 6.68 7.06 13.02
3/19/2021 6:15:00 AM 1.17 34.106 0.062 6.67 6.75 13.03
3/19/2021 6:30:00 AM 1.12 34.016 0.063 6.67 7.01 13.04
3/19/2021 6:45:00 AM 1.07 33.926 0.06 6.67 6.68 13.06
3/19/2021 7:00:00 AM 1.02 33.836 0.065 6.66 6.93 13.05
3/19/2021 7:15:00 AM 0.98 33.764 0.061 6.66 7.1 13.07
3/19/2021 7:30:00 AM 0.94 33.692 0.062 6.66 7.1 13.09
3/19/2021 7:45:00 AM 0.9 33.62 0.062 6.66 6.84 13.11
3/19/2021 8:00:00 AM 0.87 33.566 0.062 6.65 6.94 13.13
3/19/2021 8:15:00 AM 0.86 33.548 0.062 6.66 7.02 13.15
3/19/2021 8:30:00 AM 0.88 33.584 0.06 6.65 7.12 13.18
3/19/2021 8:45:00 AM 0.91 33.638 0.06 6.65 7.67 13.21
3/19/2021 9:00:00 AM 0.95 33.71 0.062 6.65 7.46 13.23
3/19/2021 9:15:00 AM 1 33.8 0.063 6.64 7.7 13.27
3/19/2021 9:30:00 AM 1.05 33.89 0.058 6.65 7.97 13.31
3/19/2021 9:45:00 AM 1.09 33.962 0.062 6.66 8.74 13.35
3/19/2021 10:00:00 AM 1.19 34.142 0.061 6.65 9.25 13.41
3/19/2021 10:15:00 AM 1.28 34.304 0.061 6.67 8.77 13.45
3/19/2021 10:30:00 AM 1.39 34.502 0.06 6.67 8.96 13.5
3/19/2021 10:45:00 AM 1.5 34.7 0.06 6.68 9.31 13.52
3/19/2021 11:00:00 AM 1.64 34.952 0.059 6.68 9.02 13.55
3/19/2021 11:15:00 AM 1.75 35.15 0.062 6.68 9.18 13.55
3/19/2021 11:30:00 AM 1.88 35.384 0.061 6.69 9 13.59
3/19/2021 11:45:00 AM 2 35.6 0.06 6.69 8.91 13.59
3/19/2021 12:00:00 PM 2.14 35.852 0.06 6.7 8.91 13.61
3/19/2021 12:15:00 PM 2.28 36.104 0.061 6.7 8.78 13.62
3/19/2021 12:30:00 PM 2.42 36.356 0.06 6.7 8.64 13.62
3/19/2021 12:45:00 PM 2.54 36.572 0.06 6.7 8.37 13.62
3/19/2021 1:00:00 PM 2.66 36.788 0.061 6.7 7.61 13.63
3/19/2021 1:15:00 PM 2.77 36.986 0.061 6.7 11 13.64
3/19/2021 1:30:00 PM 2.87 37.166 0.061 6.71 7.88 13.64
3/19/2021 1:45:00 PM 2.98 37.364 0.06 6.7 9.72 13.64
3/19/2021 2:00:00 PM 3.05 37.49 0.059 6.7 10.07 13.64
3/19/2021 2:15:00 PM 3.1 37.58 0.062 6.7 12.01 13.65
3/19/2021 2:30:00 PM 3.18 37.724 0.061 6.69 9.52 13.64
3/19/2021 2:45:00 PM 3.24 37.832 0.061 6.7 10.21 13.64
3/19/2021 3:00:00 PM 3.27 37.886 0.059 6.7 8.42 13.65
3/19/2021 3:15:00 PM 3.3 37.94 0.059 6.69 12.57 13.65
3/19/2021 3:30:00 PM 3.33 37.994 0.061 6.69 7.28 13.64
3/19/2021 3:45:00 PM 3.31 37.958 0.059 6.68 7.16 13.65
3/19/2021 4:00:00 PM 3.31 37.958 0.061 6.69 7.26 13.65
3/19/2021 4:15:00 PM 3.27 37.886 0.061 6.68 7.01 13.66
3/19/2021 4:30:00 PM 3.23 37.814 0.059 6.68 6.91 13.66
3/19/2021 4:45:00 PM 3.21 37.778 0.061 6.68 6.97 13.65
3/19/2021 5:00:00 PM 3.08 37.544 0.06 6.67 6.8 13.65
3/19/2021 5:15:00 PM 3.01 37.418 0.059 6.67 6.84 13.66
3/19/2021 5:30:00 PM 2.94 37.292 0.06 6.67 6.76 13.66
3/19/2021 5:45:00 PM 2.89 37.202 0.06 6.66 6.47 13.64
3/19/2021 6:00:00 PM 2.78 37.004 0.06 6.66 6.94 13.63
3/19/2021 6:15:00 PM 2.7 36.86 0.063 6.65 6.59 13.64
3/19/2021 6:30:00 PM 2.55 36.59 0.061 6.64 6.83 13.64
3/19/2021 6:45:00 PM 2.45 36.41 0.061 6.65 6.38 13.64
3/19/2021 7:00:00 PM 2.37 36.266 0.06 6.64 6.57 13.64
3/19/2021 7:15:00 PM 2.25 36.05 0.061 6.63 6.81 13.63
3/19/2021 7:30:00 PM 2.14 35.852 0.061 6.63 6.97 13.62
3/19/2021 7:45:00 PM 2.07 35.726 0.06 6.62 6.72 13.61
3/19/2021 8:00:00 PM 2.01 35.618 0.062 6.61 6.42 13.61
3/19/2021 8:15:00 PM 1.93 35.474 0.06 6.6 6.75 13.6
3/19/2021 8:30:00 PM 1.88 35.384 0.06 6.6 6.29 13.59
3/19/2021 8:45:00 PM 1.81 35.258 0.059 6.6 6.78 13.6
3/19/2021 9:00:00 PM 1.75 35.15 0.06 6.6 6.55 13.59
3/19/2021 9:15:00 PM 1.69 35.042 0.058 6.59 7.03 13.6
3/19/2021 9:30:00 PM 1.64 34.952 0.06 6.59 6.49 13.6
3/19/2021 9:45:00 PM 1.58 34.844 0.062 6.59 6.5 13.6
3/19/2021 10:00:00 PM 1.55 34.79 0.062 6.59 6.37 13.61
3/19/2021 10:15:00 PM 1.51 34.718 0.06 6.59 6.41 13.61
3/19/2021 10:30:00 PM 1.48 34.664 0.058 6.59 6.6 13.61
3/19/2021 10:45:00 PM 1.46 34.628 0.059 6.59 6.09 13.61
3/19/2021 11:00:00 PM 1.43 34.574 0.06 6.59 6.15 13.62
3/19/2021 11:15:00 PM 1.4 34.52 0.059 6.59 6.59 13.62
3/19/2021 11:30:00 PM 1.38 34.484 0.059 6.59 6.17 13.62
3/19/2021 11:45:00 PM 1.38 34.484 0.058 6.59 6.31 13.61
3/20/2021 12:00:00 AM 1.35 34.43 0.06 6.59 6.08 13.62
3/20/2021 12:15:00 AM 1.33 34.394 0.059 6.6 6.68 13.63
3/20/2021 12:30:00 AM 1.32 34.376 0.06 6.6 6.25 13.62
3/20/2021 12:45:00 AM 1.31 34.358 0.058 6.61 5.99 13.63
3/20/2021 1:00:00 AM 1.31 34.358 0.06 6.61 5.89 13.62
3/20/2021 1:15:00 AM 1.29 34.322 0.06 6.61 6.44 13.61
3/20/2021 1:30:00 AM 1.29 34.322 0.058 6.61 5.81 13.65
3/20/2021 1:45:00 AM 1.29 34.322 0.059 6.61 6.37 13.62
3/20/2021 2:00:00 AM 1.29 34.322 0.057 6.62 6.34 13.63
3/20/2021 2:15:00 AM 1.28 34.304 0.058 6.62 6.3 13.62
3/20/2021 2:30:00 AM 1.29 34.322 0.058 6.62 6.34 13.63
3/20/2021 2:45:00 AM 1.28 34.304 0.059 6.62 6.37 13.6
3/20/2021 3:00:00 AM 1.29 34.322 0.06 6.62 6.6 13.64
3/20/2021 3:15:00 AM 1.28 34.304 0.06 6.63 6.19 13.62
3/20/2021 3:30:00 AM 1.25 34.25 0.059 6.63 6.41 13.58
3/20/2021 3:45:00 AM 1.29 34.322 0.06 6.63 6.12 13.63
3/20/2021 4:00:00 AM 1.26 34.268 0.059 6.64 6.61 13.62
3/20/2021 4:15:00 AM 1.25 34.25 0.057 6.64 6.06 13.58
3/20/2021 4:30:00 AM 1.22 34.196 0.058 6.64 6.22 13.6
3/20/2021 4:45:00 AM 1.27 34.286 0.058 6.64 6.35 13.63
3/20/2021 5:00:00 AM 1.25 34.25 0.061 6.65 6.32 13.61
3/20/2021 5:15:00 AM 1.23 34.214 0.061 6.64 6.27 13.62
3/20/2021 5:30:00 AM 1.24 34.232 0.059 6.65 6.1 13.63
3/20/2021 5:45:00 AM 1.25 34.25 0.06 6.64 6.44 13.64
3/20/2021 6:00:00 AM 1.21 34.178 0.058 6.65 6.54 13.61
3/20/2021 6:15:00 AM 1.22 34.196 0.059 6.64 6.33 13.62
3/20/2021 6:30:00 AM 1.22 34.196 0.058 6.65 6.15 13.62
3/20/2021 6:45:00 AM 1.19 34.142 0.059 6.64 6.34 13.57
3/20/2021 7:00:00 AM 1.21 34.178 0.058 6.63 6.01 13.58
3/20/2021 7:15:00 AM 1.2 34.16 0.062 6.64 6.1 13.58
3/20/2021 7:30:00 AM 1.19 34.142 0.059 6.63 6.07 13.57
3/20/2021 7:45:00 AM 1.2 34.16 0.059 6.64 6.19 13.59
3/20/2021 8:00:00 AM 1.2 34.16 0.057 6.63 6.06 13.57
3/20/2021 8:15:00 AM 1.22 34.196 0.058 6.63 6.05 13.57
3/20/2021 8:30:00 AM 1.23 34.214 0.06 6.63 6.24 13.56
3/20/2021 8:45:00 AM 1.26 34.268 0.058 6.63 6.29 13.55
3/20/2021 9:00:00 AM 1.32 34.376 0.058 6.64 6 13.56
3/20/2021 9:15:00 AM 1.39 34.502 0.059 6.65 6.13 13.61
3/20/2021 9:30:00 AM 1.41 34.538 0.059 6.65 5.72 13.57
3/20/2021 9:45:00 AM 1.55 34.79 0.059 6.65 5.98 13.62
3/20/2021 10:00:00 AM 1.65 34.97 0.058 6.67 6.04 13.67
3/20/2021 10:15:00 AM 1.72 35.096 0.057 6.66 5.61 13.66
3/20/2021 10:30:00 AM 1.82 35.276 0.059 6.67 5.86 13.66
3/20/2021 10:45:00 AM 1.95 35.51 0.059 6.68 5.92 13.7
3/20/2021 11:00:00 AM 2.07 35.726 0.06 6.68 5.47 13.72
3/20/2021 11:15:00 AM 2.2 35.96 0.058 6.68 5.8 13.7
3/20/2021 11:30:00 AM 2.33 36.194 0.059 6.7 5.76 13.74
3/20/2021 11:45:00 AM 2.47 36.446 0.06 6.69 5.3 13.71
3/20/2021 12:00:00 PM 2.62 36.716 0.059 6.71 5.57 13.71
3/20/2021 12:15:00 PM 2.76 36.968 0.06 6.71 5.67 13.74
3/20/2021 12:30:00 PM 2.92 37.256 0.06 6.72 5.66 13.73
3/20/2021 12:45:00 PM 3.06 37.508 0.059 6.73 5.61 13.75
3/20/2021 1:00:00 PM 3.22 37.796 0.06 6.73 5.61 13.77
3/20/2021 1:15:00 PM 3.38 38.084 0.059 6.74 5.46 13.77
3/20/2021 1:30:00 PM 3.47 38.246 0.059 6.74 5.7 13.76
3/20/2021 1:45:00 PM 3.56 38.408 0.059 6.74 5.34 13.78
3/20/2021 2:00:00 PM 3.65 38.57 0.061 6.74 5.61 13.77
3/20/2021 2:15:00 PM 3.79 38.822 0.06 6.75 5.89 13.77
3/20/2021 2:30:00 PM 3.89 39.002 0.062 6.75 5.75 13.76
3/20/2021 2:45:00 PM 3.94 39.092 0.062 6.75 5.92 13.75
3/20/2021 3:00:00 PM 4 39.2 0.063 6.74 5.42 13.76
3/20/2021 3:15:00 PM 4.04 39.272 0.063 6.75 5.59 13.76
3/20/2021 3:30:00 PM 4.09 39.362 0.061 6.75 5.31 13.76
3/20/2021 3:45:00 PM 4.15 39.47 0.063 6.74 5.86 13.76
3/20/2021 4:00:00 PM 4.12 39.416 0.061 6.75 5.47 13.76
3/20/2021 4:15:00 PM 4.1 39.38 0.062 6.74 5.34 13.74
3/20/2021 4:30:00 PM 4.09 39.362 0.063 6.73 5.46 13.75
3/20/2021 4:45:00 PM 4.1 39.38 0.062 6.74 5.26 13.73
3/20/2021 5:00:00 PM 3.96 39.128 0.062 6.74 5.33 13.73
3/20/2021 5:15:00 PM 3.97 39.146 0.06 6.73 5.16 13.74
3/20/2021 5:30:00 PM 3.9 39.02 0.063 6.73 5.18 13.73
3/20/2021 5:45:00 PM 3.87 38.966 0.062 6.76 5.96 13.72
3/20/2021 6:00:00 PM 3.71 38.678 0.06 6.77 5.35 13.73
3/20/2021 6:15:00 PM 3.68 38.624 0.061 6.75 5.03 13.72
3/20/2021 6:30:00 PM 3.5 38.3 0.062 6.75 5.76 13.71
3/20/2021 6:45:00 PM 3.45 38.21 0.06 6.74 5.93 13.7
3/20/2021 7:00:00 PM 3.31 37.958 0.062 6.74 5.5 13.69
3/20/2021 7:15:00 PM 3.24 37.832 0.059 6.73 5.57 13.67
3/20/2021 7:30:00 PM 3.18 37.724 0.06 6.73 5.15 13.65
3/20/2021 7:45:00 PM 2.99 37.382 0.061 6.71 5.29 13.64
3/20/2021 8:00:00 PM 2.87 37.166 0.063 6.71 5.12 13.63
3/20/2021 8:15:00 PM 2.8 37.04 0.062 6.7 5.56 13.62
3/20/2021 8:30:00 PM 2.75 36.95 0.062 6.69 5.28 13.6
3/20/2021 8:45:00 PM 2.61 36.698 0.062 6.68 5.48 13.58
3/20/2021 9:00:00 PM 2.54 36.572 0.061 6.65 5.1 13.57
3/20/2021 9:15:00 PM 2.45 36.41 0.059 6.65 5.41 13.56
3/20/2021 9:30:00 PM 2.42 36.356 0.06 6.63 5.2 13.55
3/20/2021 9:45:00 PM 2.32 36.176 0.06 6.62 5.3 13.56
3/20/2021 10:00:00 PM 2.23 36.014 0.06 6.63 5.21 13.56
3/20/2021 10:15:00 PM 2.21 35.978 0.06 6.63 5.37 13.55
3/20/2021 10:30:00 PM 2.13 35.834 0.061 6.63 5.46 13.55
3/20/2021 10:45:00 PM 2.12 35.816 0.06 6.63 5.49 13.53
3/20/2021 11:00:00 PM 2.06 35.708 0.06 6.64 5.33 13.54
3/20/2021 11:15:00 PM 2.02 35.636 0.062 6.64 5.25 13.54
3/20/2021 11:30:00 PM 2.02 35.636 0.061 6.63 5.31 13.53
3/20/2021 11:45:00 PM 1.99 35.582 0.06 6.64 5.4 13.54
3/21/2021 12:00:00 AM 1.96 35.528 0.061 6.64 5.3 13.53
3/21/2021 12:15:00 AM 1.92 35.456 0.059 6.65 5.02 13.54
3/21/2021 12:30:00 AM 1.91 35.438 0.059 6.65 5.09 13.54
3/21/2021 12:45:00 AM 1.9 35.42 0.061 6.66 5.07 13.53
3/21/2021 1:00:00 AM 1.87 35.366 0.057 6.66 4.96 13.54
3/21/2021 1:15:00 AM 1.86 35.348 0.058 6.66 4.84 13.54
3/21/2021 1:30:00 AM 1.84 35.312 0.058 6.67 4.99 13.54
3/21/2021 1:45:00 AM 1.84 35.312 0.062 6.67 4.97 13.52
3/21/2021 2:00:00 AM 1.84 35.312 0.059 6.68 4.88 13.51
3/21/2021 2:15:00 AM 1.82 35.276 0.058 6.68 5.05 13.5
3/21/2021 2:30:00 AM 1.8 35.24 0.058 6.68 4.98 13.52
3/21/2021 2:45:00 AM 1.8 35.24 0.059 6.68 4.99 13.49
3/21/2021 3:00:00 AM 1.81 35.258 0.06 6.69 5.31 13.48
3/21/2021 3:15:00 AM 1.8 35.24 0.062 6.69 5.07 13.49
3/21/2021 3:30:00 AM 1.78 35.204 0.062 6.69 5.01 13.48
3/21/2021 3:45:00 AM 1.78 35.204 0.059 6.69 5.13 13.49
3/21/2021 4:00:00 AM 1.78 35.204 0.06 6.69 4.69 13.46
3/21/2021 4:15:00 AM 1.78 35.204 0.06 6.69 4.66 13.46
3/21/2021 4:30:00 AM 1.77 35.186 0.06 6.7 4.7 13.45
3/21/2021 4:45:00 AM 1.77 35.186 0.061 6.69 4.76 13.44
3/21/2021 5:00:00 AM 1.76 35.168 0.06 6.69 4.76 13.44
3/21/2021 5:15:00 AM 1.76 35.168 0.059 6.69 4.79 13.45
3/21/2021 5:30:00 AM 1.74 35.132 0.059 6.68 4.78 13.44
3/21/2021 5:45:00 AM 1.74 35.132 0.059 6.68 4.82 13.42
3/21/2021 6:00:00 AM 1.73 35.114 0.059 6.68 4.77 13.4
3/21/2021 6:15:00 AM 1.72 35.096 0.058 6.69 4.95 13.42
3/21/2021 6:30:00 AM 1.72 35.096 0.059 6.69 4.81 13.42
3/21/2021 6:45:00 AM 1.71 35.078 0.06 6.68 4.91 13.42
3/21/2021 7:00:00 AM 1.71 35.078 0.058 6.69 4.82 13.4
3/21/2021 7:15:00 AM 1.7 35.06 0.058 6.69 4.66 13.41
3/21/2021 7:30:00 AM 1.67 35.006 0.059 6.68 4.93 13.37
3/21/2021 7:45:00 AM 1.69 35.042 0.059 6.68 5.25 13.37
3/21/2021 8:00:00 AM 1.7 35.06 0.06 6.67 4.76 13.4
3/21/2021 8:15:00 AM 1.7 35.06 0.058 6.68 4.89 13.38
3/21/2021 8:30:00 AM 1.72 35.096 0.058 6.69 4.84 13.41
3/21/2021 8:45:00 AM 1.72 35.096 0.059 6.68 4.58 13.4
3/21/2021 9:00:00 AM 1.81 35.258 0.058 6.69 4.51 13.43
3/21/2021 9:15:00 AM 1.87 35.366 0.059 6.69 4.56 13.43
3/21/2021 9:30:00 AM 1.94 35.492 0.058 6.69 4.48 13.42
3/21/2021 9:45:00 AM 2.05 35.69 0.06 6.7 4.59 13.44
3/21/2021 10:00:00 AM 2.16 35.888 0.059 6.71 4.37 13.45
3/21/2021 10:15:00 AM 2.29 36.122 0.059 6.71 4.47 13.47
3/21/2021 10:30:00 AM 2.45 36.41 0.06 6.72 4.48 13.5
3/21/2021 10:45:00 AM 2.59 36.662 0.059 6.73 4.7 13.53
3/21/2021 11:00:00 AM 2.72 36.896 0.061 6.74 4.35 13.53
3/21/2021 11:15:00 AM 2.87 37.166 0.059 6.75 4.47 13.55
3/21/2021 11:30:00 AM 3.04 37.472 0.061 6.76 4.74 13.58
3/21/2021 11:45:00 AM 3.18 37.724 0.061 6.76 4.41 13.59
3/21/2021 12:00:00 PM 3.35 38.03 0.058 6.77 4.5 13.56
3/21/2021 12:15:00 PM 3.53 38.354 0.06 6.79 4.43 13.6
3/21/2021 12:30:00 PM 3.69 38.642 0.057 6.78 4.31 13.62
3/21/2021 12:45:00 PM 3.84 38.912 0.061 6.79 4.31 13.61
3/21/2021 1:00:00 PM 4.02 39.236 0.058 6.79 4.35 13.61
3/21/2021 1:15:00 PM 4.18 39.524 0.059 6.79 4.5 13.61
3/21/2021 1:30:00 PM 4.31 39.758 0.056 6.79 4.31 13.63
3/21/2021 1:45:00 PM 4.48 40.064 0.059 6.79 4.7 13.61
3/21/2021 2:00:00 PM 4.62 40.316 0.056 6.79 4.51 13.61
3/21/2021 2:15:00 PM 4.68 40.424 0.058 6.79 4.37 13.64
3/21/2021 2:30:00 PM 4.82 40.676 0.057 6.8 4.38 13.64
3/21/2021 2:45:00 PM 4.98 40.964 0.057 6.79 4.39 13.62
3/21/2021 3:00:00 PM 4.98 40.964 0.059 6.79 4.53 13.63
3/21/2021 3:15:00 PM 5.07 41.126 0.058 6.79 4.45 13.63
3/21/2021 3:30:00 PM 5.04 41.072 0.058 6.78 4.34 13.65
3/21/2021 3:45:00 PM 5.13 41.234 0.058 6.79 4.34 13.64
3/21/2021 4:00:00 PM 5.21 41.378 0.059 6.78 4.42 13.62
3/21/2021 4:15:00 PM 5.19 41.342 0.059 6.79 4.24 13.63
3/21/2021 4:30:00 PM 5.19 41.342 0.059 6.78 4.28 13.63
3/21/2021 4:45:00 PM 5.17 41.306 0.059 6.78 4.39 13.63
3/21/2021 5:00:00 PM 5.08 41.144 0.059 6.78 4.17 13.63
3/21/2021 5:15:00 PM 5.12 41.216 0.059 6.77 4.24 13.62
3/21/2021 5:30:00 PM 4.92 40.856 0.057 6.77 4.46 13.63
3/21/2021 5:45:00 PM 4.89 40.802 0.058 6.76 4.46 13.61
3/21/2021 6:00:00 PM 4.73 40.514 0.058 6.76 4.39 13.62
3/21/2021 6:15:00 PM 4.83 40.694 0.06 6.76 4.35 13.6
3/21/2021 6:30:00 PM 4.69 40.442 0.061 6.76 4.52 13.59
3/21/2021 6:45:00 PM 4.53 40.154 0.061 6.75 4.62 13.59
3/21/2021 7:00:00 PM 4.45 40.01 0.06 6.74 4.48 13.58
3/21/2021 7:15:00 PM 4.27 39.686 0.06 6.73 4.3 13.56
3/21/2021 7:30:00 PM 4.17 39.506 0.059 6.73 4.36 13.55
3/21/2021 7:45:00 PM 4.01 39.218 0.059 6.73 4.47 13.54
3/21/2021 8:00:00 PM 3.91 39.038 0.061 6.71 4.42 13.51
3/21/2021 8:15:00 PM 3.81 38.858 0.059 6.7 4.34 13.5
3/21/2021 8:30:00 PM 3.67 38.606 0.056 6.69 4.38 13.48
3/21/2021 8:45:00 PM 3.61 38.498 0.058 6.67 4.43 13.47
3/21/2021 9:00:00 PM 3.5 38.3 0.061 6.67 4.62 13.45
3/21/2021 9:15:00 PM 3.34 38.012 0.061 6.66 4.65 13.43
3/21/2021 9:30:00 PM 3.25 37.85 0.062 6.65 4.47 13.42
3/21/2021 9:45:00 PM 3.23 37.814 0.06 6.64 4.47 13.4
3/21/2021 10:00:00 PM 3.03 37.454 0.06 6.64 4.61 13.41
3/21/2021 10:15:00 PM 3.08 37.544 0.059 6.64 4.47 13.38
3/21/2021 10:30:00 PM 2.97 37.346 0.06 6.64 4.42 13.37
3/21/2021 10:45:00 PM 2.92 37.256 0.06 6.64 4.77 13.36
3/21/2021 11:00:00 PM 2.9 37.22 0.059 6.65 4.4 13.35
3/21/2021 11:15:00 PM 2.84 37.112 0.062 6.65 4.47 13.34
3/21/2021 11:30:00 PM 2.82 37.076 0.061 6.65 4.52 13.33
3/21/2021 11:45:00 PM 2.77 36.986 0.059 6.66 4.98 13.32
3/22/2021 12:00:00 AM 2.78 37.004 0.058 6.67 4.88 13.31
3/22/2021 12:15:00 AM 2.78 37.004 0.061 6.67 4.85 13.29
3/22/2021 12:30:00 AM 2.77 36.986 0.058 6.67 4.82 13.28
3/22/2021 12:45:00 AM 2.72 36.896 0.057 6.67 4.44 13.28
3/22/2021 1:00:00 AM 2.72 36.896 0.057 6.67 4.54 13.26
3/22/2021 1:15:00 AM 2.72 36.896 0.061 6.68 4.58 13.25
3/22/2021 1:30:00 AM 2.73 36.914 0.059 6.68 4.43 13.23
3/22/2021 1:45:00 AM 2.74 36.932 0.06 6.68 4.4 13.21
3/22/2021 2:00:00 AM 2.71 36.878 0.057 6.69 4.68 13.22
3/22/2021 2:15:00 AM 2.73 36.914 0.059 6.68 4.62 13.18
3/22/2021 2:30:00 AM 2.69 36.842 0.06 6.69 4.65 13.19
3/22/2021 2:45:00 AM 2.72 36.896 0.06 6.68 4.45 13.18
3/22/2021 3:00:00 AM 2.7 36.86 0.06 6.69 4.64 13.17
3/22/2021 3:15:00 AM 2.7 36.86 0.057 6.69 4.44 13.16
3/22/2021 3:30:00 AM 2.7 36.86 0.06 6.69 4.37 13.15
3/22/2021 3:45:00 AM 2.68 36.824 0.06 6.7 4.84 13.13
3/22/2021 4:00:00 AM 2.69 36.842 0.057 6.69 4.69 13.12
3/22/2021 4:15:00 AM 2.68 36.824 0.06 6.7 4.6 13.11
3/22/2021 4:30:00 AM 2.68 36.824 0.061 6.7 4.95 13.11
3/22/2021 4:45:00 AM 2.67 36.806 0.06 6.69 4.76 13.07
3/22/2021 5:00:00 AM 2.68 36.824 0.058 6.7 4.58 13.07
3/22/2021 5:15:00 AM 2.68 36.824 0.06 6.69 4.72 13.06
3/22/2021 5:30:00 AM 2.67 36.806 0.061 6.69 4.67 13.05
3/22/2021 5:45:00 AM 2.67 36.806 0.058 6.68 4.6 13.02
3/22/2021 6:00:00 AM 2.68 36.824 0.061 6.69 4.64 13.02
3/22/2021 6:15:00 AM 2.65 36.77 0.056 6.69 4.62 13.01
3/22/2021 6:30:00 AM 2.67 36.806 0.061 6.69 4.71 13.02
3/22/2021 6:45:00 AM 2.66 36.788 0.06 6.68 4.76 13.01
3/22/2021 7:00:00 AM 2.65 36.77 0.06 6.69 4.58 12.99
3/22/2021 7:15:00 AM 2.63 36.734 0.058 6.7 4.54 12.98
3/22/2021 7:30:00 AM 2.62 36.716 0.06 6.69 4.98 12.99
3/22/2021 7:45:00 AM 2.62 36.716 0.06 6.69 4.54 13
3/22/2021 8:00:00 AM 2.59 36.662 0.061 6.7 4.58 12.98
3/22/2021 8:15:00 AM 2.6 36.68 0.06 6.69 4.26 12.99
3/22/2021 8:30:00 AM 2.62 36.716 0.058 6.7 4.26 13.02
3/22/2021 8:45:00 AM 2.63 36.734 0.061 6.69 4.26 12.97
3/22/2021 9:00:00 AM 2.69 36.842 0.059 6.7 4.21 13.02
3/22/2021 9:15:00 AM 2.75 36.95 0.056 6.7 4.26 13.05
3/22/2021 9:30:00 AM 2.83 37.094 0.058 6.71 4.15 13.06
3/22/2021 9:45:00 AM 2.92 37.256 0.057 6.72 4.31 13.07
3/22/2021 10:00:00 AM 3.04 37.472 0.056 6.73 4.11 13.11
3/22/2021 10:15:00 AM 3.17 37.706 0.059 6.73 4.06 13.13
3/22/2021 10:30:00 AM 3.31 37.958 0.06 6.74 4.23 13.17
3/22/2021 10:45:00 AM 3.44 38.192 0.057 6.76 4.29 13.19
3/22/2021 11:00:00 AM 3.57 38.426 0.059 6.76 4.06 13.2
3/22/2021 11:15:00 AM 3.73 38.714 0.059 6.76 4 13.22
3/22/2021 11:30:00 AM 3.89 39.002 0.056 6.78 4.08 13.27
3/22/2021 11:45:00 AM 4.05 39.29 0.058 6.79 4.06 13.28
3/22/2021 12:00:00 PM 4.2 39.56 0.058 6.79 4.19 13.27
3/22/2021 12:15:00 PM 4.37 39.866 0.057 6.8 4.18 13.32
3/22/2021 12:30:00 PM 4.56 40.208 0.058 6.8 4.23 13.3
3/22/2021 12:45:00 PM 4.7 40.46 0.058 6.8 4.09 13.33
3/22/2021 1:00:00 PM 4.86 40.748 0.057 6.81 4.16 13.33
3/22/2021 1:15:00 PM 5.05 41.09 0.06 6.8 4.24 13.32
3/22/2021 1:30:00 PM 5.16 41.288 0.056 6.81 4.28 13.34
3/22/2021 1:45:00 PM 5.32 41.576 0.058 6.81 4.15 13.36
3/22/2021 2:00:00 PM 5.41 41.738 0.057 6.81 4.19 13.37
3/22/2021 2:15:00 PM 5.51 41.918 0.055 6.81 4.04 13.38
3/22/2021 2:30:00 PM 5.64 42.152 0.055 6.81 4.11 13.39
3/22/2021 2:45:00 PM 5.75 42.35 0.057 6.81 4.02 13.39
3/22/2021 3:00:00 PM 5.75 42.35 0.059 6.82 4.12 13.41
3/22/2021 3:15:00 PM 5.84 42.512 0.059 6.82 4.19 13.41
3/22/2021 3:30:00 PM 5.88 42.584 0.057 6.82 4.09 13.41
3/22/2021 3:45:00 PM 5.94 42.692 0.058 6.82 4.17 13.41
3/22/2021 4:00:00 PM 5.98 42.764 0.057 6.81 4.14 13.41
3/22/2021 4:15:00 PM 5.95 42.71 0.057 6.81 4.08 13.41
3/22/2021 4:30:00 PM 5.88 42.584 0.055 6.81 4.26 13.4
3/22/2021 4:45:00 PM 5.88 42.584 0.057 6.81 4.35 13.39
3/22/2021 5:00:00 PM 5.82 42.476 0.058 6.8 4.33 13.39
3/22/2021 5:15:00 PM 5.82 42.476 0.058 6.8 4.13 13.39
3/22/2021 5:30:00 PM 5.69 42.242 0.056 6.79 4.46 13.37
3/22/2021 5:45:00 PM 5.66 42.188 0.06 6.8 4.23 13.37
3/22/2021 6:00:00 PM 5.54 41.972 0.057 6.79 4.16 13.38
3/22/2021 6:15:00 PM 5.51 41.918 0.057 6.8 4.15 13.37
3/22/2021 6:30:00 PM 5.33 41.594 0.056 6.78 4.18 13.36
3/22/2021 6:45:00 PM 5.22 41.396 0.059 6.78 4.14 13.36
3/22/2021 7:00:00 PM 5.19 41.342 0.059 6.77 4.12 13.35
3/22/2021 7:15:00 PM 5.04 41.072 0.059 6.78 4.09 13.33
3/22/2021 7:30:00 PM 4.82 40.676 0.058 6.76 4.62 13.32
3/22/2021 7:45:00 PM 4.76 40.568 0.056 6.76 4.24 13.31
3/22/2021 8:00:00 PM 4.58 40.244 0.057 6.74 4.19 13.29
3/22/2021 8:15:00 PM 4.48 40.064 0.058 6.72 4.32 13.27
3/22/2021 8:30:00 PM 4.36 39.848 0.058 6.72 4.14 13.24
3/22/2021 8:45:00 PM 4.2 39.56 0.059 6.71 4.04 13.23
3/22/2021 9:00:00 PM 4.12 39.416 0.059 6.7 4.48 13.2
3/22/2021 9:15:00 PM 4.02 39.236 0.059 6.69 4.14 13.19
3/22/2021 9:30:00 PM 3.84 38.912 0.06 6.68 4.53 13.17
3/22/2021 9:45:00 PM 3.89 39.002 0.057 6.67 4.58 13.15
3/22/2021 10:00:00 PM 3.81 38.858 0.058 6.67 4.29 13.13
3/22/2021 10:15:00 PM 3.77 38.786 0.059 6.68 4.36 13.12
3/22/2021 10:30:00 PM 3.69 38.642 0.059 6.68 4.16 13.11
3/22/2021 10:45:00 PM 3.6 38.48 0.057 6.68 4.09 13.1
3/22/2021 11:00:00 PM 3.56 38.408 0.058 6.68 4.24 13.09
3/22/2021 11:15:00 PM 3.57 38.426 0.057 6.69 4.41 13.07
3/22/2021 11:30:00 PM 3.48 38.264 0.057 6.69 4.29 13.06
3/22/2021 11:45:00 PM 3.5 38.3 0.059 6.67 4.25 13.05
3/23/2021 12:00:00 AM 3.49 38.282 0.059 6.69 4.32 13.03
3/23/2021 12:15:00 AM 3.43 38.174 0.058 6.7 4.23 13.03
3/23/2021 12:30:00 AM 3.41 38.138 0.057 6.69 4.31 13.02
3/23/2021 12:45:00 AM 3.39 38.102 0.056 6.7 4.26 13
3/23/2021 1:00:00 AM 3.41 38.138 0.058 6.7 4.42 12.99
3/23/2021 1:15:00 AM 3.36 38.048 0.058 6.71 4.44 12.98
3/23/2021 1:30:00 AM 3.32 37.976 0.059 6.69 4.22 12.98
3/23/2021 1:45:00 AM 3.31 37.958 0.06 6.71 4.24 12.97
3/23/2021 2:00:00 AM 3.3 37.94 0.059 6.7 4.42 12.96
3/23/2021 2:15:00 AM 3.33 37.994 0.058 6.71 4.48 12.93
3/23/2021 2:30:00 AM 3.28 37.904 0.059 6.71 4.36 12.94
3/23/2021 2:45:00 AM 3.28 37.904 0.06 6.71 4.42 12.93
3/23/2021 3:00:00 AM 3.32 37.976 0.059 6.71 4.36 12.89
3/23/2021 3:15:00 AM 3.29 37.922 0.056 6.7 4.39 12.89
3/23/2021 3:30:00 AM 3.3 37.94 0.057 6.7 4.25 12.88
3/23/2021 3:45:00 AM 3.32 37.976 0.058 6.7 4.2 12.85
3/23/2021 4:00:00 AM 3.3 37.94 0.059 6.71 4.44 12.86
3/23/2021 4:15:00 AM 3.31 37.958 0.058 6.71 4.34 12.85
3/23/2021 4:30:00 AM 3.31 37.958 0.058 6.71 4.36 12.83
3/23/2021 4:45:00 AM 3.31 37.958 0.06 6.71 4.53 12.81
3/23/2021 5:00:00 AM 3.3 37.94 0.057 6.71 4.5 12.83
3/23/2021 5:15:00 AM 3.3 37.94 0.059 6.71 4.31 12.82
3/23/2021 5:30:00 AM 3.29 37.922 0.058 6.71 4.3 12.8
3/23/2021 5:45:00 AM 3.29 37.922 0.059 6.71 4.36 12.79
3/23/2021 6:00:00 AM 3.29 37.922 0.058 6.7 4.57 12.76
3/23/2021 6:15:00 AM 3.29 37.922 0.059 6.72 4.61 12.75
3/23/2021 6:30:00 AM 3.29 37.922 0.058 6.71 4.33 12.72
3/23/2021 6:45:00 AM 3.29 37.922 0.057 6.71 4.5 12.72
3/23/2021 7:00:00 AM 3.28 37.904 0.056 6.7 4.46 12.7
3/23/2021 7:15:00 AM 3.31 37.958 0.059 6.7 4.46 12.69
3/23/2021 7:30:00 AM 3.3 37.94 0.058 6.71 4.38 12.69
3/23/2021 7:45:00 AM 3.31 37.958 0.057 6.71 4.23 12.69
3/23/2021 8:00:00 AM 3.3 37.94 0.058 6.71 4.47 12.65
3/23/2021 8:15:00 AM 3.33 37.994 0.055 6.71 4.3 12.67
3/23/2021 8:30:00 AM 3.32 37.976 0.058 6.71 4.28 12.69
3/23/2021 8:45:00 AM 3.34 38.012 0.057 6.72 4.06 12.68
3/23/2021 9:00:00 AM 3.37 38.066 0.055 6.71 4.24 12.69
3/23/2021 9:15:00 AM 3.47 38.246 0.058 6.73 4.15 12.76
3/23/2021 9:30:00 AM 3.53 38.354 0.057 6.73 4.04 12.79
3/23/2021 9:45:00 AM 3.6 38.48 0.057 6.73 4.04 12.8
3/23/2021 10:00:00 AM 3.71 38.678 0.055 6.74 4.18 12.84
3/23/2021 10:15:00 AM 3.81 38.858 0.056 6.75 4.05 12.88
3/23/2021 10:30:00 AM 3.96 39.128 0.059 6.76 4.12 12.93
3/23/2021 10:45:00 AM 4.08 39.344 0.057 6.77 4.05 12.96
3/23/2021 11:00:00 AM 4.21 39.578 0.055 6.78 3.97 12.99
3/23/2021 11:15:00 AM 4.35 39.83 0.056 6.77 3.94 13.01
3/23/2021 11:30:00 AM 4.51 40.118 0.055 6.8 4.02 13.03
3/23/2021 11:45:00 AM 4.64 40.352 0.055 6.8 4.18 13.09
3/23/2021 12:00:00 PM 4.8 40.64 0.055 6.81 4.07 13.11
3/23/2021 12:15:00 PM 4.98 40.964 0.057 6.82 4.03 13.13
3/23/2021 12:30:00 PM 5.11 41.198 0.056 6.82 3.97 13.16
3/23/2021 12:45:00 PM 5.27 41.486 0.054 6.83 4.04 13.19
3/23/2021 1:00:00 PM 5.44 41.792 0.056 6.84 4.06 13.2
3/23/2021 1:15:00 PM 5.58 42.044 0.056 6.83 4.13 13.2
3/23/2021 1:30:00 PM 5.72 42.296 0.056 6.84 4.39 13.2
3/23/2021 1:45:00 PM 5.85 42.53 0.055 6.84 4.05 13.23
3/23/2021 2:00:00 PM 5.97 42.746 0.055 6.85 4.01 13.24
3/23/2021 2:15:00 PM 6.09 42.962 0.054 6.85 4.35 13.24
3/23/2021 2:30:00 PM 6.15 43.07 0.054 6.86 4.14 13.25
3/23/2021 2:45:00 PM 6.24 43.232 0.056 6.86 4.14 13.26
3/23/2021 3:00:00 PM 6.33 43.394 0.057 6.85 4.05 13.26
3/23/2021 3:15:00 PM 6.37 43.466 0.055 6.86 4.24 13.28
3/23/2021 3:30:00 PM 6.42 43.556 0.055 6.86 4.08 13.28
3/23/2021 3:45:00 PM 6.45 43.61 0.055 6.86 4.1 13.28
3/23/2021 4:00:00 PM 6.41 43.538 0.056 6.86 4.14 13.3
3/23/2021 4:15:00 PM 6.43 43.574 0.056 6.86 4.52 13.3
3/23/2021 4:30:00 PM 6.43 43.574 0.054 6.86 4.13 13.29
3/23/2021 4:45:00 PM 6.34 43.412 0.056 6.85 4.11 13.3
3/23/2021 5:00:00 PM 6.3 43.34 0.056 6.85 4.14 13.29
3/23/2021 5:15:00 PM 6.14 43.052 0.056 6.84 4.08 13.29
3/23/2021 5:30:00 PM 6.11 42.998 0.056 6.85 4.17 13.28
3/23/2021 5:45:00 PM 5.98 42.764 0.055 6.84 4.19 13.28
3/23/2021 6:00:00 PM 5.88 42.584 0.056 6.84 4.08 13.27
3/23/2021 6:15:00 PM 5.8 42.44 0.056 6.83 4.15 13.27
3/23/2021 6:30:00 PM 5.67 42.206 0.057 6.82 4.19 13.26
3/23/2021 6:45:00 PM 5.59 42.062 0.057 6.83 4.01 13.26
3/23/2021 7:00:00 PM 5.53 41.954 0.056 6.82 4.15 13.24
3/23/2021 7:15:00 PM 5.51 41.918 0.054 6.81 4.05 13.24
3/23/2021 7:30:00 PM 5.33 41.594 0.056 6.8 4.06 13.22
3/23/2021 7:45:00 PM 5.19 41.342 0.055 6.81 4.17 13.21
3/23/2021 8:00:00 PM 5.12 41.216 0.057 6.78 4.32 13.19
3/23/2021 8:15:00 PM 5.04 41.072 0.057 6.77 4.11 13.17
3/23/2021 8:30:00 PM 5.02 41.036 0.057 6.76 4.19 13.14
3/23/2021 8:45:00 PM 4.83 40.694 0.056 6.76 4.19 13.12
3/23/2021 9:00:00 PM 4.69 40.442 0.058 6.74 4.13 13.09
3/23/2021 9:15:00 PM 4.66 40.388 0.056 6.73 4.1 13.06
3/23/2021 9:30:00 PM 4.57 40.226 0.057 6.73 4.19 13.03
3/23/2021 9:45:00 PM 4.54 40.172 0.053 6.72 4.15 13.01
3/23/2021 10:00:00 PM 4.39 39.902 0.057 6.72 4.35 12.99
3/23/2021 10:15:00 PM 4.37 39.866 0.057 6.72 4.19 12.97
3/23/2021 10:30:00 PM 4.28 39.704 0.057 6.7 4.03 12.95
3/23/2021 10:45:00 PM 4.23 39.614 0.056 6.7 4.25 12.93
3/23/2021 11:00:00 PM 4.18 39.524 0.055 6.72 7.54 12.92
3/23/2021 11:15:00 PM 4.1 39.38 0.055 6.73 4.86 12.91
3/23/2021 11:30:00 PM 4.08 39.344 0.057 6.73 3.98 12.9
3/23/2021 11:45:00 PM 4.05 39.29 0.057 6.73 3.85 12.88
3/24/2021 12:00:00 AM 4.01 39.218 0.058 6.74 4.04 12.86
3/24/2021 12:15:00 AM 3.98 39.164 0.058 6.74 3.84 12.85
3/24/2021 12:30:00 AM 4.01 39.218 0.057 6.74 3.94 12.83
3/24/2021 12:45:00 AM 3.94 39.092 0.055 6.73 4.09 12.82
3/24/2021 1:00:00 AM 3.94 39.092 0.057 6.74 4.18 12.81
3/24/2021 1:15:00 AM 3.97 39.146 0.057 6.74 4.12 12.78
3/24/2021 1:30:00 AM 3.97 39.146 0.056 6.74 3.89 12.76
3/24/2021 1:45:00 AM 3.9 39.02 0.056 6.75 4.05 12.79
3/24/2021 2:00:00 AM 3.9 39.02 0.056 6.75 4.11 12.78
3/24/2021 2:15:00 AM 3.9 39.02 0.056 6.75 4.11 12.77
3/24/2021 2:30:00 AM 3.91 39.038 0.059 6.74 3.92 12.77
3/24/2021 2:45:00 AM 3.92 39.056 0.058 6.75 3.98 12.75
3/24/2021 3:00:00 AM 3.92 39.056 0.057 6.75 4.14 12.75
3/24/2021 3:15:00 AM 3.96 39.128 0.056 6.74 3.98 12.71
3/24/2021 3:30:00 AM 3.94 39.092 0.057 6.74 3.94 12.74
3/24/2021 3:45:00 AM 3.98 39.164 0.057 6.75 4.18 12.7
3/24/2021 4:00:00 AM 3.96 39.128 0.057 6.75 4 12.71
3/24/2021 4:15:00 AM 4 39.2 0.057 6.75 4.51 12.7
3/24/2021 4:30:00 AM 3.97 39.146 0.057 6.75 3.95 12.71
3/24/2021 4:45:00 AM 3.99 39.182 0.057 6.76 3.82 12.7
3/24/2021 5:00:00 AM 4.02 39.236 0.057 6.75 4.33 12.69
3/24/2021 5:15:00 AM 4.05 39.29 0.057 6.76 4.08 12.68
3/24/2021 5:30:00 AM 4.05 39.29 0.057 6.76 4.15 12.67
3/24/2021 5:45:00 AM 4.07 39.326 0.057 6.76 4.1 12.66
3/24/2021 6:00:00 AM 4.1 39.38 0.056 6.77 4.04 12.64
3/24/2021 6:15:00 AM 4.13 39.434 0.057 6.77 4.21 12.62
3/24/2021 6:30:00 AM 4.15 39.47 0.057 6.77 4.15 12.6
3/24/2021 6:45:00 AM 4.19 39.542 0.056 6.76 4.52 12.58
3/24/2021 7:00:00 AM 4.22 39.596 0.055 6.77 4.14 12.56
3/24/2021 7:15:00 AM 4.23 39.614 0.054 6.76 4.03 12.55
3/24/2021 7:30:00 AM 4.25 39.65 0.055 6.77 4.15 12.54
3/24/2021 7:45:00 AM 4.27 39.686 0.058 6.76 4.06 12.51
3/24/2021 8:00:00 AM 4.27 39.686 0.056 6.76 3.99 12.54
3/24/2021 8:15:00 AM 4.27 39.686 0.054 6.77 3.87 12.54
3/24/2021 8:30:00 AM 4.27 39.686 0.056 6.78 3.64 12.55
3/24/2021 8:45:00 AM 4.28 39.704 0.058 6.77 3.63 12.55
3/24/2021 9:00:00 AM 4.3 39.74 0.056 6.77 3.89 12.54
3/24/2021 9:15:00 AM 4.32 39.776 0.054 6.77 3.73 12.53
3/24/2021 9:30:00 AM 4.35 39.83 0.059 6.78 3.7 12.53
3/24/2021 9:45:00 AM 4.37 39.866 0.055 6.77 3.83 12.54
3/24/2021 10:00:00 AM 4.38 39.884 0.056 6.78 4.41 12.56
3/24/2021 10:15:00 AM 4.41 39.938 0.056 6.79 4.13 12.58
3/24/2021 10:30:00 AM 4.43 39.974 0.056 6.78 4.16 12.6
3/24/2021 10:45:00 AM 4.47 40.046 0.056 6.79 3.81 12.58
3/24/2021 11:00:00 AM 4.5 40.1 0.056 6.79 3.61 12.61
3/24/2021 11:15:00 AM 4.52 40.136 0.056 6.79 3.69 12.64
3/24/2021 11:30:00 AM 4.54 40.172 0.056 6.81 3.91 12.65
3/24/2021 11:45:00 AM 4.57 40.226 0.057 6.81 3.61 12.68
3/24/2021 12:00:00 PM 4.6 40.28 0.057 6.81 3.61 12.7
3/24/2021 12:15:00 PM 4.64 40.352 0.057 6.83 3.66 12.72
3/24/2021 12:30:00 PM 4.71 40.478 0.056 6.83 4.07 12.7
3/24/2021 12:45:00 PM 4.77 40.586 0.056 6.83 4 12.72
3/24/2021 1:00:00 PM 4.8 40.64 0.054 6.84 3.67 12.75
3/24/2021 1:15:00 PM 4.85 40.73 0.053 6.84 3.57 12.77
3/24/2021 1:30:00 PM 4.9 40.82 0.055 6.85 3.62 12.8
3/24/2021 1:45:00 PM 4.95 40.91 0.055 6.85 3.72 12.83
3/24/2021 2:00:00 PM 5 41 0.054 6.87 3.66 12.83
3/24/2021 2:15:00 PM 5.08 41.144 0.056 6.87 3.75 12.82
3/24/2021 2:30:00 PM 5.12 41.216 0.055 6.88 3.62 12.83
3/24/2021 3:30:00 PM 5.22 41.396 0.058 6.87 2.84 12.85
3/24/2021 3:45:00 PM 5.24 41.432 0.058 6.87 2.82 12.84
3/24/2021 4:00:00 PM 5.27 41.486 0.057 6.88 2.82 12.84
3/24/2021 4:15:00 PM 5.34 41.612 0.057 6.87 2.79 12.8
3/24/2021 4:30:00 PM 5.33 41.594 0.057 6.87 2.85 12.8
3/24/2021 4:45:00 PM 5.3 41.54 0.058 6.87 2.92 12.79
3/24/2021 5:00:00 PM 5.3 41.54 0.059 6.87 2.98 12.77
3/24/2021 5:15:00 PM 5.3 41.54 0.058 6.87 2.9 12.75
3/24/2021 5:30:00 PM 5.32 41.576 0.058 6.86 2.85 12.72
3/24/2021 5:45:00 PM 5.33 41.594 0.056 6.86 2.86 12.69
3/24/2021 6:00:00 PM 5.36 41.648 0.058 6.86 2.83 12.65
3/24/2021 6:15:00 PM 5.34 41.612 0.058 6.85 2.84 12.62
3/24/2021 6:30:00 PM 5.27 41.486 0.058 6.85 2.88 12.62
3/24/2021 6:45:00 PM 5.26 41.468 0.057 6.85 2.9 12.59
3/24/2021 7:00:00 PM 5.26 41.468 0.058 6.85 3.04 12.57
3/24/2021 7:15:00 PM 5.26 41.468 0.058 6.84 2.8 12.54
3/24/2021 7:30:00 PM 5.23 41.414 0.058 6.83 3.11 12.52
3/24/2021 7:45:00 PM 5.2 41.36 0.057 6.83 2.96 12.5
3/24/2021 8:00:00 PM 5.21 41.378 0.057 6.82 2.97 12.47
3/24/2021 8:15:00 PM 5.22 41.396 0.058 6.82 2.96 12.44
3/24/2021 8:30:00 PM 5.22 41.396 0.058 6.81 2.93 12.41
3/24/2021 8:45:00 PM 5.21 41.378 0.059 6.8 3.02 12.39
3/24/2021 9:00:00 PM 5.2 41.36 0.058 6.8 3.31 12.37
3/24/2021 9:15:00 PM 5.21 41.378 0.058 6.79 2.96 12.34
3/24/2021 9:30:00 PM 5.17 41.306 0.058 6.78 3.18 12.33
3/24/2021 9:45:00 PM 5.12 41.216 0.06 6.78 3.28 12.32
3/24/2021 10:00:00 PM 5.11 41.198 0.058 6.78 3.15 12.3
3/24/2021 10:15:00 PM 5.13 41.234 0.058 6.77 3.18 12.27
3/24/2021 10:30:00 PM 5.09 41.162 0.059 6.77 3.28 12.27
3/24/2021 10:45:00 PM 5.1 41.18 0.058 6.77 3.37 12.24
3/24/2021 11:00:00 PM 5.11 41.198 0.057 6.76 3.42 12.23
3/24/2021 11:15:00 PM 5.03 41.054 0.061 6.76 3.5 12.25
3/24/2021 11:30:00 PM 5.05 41.09 0.058 6.75 3.41 12.22
3/24/2021 11:45:00 PM 5 41 0.058 6.75 3.41 12.23
3/25/2021 12:00:00 AM 4.98 40.964 0.059 6.75 3.79 12.23
3/25/2021 12:15:00 AM 4.96 40.928 0.06 6.75 4.18 12.22
3/25/2021 12:30:00 AM 5 41 0.059 6.75 3.22 12.2
3/25/2021 12:45:00 AM 5 41 0.06 6.74 3.23 12.18
3/25/2021 1:00:00 AM 4.98 40.964 0.061 6.74 3.22 12.18
3/25/2021 1:15:00 AM 4.97 40.946 0.059 6.74 3.23 12.17
3/25/2021 1:30:00 AM 4.97 40.946 0.06 6.74 3.38 12.18
3/25/2021 1:45:00 AM 4.93 40.874 0.058 6.73 3.34 12.18
3/25/2021 2:00:00 AM 4.96 40.928 0.059 6.73 3.32 12.16
3/25/2021 2:15:00 AM 4.92 40.856 0.06 6.73 3.32 12.17
3/25/2021 2:30:00 AM 4.86 40.748 0.06 6.73 3.28 12.2
3/25/2021 2:45:00 AM 4.88 40.784 0.06 6.72 3.23 12.19
3/25/2021 3:00:00 AM 4.87 40.766 0.058 6.72 3.33 12.19
3/25/2021 3:15:00 AM 4.86 40.748 0.06 6.72 3.36 12.18
3/25/2021 3:30:00 AM 4.81 40.658 0.059 6.72 2.99 12.21
3/25/2021 3:45:00 AM 4.81 40.658 0.057 6.72 3.18 12.2
3/25/2021 4:00:00 AM 4.82 40.676 0.058 6.71 3.25 12.18
3/25/2021 4:15:00 AM 4.78 40.604 0.06 6.71 12.16 12.21
3/25/2021 4:30:00 AM 4.76 40.568 0.059 6.72 3.32 12.21
3/25/2021 4:45:00 AM 4.76 40.568 0.057 6.71 3.43 12.2
3/25/2021 5:00:00 AM 4.74 40.532 0.058 6.71 3.45 12.22
3/25/2021 5:15:00 AM 4.76 40.568 0.059 6.71 3.64 12.19
3/25/2021 5:30:00 AM 4.75 40.55 0.057 6.7 3.76 12.19
3/25/2021 5:45:00 AM 4.77 40.586 0.057 6.7 3.64 12.18
3/25/2021 6:00:00 AM 4.78 40.604 0.058 6.69 3.74 12.16
3/25/2021 6:15:00 AM 4.76 40.568 0.058 6.7 5.61 12.16
3/25/2021 6:30:00 AM 4.73 40.514 0.056 6.69 3.57 12.19
3/25/2021 6:45:00 AM 4.76 40.568 0.057 6.69 3.48 12.16
3/25/2021 7:00:00 AM 4.72 40.496 0.055 6.7 3.59 12.19
3/25/2021 7:15:00 AM 4.7 40.46 0.057 6.7 3.39 12.19
3/25/2021 7:30:00 AM 4.7 40.46 0.057 6.7 3.3 12.2
3/25/2021 7:45:00 AM 4.72 40.496 0.058 6.7 3.32 12.17
3/25/2021 8:00:00 AM 4.67 40.406 0.058 6.71 3.24 12.21
3/25/2021 8:15:00 AM 4.67 40.406 0.058 6.7 3.23 12.23
3/25/2021 8:30:00 AM 4.7 40.46 0.057 6.7 3.09 12.21
3/25/2021 8:45:00 AM 4.68 40.424 0.057 6.72 3.2 12.28
3/25/2021 9:00:00 AM 4.68 40.424 0.053 6.71 3.2 12.31
3/25/2021 9:15:00 AM 4.69 40.442 0.057 6.73 3.25 12.35
3/25/2021 9:30:00 AM 4.71 40.478 0.053 6.74 3.37 12.4
3/25/2021 9:45:00 AM 4.73 40.514 0.057 6.73 3.73 12.48
3/25/2021 10:00:00 AM 4.81 40.658 0.054 6.74 3.5 12.49
3/25/2021 10:15:00 AM 4.88 40.784 0.056 6.73 3.71 12.53
3/25/2021 10:30:00 AM 4.86 40.748 0.054 6.74 3.79 12.62
3/25/2021 10:45:00 AM 4.86 40.748 0.053 6.75 3.51 12.73
3/25/2021 11:00:00 AM 5 41 0.054 6.75 4.08 12.71
3/25/2021 11:15:00 AM 5 41 0.056 6.76 4.26 12.79
3/25/2021 11:30:00 AM 5.09 41.162 0.054 6.76 4.48 12.8
3/25/2021 11:45:00 AM 5.16 41.288 0.052 6.75 4.34 12.83
3/25/2021 12:00:00 PM 5.34 41.612 0.053 6.74 4.7 12.83
3/25/2021 12:15:00 PM 5.43 41.774 0.051 6.74 4.82 12.86
3/25/2021 12:30:00 PM 5.56 42.008 0.054 6.74 4.99 12.87
3/25/2021 12:45:00 PM 5.72 42.296 0.054 6.72 5.41 12.87
3/25/2021 1:00:00 PM 5.88 42.584 0.053 6.74 5.75 12.89
3/25/2021 1:15:00 PM 6.03 42.854 0.054 6.72 5.54 12.9
3/25/2021 1:30:00 PM 6.17 43.106 0.052 6.71 6.46 12.92
3/25/2021 1:45:00 PM 6.24 43.232 0.051 6.71 6.61 12.93
3/25/2021 2:00:00 PM 6.32 43.376 0.052 6.71 5.56 12.94
3/25/2021 2:15:00 PM 6.47 43.646 0.052 6.73 5.38 12.95
3/25/2021 2:30:00 PM 6.55 43.79 0.052 6.72 5.37 12.94
3/25/2021 2:45:00 PM 6.71 44.078 0.052 6.72 5.6 12.92
3/25/2021 3:00:00 PM 6.8 44.24 0.053 6.72 5.76 12.91
3/25/2021 3:15:00 PM 6.93 44.474 0.052 6.72 6.13 12.9
3/25/2021 3:30:00 PM 6.97 44.546 0.051 6.71 7.1 12.88
3/25/2021 3:45:00 PM 6.96 44.528 0.051 6.7 12.71 12.87
3/25/2021 4:00:00 PM 6.97 44.546 0.053 6.69 6.27 12.84
3/25/2021 4:15:00 PM 6.92 44.456 0.052 6.68 5.68 12.82
3/25/2021 4:30:00 PM 6.98 44.564 0.051 6.67 5.27 12.8
3/25/2021 4:45:00 PM 6.97 44.546 0.052 6.66 5.52 12.77
3/25/2021 5:00:00 PM 6.86 44.348 0.05 6.65 5.38 12.76
3/25/2021 5:15:00 PM 6.71 44.078 0.052 6.63 5.5 12.75
3/25/2021 5:30:00 PM 6.72 44.096 0.051 6.63 5.89 12.74
3/25/2021 5:45:00 PM 6.62 43.916 0.051 6.61 5 12.72
3/25/2021 6:00:00 PM 6.54 43.772 0.051 6.6 7.46 12.69
3/25/2021 6:15:00 PM 6.44 43.592 0.051 6.6 5.47 12.65
3/25/2021 6:30:00 PM 6.42 43.556 0.052 6.59 5.08 12.61
3/25/2021 6:45:00 PM 6.3 43.34 0.052 6.58 5.35 12.58
3/25/2021 7:00:00 PM 6.14 43.052 0.052 6.57 5.7 12.56
3/25/2021 7:15:00 PM 6.16 43.088 0.051 6.57 5.48 12.53
3/25/2021 7:30:00 PM 6.03 42.854 0.052 6.56 5.73 12.5
3/25/2021 7:45:00 PM 5.91 42.638 0.05 6.55 5.47 12.48
3/25/2021 8:00:00 PM 5.88 42.584 0.052 6.53 5.52 12.45
3/25/2021 8:15:00 PM 5.74 42.332 0.052 6.52 5.44 12.43
3/25/2021 8:30:00 PM 5.7 42.26 0.052 6.51 5.51 12.39
3/25/2021 8:45:00 PM 5.6 42.08 0.052 6.51 5.32 12.38
3/25/2021 9:00:00 PM 5.64 42.152 0.052 6.5 5.32 12.33
3/25/2021 9:15:00 PM 5.61 42.098 0.052 6.49 5.25 12.3
3/25/2021 9:30:00 PM 5.51 41.918 0.051 6.49 5.35 12.31
3/25/2021 9:45:00 PM 5.51 41.918 0.052 6.48 5.32 12.28
3/25/2021 10:00:00 PM 5.53 41.954 0.052 6.48 5.17 12.26
3/25/2021 10:15:00 PM 5.45 41.81 0.05 6.48 5.37 12.26
3/25/2021 10:30:00 PM 5.45 41.81 0.051 6.48 5.19 12.23
3/25/2021 10:45:00 PM 5.45 41.81 0.051 6.48 5.1 12.22
3/25/2021 11:00:00 PM 5.44 41.792 0.051 6.49 4.88 12.2
3/25/2021 11:15:00 PM 5.45 41.81 0.053 6.5 5.02 12.19
3/25/2021 11:30:00 PM 5.41 41.738 0.051 6.5 5.1 12.18
3/25/2021 11:45:00 PM 5.43 41.774 0.053 6.49 4.98 12.17
3/26/2021 12:00:00 AM 5.33 41.594 0.052 6.51 5 12.23
3/26/2021 12:15:00 AM 5.37 41.666 0.052 6.5 5.07 12.19
3/26/2021 12:30:00 AM 5.32 41.576 0.052 6.51 4.82 12.22
3/26/2021 12:45:00 AM 5.32 41.576 0.052 6.51 4.9 12.21
3/26/2021 1:00:00 AM 5.33 41.594 0.053 6.51 5.16 12.2
3/26/2021 1:15:00 AM 5.35 41.63 0.052 6.52 4.95 12.16
3/26/2021 1:30:00 AM 5.35 41.63 0.052 6.52 4.97 12.16
3/26/2021 1:45:00 AM 5.39 41.702 0.053 6.51 4.71 12.13
3/26/2021 2:00:00 AM 5.4 41.72 0.053 6.52 4.73 12.12
3/26/2021 2:15:00 AM 5.38 41.684 0.053 6.52 4.74 12.14
3/26/2021 2:30:00 AM 5.41 41.738 0.052 6.53 4.85 12.11
3/26/2021 2:45:00 AM 5.38 41.684 0.053 6.52 4.78 12.12
3/26/2021 3:00:00 AM 5.42 41.756 0.053 6.53 4.82 12.07
3/26/2021 3:15:00 AM 5.38 41.684 0.053 6.53 4.98 12.1
3/26/2021 3:30:00 AM 5.39 41.702 0.052 6.52 4.84 12.06
3/26/2021 3:45:00 AM 5.38 41.684 0.052 6.53 4.86 12.07
3/26/2021 4:00:00 AM 5.34 41.612 0.052 6.53 4.89 12.1
3/26/2021 4:15:00 AM 5.33 41.594 0.051 6.53 4.91 12.1
3/26/2021 4:30:00 AM 5.36 41.648 0.053 6.53 4.81 12.06
3/26/2021 4:45:00 AM 5.35 41.63 0.052 6.53 4.77 12.08
3/26/2021 5:00:00 AM 5.35 41.63 0.052 6.53 4.79 12.08
3/26/2021 5:15:00 AM 5.34 41.612 0.052 6.54 4.51 12.09
3/26/2021 5:30:00 AM 5.38 41.684 0.051 6.53 4.59 12.03
3/26/2021 5:45:00 AM 5.41 41.738 0.05 6.52 4.68 12
3/26/2021 6:00:00 AM 5.4 41.72 0.051 6.52 4.77 12
3/26/2021 6:15:00 AM 5.35 41.63 0.051 6.52 4.74 12.04
3/26/2021 6:30:00 AM 5.4 41.72 0.05 6.52 4.58 12.01
3/26/2021 6:45:00 AM 5.36 41.648 0.05 6.54 4.66 12.04
3/26/2021 7:00:00 AM 5.36 41.648 0.051 6.54 4.7 12.05
3/26/2021 7:15:00 AM 5.41 41.738 0.05 6.53 4.44 11.98
3/26/2021 7:30:00 AM 5.39 41.702 0.051 6.53 4.57 12.01
3/26/2021 7:45:00 AM 5.42 41.756 0.052 6.54 4.51 11.99
3/26/2021 8:00:00 AM 5.44 41.792 0.052 6.53 4.49 11.97
3/26/2021 8:15:00 AM 5.44 41.792 0.051 6.54 4.8 12
3/26/2021 8:30:00 AM 5.48 41.864 0.051 6.54 4.35 12.02
3/26/2021 8:45:00 AM 5.5 41.9 0.051 6.55 4.28 12.03
3/26/2021 9:00:00 AM 5.57 42.026 0.051 6.54 4.35 12.02
3/26/2021 9:15:00 AM 5.6 42.08 0.051 6.55 4.38 12.07
3/26/2021 9:30:00 AM 5.67 42.206 0.052 6.57 4.32 12.09
3/26/2021 9:45:00 AM 5.77 42.386 0.05 6.55 4.22 12.09
3/26/2021 10:00:00 AM 5.9 42.62 0.05 6.56 4.26 12.11
3/26/2021 10:15:00 AM 6 42.8 0.049 6.59 4.15 12.13
3/26/2021 10:30:00 AM 6.12 43.016 0.05 6.61 4.18 12.17
3/26/2021 10:45:00 AM 6.27 43.286 0.051 6.62 4.28 12.19
3/26/2021 11:00:00 AM 6.36 43.448 0.051 6.63 4.21 12.23
3/26/2021 11:15:00 AM 6.46 43.628 0.051 6.64 4.1 12.27
3/26/2021 11:30:00 AM 6.57 43.826 0.05 6.65 4.15 12.27
3/26/2021 11:45:00 AM 6.63 43.934 0.05 6.66 4.26 12.31
3/26/2021 12:00:00 PM 6.68 44.024 0.049 6.67 4.29 12.35
3/26/2021 12:15:00 PM 6.85 44.33 0.05 6.68 4.2 12.33
3/26/2021 12:30:00 PM 6.89 44.402 0.051 6.69 4 12.36
3/26/2021 12:45:00 PM 6.95 44.51 0.052 6.69 4.22 12.38
3/26/2021 1:00:00 PM 7 44.6 0.05 6.71 4.08 12.4
3/26/2021 1:15:00 PM 7.12 44.816 0.051 6.71 4.15 12.4
3/26/2021 1:30:00 PM 7.15 44.87 0.05 6.72 4.22 12.4
3/26/2021 1:45:00 PM 7.29 45.122 0.051 6.72 4.62 12.39
3/26/2021 2:00:00 PM 7.33 45.194 0.05 6.73 3.94 12.37
3/26/2021 2:15:00 PM 7.35 45.23 0.05 6.74 4.01 12.35
3/26/2021 2:30:00 PM 7.48 45.464 0.051 6.74 4.28 12.32
3/26/2021 2:45:00 PM 7.55 45.59 0.051 6.75 4.15 12.29
3/26/2021 3:00:00 PM 7.62 45.716 0.05 6.76 4.17 12.27
3/26/2021 3:15:00 PM 7.67 45.806 0.05 6.75 4.37 12.26
3/26/2021 3:30:00 PM 7.68 45.824 0.05 6.76 4.11 12.25
3/26/2021 3:45:00 PM 7.75 45.95 0.051 6.77 4 12.24
3/26/2021 4:00:00 PM 7.75 45.95 0.05 6.76 4.54 12.23
3/26/2021 4:15:00 PM 7.81 46.058 0.049 6.78 3.88 12.2
3/26/2021 4:30:00 PM 7.86 46.148 0.05 6.8 3.93 12.17
3/26/2021 4:45:00 PM 7.88 46.184 0.05 6.81 3.99 12.14
3/26/2021 5:00:00 PM 7.87 46.166 0.05 6.8 3.76 12.12
3/26/2021 5:15:00 PM 7.85 46.13 0.05 6.79 3.98 12.08
3/26/2021 5:30:00 PM 7.83 46.094 0.05 6.79 4 12.05
3/26/2021 5:45:00 PM 7.75 45.95 0.049 6.79 4.08 12.01
3/26/2021 6:00:00 PM 7.7 45.86 0.05 6.78 4.02 11.98
3/26/2021 6:15:00 PM 7.66 45.788 0.049 6.79 4.04 11.95
3/26/2021 6:30:00 PM 7.6 45.68 0.049 6.77 4.14 11.93
3/26/2021 6:45:00 PM 7.59 45.662 0.049 6.78 4.45 11.89
3/26/2021 7:00:00 PM 7.5 45.5 0.051 6.77 4.65 11.87
3/26/2021 7:15:00 PM 7.46 45.428 0.05 6.77 4.8 11.85
3/26/2021 7:30:00 PM 7.38 45.284 0.05 6.77 4.38 11.83
3/26/2021 7:45:00 PM 7.3 45.14 0.05 6.75 4.41 11.82
3/26/2021 8:00:00 PM 7.27 45.086 0.05 6.76 4.99 11.79
3/26/2021 8:15:00 PM 7.23 45.014 0.05 6.74 4.54 11.76
3/26/2021 8:30:00 PM 7.17 44.906 0.049 6.73 4.67 11.75
3/26/2021 8:45:00 PM 7.17 44.906 0.051 6.72 6.42 11.71
3/26/2021 9:00:00 PM 7.13 44.834 0.05 6.71 4.29 11.7
3/26/2021 9:15:00 PM 7.12 44.816 0.05 6.71 6.58 11.67
3/26/2021 9:30:00 PM 7.15 44.87 0.05 6.71 4.42 11.64
3/26/2021 9:45:00 PM 7.2 44.96 0.05 6.68 6.49 11.62
3/26/2021 10:00:00 PM 7.28 45.104 0.05 6.69 4.61 11.56
3/26/2021 10:15:00 PM 7.35 45.23 0.051 6.68 5.08 11.52
3/26/2021 10:30:00 PM 7.47 45.446 0.05 6.67 4.47 11.47
3/26/2021 10:45:00 PM 7.53 45.554 0.05 6.68 4.26 11.44
3/26/2021 11:00:00 PM 7.57 45.626 0.048 6.67 6.69 11.39
3/26/2021 11:15:00 PM 7.63 45.734 0.049 6.67 7.23 11.38
3/26/2021 11:30:00 PM 7.67 45.806 0.048 6.67 9.36 11.36
3/26/2021 11:45:00 PM 7.71 45.878 0.048 6.67 10.64 11.33
3/27/2021 12:00:00 AM 7.73 45.914 0.048 6.66 12.9 11.3
3/27/2021 12:15:00 AM 7.77 45.986 0.048 6.67 7.43 11.3
3/27/2021 12:30:00 AM 7.8 46.04 0.048 6.66 5.1 11.27
3/27/2021 12:45:00 AM 7.83 46.094 0.048 6.66 7.48 11.28
3/27/2021 1:00:00 AM 7.82 46.076 0.048 6.65 6.9 11.25
3/27/2021 1:15:00 AM 7.82 46.076 0.048 6.65 6.33 11.26
3/27/2021 1:30:00 AM 7.82 46.076 0.048 6.64 10.6 11.25
3/27/2021 1:45:00 AM 7.8 46.04 0.048 6.63 8.06 11.23
3/27/2021 2:00:00 AM 7.78 46.004 0.048 6.63 8.49 11.24
3/27/2021 2:15:00 AM 7.77 45.986 0.047 6.63 9.15 11.24
3/27/2021 2:30:00 AM 7.74 45.932 0.048 6.62 8.01 11.24
3/27/2021 2:45:00 AM 7.71 45.878 0.048 6.62 10.73 11.24
3/27/2021 3:00:00 AM 7.69 45.842 0.048 6.61 8.67 11.24
3/27/2021 3:15:00 AM 7.65 45.77 0.048 6.61 8.58 11.24
3/27/2021 3:30:00 AM 7.63 45.734 0.047 6.6 7.87 11.25
3/27/2021 3:45:00 AM 7.61 45.698 0.049 6.6 8.53 11.24
3/27/2021 4:00:00 AM 7.57 45.626 0.049 6.59 12.96 11.23
3/27/2021 4:15:00 AM 7.57 45.626 0.048 6.58 10.88 11.25
3/27/2021 4:30:00 AM 7.55 45.59 0.047 6.58 5.51 11.23
3/27/2021 4:45:00 AM 7.53 45.554 0.048 6.58 8.56 11.21
3/27/2021 5:00:00 AM 7.52 45.536 0.048 6.57 7.55 11.24
3/27/2021 5:15:00 AM 7.51 45.518 0.048 6.58 4.77 11.22
3/27/2021 5:30:00 AM 7.5 45.5 0.049 6.56 4.17 11.24
3/27/2021 5:45:00 AM 7.49 45.482 0.048 6.56 4.53 11.24
3/27/2021 6:00:00 AM 7.47 45.446 0.049 6.57 4.62 11.23
3/27/2021 6:15:00 AM 7.46 45.428 0.049 6.57 4.75 11.27
3/27/2021 6:30:00 AM 7.45 45.41 0.048 6.56 4.31 11.23
3/27/2021 6:45:00 AM 7.43 45.374 0.049 6.56 4.46 11.24
3/27/2021 7:00:00 AM 7.42 45.356 0.049 6.55 4.29 11.24
3/27/2021 7:15:00 AM 7.41 45.338 0.048 6.55 4.52 11.23
3/27/2021 7:30:00 AM 7.39 45.302 0.049 6.55 4.37 11.25
3/27/2021 7:45:00 AM 7.38 45.284 0.049 6.55 4.19 11.26
3/27/2021 8:00:00 AM 7.37 45.266 0.048 6.55 4.26 11.27
3/27/2021 8:15:00 AM 7.37 45.266 0.048 6.55 4.07 11.29
3/27/2021 8:30:00 AM 7.36 45.248 0.049 6.55 4.07 11.29
3/27/2021 8:45:00 AM 7.37 45.266 0.049 6.55 3.94 11.31
3/27/2021 9:00:00 AM 7.37 45.266 0.049 6.56 3.91 11.36
3/27/2021 9:15:00 AM 7.37 45.266 0.049 6.56 3.93 11.34
3/27/2021 9:30:00 AM 7.37 45.266 0.049 6.57 3.84 11.38
3/27/2021 9:45:00 AM 7.37 45.266 0.049 6.59 3.87 11.48
3/27/2021 10:00:00 AM 7.38 45.284 0.048 6.59 3.85 11.46
3/27/2021 10:15:00 AM 7.41 45.338 0.049 6.59 3.72 11.56
3/27/2021 10:30:00 AM 7.43 45.374 0.049 6.6 3.8 11.54
3/27/2021 10:45:00 AM 7.47 45.446 0.049 6.61 3.75 11.61
3/27/2021 11:00:00 AM 7.5 45.5 0.049 6.62 3.65 11.63
3/27/2021 11:15:00 AM 7.55 45.59 0.048 6.63 3.84 11.69
3/27/2021 11:30:00 AM 7.62 45.716 0.049 6.64 3.66 11.74
3/27/2021 11:45:00 AM 7.7 45.86 0.048 6.65 3.78 11.77
3/27/2021 12:00:00 PM 7.8 46.04 0.048 6.65 3.8 11.81
3/27/2021 12:15:00 PM 7.9 46.22 0.048 6.67 3.73 11.86
3/27/2021 12:30:00 PM 8 46.4 0.049 6.68 3.69 11.88
3/27/2021 12:45:00 PM 8.1 46.58 0.05 6.69 4.31 11.91
3/27/2021 1:00:00 PM 8.19 46.742 0.048 6.71 3.72 11.95
3/27/2021 1:15:00 PM 8.3 46.94 0.049 6.71 3.58 11.98
3/27/2021 1:30:00 PM 8.37 47.066 0.049 6.73 3.75 12.02
3/27/2021 1:45:00 PM 8.46 47.228 0.049 6.74 3.59 12.06
3/27/2021 2:00:00 PM 8.58 47.444 0.048 6.76 3.59 12.08
3/27/2021 2:15:00 PM 8.71 47.678 0.049 6.75 3.62 12.09
3/27/2021 2:30:00 PM 8.82 47.876 0.049 6.77 3.6 12.11
3/27/2021 2:45:00 PM 8.93 48.074 0.049 6.78 3.62 12.12
3/27/2021 3:00:00 PM 8.98 48.164 0.048 6.78 3.73 12.15
3/27/2021 3:15:00 PM 9.02 48.236 0.048 6.79 3.7 12.17
3/27/2021 3:30:00 PM 9.01 48.218 0.049 6.8 3.59 12.17
3/27/2021 3:45:00 PM 9.1 48.38 0.049 6.8 3.62 12.18
3/27/2021 4:00:00 PM 9.14 48.452 0.048 6.8 3.63 12.19
3/27/2021 4:15:00 PM 9.19 48.542 0.049 6.8 3.63 12.18
3/27/2021 4:30:00 PM 9.3 48.74 0.049 6.81 3.56 12.19
3/27/2021 4:45:00 PM 9.3 48.74 0.05 6.82 3.63 12.16
3/27/2021 5:00:00 PM 9.34 48.812 0.05 6.81 3.48 12.16
3/27/2021 5:15:00 PM 9.38 48.884 0.051 6.82 3.46 12.14
3/27/2021 5:30:00 PM 9.35 48.83 0.051 6.83 3.49 12.11
3/27/2021 5:45:00 PM 9.35 48.83 0.051 6.82 3.46 12.11
3/27/2021 6:00:00 PM 9.29 48.722 0.05 6.81 3.98 12.09
3/27/2021 6:15:00 PM 9.24 48.632 0.05 6.81 3.84 12.08
3/27/2021 6:30:00 PM 9.17 48.506 0.05 6.79 3.73 12.05
3/27/2021 6:45:00 PM 9.17 48.506 0.05 6.8 3.54 12.04
3/27/2021 7:00:00 PM 9.12 48.416 0.05 6.79 3.63 12.02
3/27/2021 7:15:00 PM 9.05 48.29 0.05 6.78 3.56 11.98
3/27/2021 7:30:00 PM 9 48.2 0.05 6.78 3.47 11.97
3/27/2021 7:45:00 PM 8.91 48.038 0.05 6.76 3.64 11.93
3/27/2021 8:00:00 PM 8.81 47.858 0.05 6.75 3.66 11.9
3/27/2021 8:15:00 PM 8.72 47.696 0.051 6.74 3.65 11.86
3/27/2021 8:30:00 PM 8.62 47.516 0.051 6.73 3.76 11.83
3/27/2021 8:45:00 PM 8.54 47.372 0.05 6.7 3.73 11.79
3/27/2021 9:00:00 PM 8.42 47.156 0.05 6.7 3.69 11.74
3/27/2021 9:15:00 PM 8.32 46.976 0.05 6.68 3.8 11.71
3/27/2021 9:30:00 PM 8.26 46.868 0.051 6.67 3.84 11.68
3/27/2021 9:45:00 PM 8.18 46.724 0.05 6.65 3.84 11.65
3/27/2021 10:00:00 PM 8.1 46.58 0.051 6.65 3.92 11.62
3/27/2021 10:15:00 PM 8.05 46.49 0.05 6.63 4.03 11.6
3/27/2021 10:30:00 PM 8.01 46.418 0.05 6.63 10.5 11.58
3/27/2021 10:45:00 PM 7.94 46.292 0.05 6.62 11.4 11.56
3/27/2021 11:00:00 PM 7.9 46.22 0.05 6.62 4.07 11.55
3/27/2021 11:15:00 PM 7.82 46.076 0.05 6.61 4.02 11.54
3/27/2021 11:30:00 PM 7.79 46.022 0.05 6.6 4.05 11.52
3/27/2021 11:45:00 PM 7.79 46.022 0.05 6.6 4.06 11.5
3/28/2021 12:00:00 AM 7.7 45.86 0.049 6.6 4.01 11.51
3/28/2021 12:15:00 AM 7.69 45.842 0.05 6.6 4.05 11.48
3/28/2021 12:30:00 AM 7.64 45.752 0.049 6.59 4.15 11.48
3/28/2021 12:45:00 AM 7.62 45.716 0.049 6.6 4.2 11.46
3/28/2021 1:00:00 AM 7.57 45.626 0.052 6.59 3.97 11.45
3/28/2021 1:15:00 AM 7.54 45.572 0.051 6.59 4.16 11.44
3/28/2021 1:30:00 AM 7.49 45.482 0.05 6.59 4.89 11.44
3/28/2021 1:45:00 AM 7.45 45.41 0.05 6.59 4.29 11.43
3/28/2021 2:00:00 AM 7.41 45.338 0.05 6.59 4.51 11.44
3/28/2021 2:15:00 AM 7.43 45.374 0.05 6.59 4.53 11.41
3/28/2021 2:30:00 AM 7.39 45.302 0.05 6.59 4.61 11.41
3/28/2021 2:45:00 AM 7.39 45.302 0.051 6.6 3.93 11.4
3/28/2021 3:00:00 AM 7.37 45.266 0.05 6.6 4.14 11.41
3/28/2021 3:15:00 AM 7.36 45.248 0.05 6.6 4.2 11.4
3/28/2021 3:30:00 AM 7.35 45.23 0.051 6.59 4.68 11.39
3/28/2021 3:45:00 AM 7.34 45.212 0.05 6.6 4.44 11.39
3/28/2021 4:00:00 AM 7.35 45.23 0.05 6.6 4.43 11.36
3/28/2021 4:15:00 AM 7.35 45.23 0.05 6.6 4.7 11.35
3/28/2021 4:30:00 AM 7.38 45.284 0.05 6.6 4.22 11.35
3/28/2021 4:45:00 AM 7.4 45.32 0.05 6.61 4.18 11.33
3/28/2021 5:00:00 AM 7.44 45.392 0.051 6.6 4.33 11.31
3/28/2021 5:15:00 AM 7.46 45.428 0.052 6.6 4.75 11.29
3/28/2021 5:30:00 AM 7.48 45.464 0.051 6.61 4.4 11.3
3/28/2021 5:45:00 AM 7.5 45.5 0.051 6.61 4.11 11.3
3/28/2021 6:00:00 AM 7.52 45.536 0.051 6.62 4.06 11.28
3/28/2021 6:15:00 AM 7.53 45.554 0.052 6.62 4.28 11.23
3/28/2021 6:30:00 AM 7.54 45.572 0.051 6.63 4.46 11.27
3/28/2021 6:45:00 AM 7.56 45.608 0.051 6.62 4.32 11.24
3/28/2021 7:00:00 AM 7.57 45.626 0.052 6.62 4.27 11.22
3/28/2021 7:15:00 AM 7.59 45.662 0.052 6.61 4.14 11.21
3/28/2021 7:30:00 AM 7.61 45.698 0.051 6.61 4.26 11.21
3/28/2021 7:45:00 AM 7.62 45.716 0.052 6.6 4.07 11.17
3/28/2021 8:00:00 AM 7.63 45.734 0.05 6.61 4.09 11.2
3/28/2021 8:15:00 AM 7.61 45.698 0.051 6.61 4.01 11.22
3/28/2021 8:30:00 AM 7.59 45.662 0.051 6.61 3.91 11.23
3/28/2021 8:45:00 AM 7.55 45.59 0.051 6.6 3.94 11.2
3/28/2021 9:00:00 AM 7.51 45.518 0.051 6.61 3.97 11.24
3/28/2021 9:15:00 AM 7.48 45.464 0.051 6.6 4.11 11.25
3/28/2021 9:30:00 AM 7.46 45.428 0.05 6.6 3.96 11.24
3/28/2021 9:45:00 AM 7.44 45.392 0.051 6.61 4.02 11.27
3/28/2021 10:00:00 AM 7.44 45.392 0.051 6.61 10.15 11.29
3/28/2021 10:15:00 AM 7.43 45.374 0.051 6.62 3.91 11.3
3/28/2021 10:30:00 AM 7.43 45.374 0.051 6.62 4.02 11.29
3/28/2021 10:45:00 AM 7.41 45.338 0.051 6.62 3.85 11.37
3/28/2021 11:00:00 AM 7.42 45.356 0.05 6.63 3.93 11.41
3/28/2021 11:15:00 AM 7.43 45.374 0.051 6.64 3.95 11.45
3/28/2021 11:30:00 AM 7.44 45.392 0.051 6.64 3.84 11.48
3/28/2021 11:45:00 AM 7.48 45.464 0.052 6.65 3.83 11.48
3/28/2021 12:00:00 PM 7.51 45.518 0.051 6.66 3.88 11.5
3/28/2021 12:15:00 PM 7.55 45.59 0.051 6.67 3.86 11.54
3/28/2021 12:30:00 PM 7.6 45.68 0.05 6.68 3.7 11.55
3/28/2021 12:45:00 PM 7.63 45.734 0.05 6.69 3.87 11.58
3/28/2021 1:00:00 PM 7.68 45.824 0.05 6.7 3.93 11.61
3/28/2021 1:15:00 PM 7.73 45.914 0.051 6.71 3.85 11.63
3/28/2021 1:30:00 PM 7.77 45.986 0.051 6.73 3.8 11.66
3/28/2021 1:45:00 PM 7.81 46.058 0.05 6.74 3.82 11.69
3/28/2021 2:00:00 PM 7.85 46.13 0.051 6.74 3.93 11.73
3/28/2021 2:15:00 PM 7.88 46.184 0.05 6.75 3.79 11.75
3/28/2021 2:30:00 PM 7.9 46.22 0.05 6.76 3.79 11.77
3/28/2021 2:45:00 PM 7.92 46.256 0.05 6.75 3.71 11.79
3/28/2021 3:00:00 PM 7.95 46.31 0.05 6.77 3.73 11.82
3/28/2021 3:15:00 PM 7.98 46.364 0.049 6.78 3.82 11.84
3/28/2021 3:30:00 PM 8.04 46.472 0.05 6.79 3.76 11.86
3/28/2021 3:45:00 PM 8.08 46.544 0.05 6.79 3.79 11.87
3/28/2021 4:00:00 PM 8.11 46.598 0.05 6.79 3.74 11.88
3/28/2021 4:15:00 PM 8.13 46.634 0.05 6.8 3.86 11.88
3/28/2021 4:30:00 PM 8.15 46.67 0.05 6.8 3.74 11.89
3/28/2021 4:45:00 PM 8.16 46.688 0.05 6.8 3.61 11.88
3/28/2021 5:00:00 PM 8.14 46.652 0.05 6.8 3.79 11.86
3/28/2021 5:15:00 PM 8.16 46.688 0.05 6.79 3.74 11.84
3/28/2021 5:30:00 PM 8.18 46.724 0.05 6.79 3.77 11.83
3/28/2021 5:45:00 PM 8.17 46.706 0.051 6.8 3.76 11.79
3/28/2021 6:00:00 PM 8.19 46.742 0.051 6.79 3.78 11.75
3/28/2021 6:15:00 PM 8.23 46.814 0.051 6.79 3.75 11.73
3/28/2021 6:30:00 PM 8.22 46.796 0.051 6.78 3.88 11.65
3/28/2021 6:45:00 PM 8.2 46.76 0.05 6.79 3.75 11.61
3/28/2021 7:00:00 PM 8.22 46.796 0.051 6.78 3.77 11.57
3/28/2021 7:15:00 PM 8.19 46.742 0.051 6.78 4.17 11.52
3/28/2021 7:30:00 PM 8.19 46.742 0.051 6.78 4.2 11.48
3/28/2021 7:45:00 PM 8.15 46.67 0.051 6.76 4.01 11.44
3/28/2021 8:00:00 PM 8.13 46.634 0.051 6.76 4.73 11.41
3/28/2021 8:15:00 PM 8.11 46.598 0.052 6.76 4.65 11.38
3/28/2021 8:30:00 PM 8.05 46.49 0.052 6.75 4.5 11.36
3/28/2021 8:45:00 PM 8.02 46.436 0.052 6.74 4.54 11.34
3/28/2021 9:00:00 PM 8 46.4 0.051 6.73 4.1 11.32
3/28/2021 9:15:00 PM 7.98 46.364 0.052 6.73 4.34 11.3
3/28/2021 9:30:00 PM 7.96 46.328 0.052 6.72 4.13 11.27
3/28/2021 9:45:00 PM 7.9 46.22 0.052 6.71 4.07 11.26
3/28/2021 10:00:00 PM 7.86 46.148 0.052 6.71 4.54 11.24
3/28/2021 10:15:00 PM 7.8 46.04 0.052 6.7 4.3 11.24
3/28/2021 10:30:00 PM 7.77 45.986 0.052 6.7 4.42 11.22
3/28/2021 10:45:00 PM 7.73 45.914 0.053 6.69 4.46 11.22
3/28/2021 11:15:00 PM 7.65 45.77 0.053 6.69 4.4 11.22
3/28/2021 11:30:00 PM 7.61 45.698 0.053 6.69 4.59 11.19
3/28/2021 11:45:00 PM 7.56 45.608 0.053 6.69 4.89 11.16
3/29/2021 12:00:00 AM 7.5 45.5 0.054 6.68 4.64 11.19
3/29/2021 12:15:00 AM 7.46 45.428 0.053 6.68 4.5 11.17
3/29/2021 12:30:00 AM 7.41 45.338 0.053 6.67 4.75 11.15
3/29/2021 12:45:00 AM 7.38 45.284 0.053 6.67 4.67 11.15
3/29/2021 1:00:00 AM 7.31 45.158 0.053 6.67 5.15 11.16
3/29/2021 1:15:00 AM 7.25 45.05 0.053 6.68 5.01 11.16
3/29/2021 1:30:00 AM 7.19 44.942 0.053 6.68 5.78 11.16
3/29/2021 1:45:00 AM 7.13 44.834 0.052 6.68 5.51 11.16
3/29/2021 2:00:00 AM 7.09 44.762 0.052 6.68 5.89 11.17
3/29/2021 2:30:00 AM 7.02 44.636 0.052 6.67 6.73 11.16
3/29/2021 2:45:00 AM 6.97 44.546 0.051 6.67 5.96 11.17
3/29/2021 3:00:00 AM 6.9 44.42 0.051 6.66 6.82 11.15
3/29/2021 3:15:00 AM 6.87 44.366 0.051 6.66 7.7 11.16
3/29/2021 3:30:00 AM 6.84 44.312 0.051 6.66 6.73 11.17
3/29/2021 3:45:00 AM 6.78 44.204 0.051 6.66 7.28 11.18
3/29/2021 4:00:00 AM 6.75 44.15 0.052 6.65 7.58 11.21
3/29/2021 4:15:00 AM 6.68 44.024 0.052 6.65 6.51 11.21
3/29/2021 4:30:00 AM 6.62 43.916 0.051 6.65 7.05 11.22
3/29/2021 4:45:00 AM 6.59 43.862 0.052 6.65 6.79 11.23
3/29/2021 5:00:00 AM 6.52 43.736 0.052 6.66 6.79 11.25
3/29/2021 5:15:00 AM 6.49 43.682 0.052 6.66 6.17 11.27
3/29/2021 5:30:00 AM 6.42 43.556 0.052 6.66 6.59 11.28
3/29/2021 5:45:00 AM 6.34 43.412 0.052 6.65 6.9 11.29
3/29/2021 6:00:00 AM 6.3 43.34 0.053 6.66 7.13 11.32
3/29/2021 6:15:00 AM 6.25 43.25 0.054 6.67 7.53 11.34
3/29/2021 6:30:00 AM 6.22 43.196 0.055 6.66 7.43 11.37
3/29/2021 6:45:00 AM 6.17 43.106 0.055 6.66 7.05 11.38
3/29/2021 7:00:00 AM 6.15 43.07 0.054 6.68 9.11 11.41
3/29/2021 7:15:00 AM 6.09 42.962 0.054 6.68 6.8 11.42
3/29/2021 7:30:00 AM 6.02 42.836 0.054 6.69 6.86 11.43
3/29/2021 7:45:00 AM 6.01 42.818 0.055 6.7 6.75 11.45
3/29/2021 8:00:00 AM 5.99 42.782 0.055 6.71 6.79 11.49
3/29/2021 8:15:00 AM 5.96 42.728 0.055 6.71 6.77 11.52
3/29/2021 8:30:00 AM 5.94 42.692 0.055 6.71 7.24 11.55
3/29/2021 8:45:00 AM 5.91 42.638 0.055 6.72 6.95 11.59
3/29/2021 9:00:00 AM 5.93 42.674 0.056 6.72 6.31 11.63
3/29/2021 9:15:00 AM 5.9 42.62 0.056 6.73 6.4 11.67
3/29/2021 9:30:00 AM 5.91 42.638 0.055 6.73 6.12 11.73
3/29/2021 9:45:00 AM 5.91 42.638 0.055 6.74 5.83 11.78
3/29/2021 10:00:00 AM 5.9 42.62 0.056 6.74 5.73 11.83
3/29/2021 10:15:00 AM 5.92 42.656 0.055 6.75 5.49 11.87
3/29/2021 10:30:00 AM 5.94 42.692 0.055 6.75 5.49 11.92
3/29/2021 10:45:00 AM 5.98 42.764 0.056 6.77 5.34 11.97
3/29/2021 11:00:00 AM 5.99 42.782 0.055 6.78 5.36 12.02
3/29/2021 11:15:00 AM 6.02 42.836 0.054 6.8 5.27 12.06
3/29/2021 11:30:00 AM 6.03 42.854 0.056 6.8 7.25 12.1
3/29/2021 11:45:00 AM 6.03 42.854 0.054 6.82 10.58 12.13
3/29/2021 12:00:00 PM 6.07 42.926 0.055 6.83 7.93 12.17
3/29/2021 12:15:00 PM 6.1 42.98 0.056 6.84 6.32 12.22
3/29/2021 12:30:00 PM 6.13 43.034 0.055 6.85 7.55 12.25
3/29/2021 12:45:00 PM 6.22 43.196 0.056 6.86 6.64 12.3
3/29/2021 1:00:00 PM 6.34 43.412 0.055 6.87 6.94 12.34
3/29/2021 1:15:00 PM 6.48 43.664 0.055 6.88 5.53 12.36
3/29/2021 1:30:00 PM 6.62 43.916 0.055 6.89 5.44 12.4
3/29/2021 1:45:00 PM 6.79 44.222 0.056 6.91 6.26 12.42
3/29/2021 2:00:00 PM 6.95 44.51 0.056 6.92 4.97 12.44
3/29/2021 2:15:00 PM 7.11 44.798 0.056 6.94 5.32 12.44
3/29/2021 2:30:00 PM 7.24 45.032 0.056 6.95 5.3 12.45
3/29/2021 2:45:00 PM 7.33 45.194 0.056 6.97 5.66 12.46
3/29/2021 3:00:00 PM 7.41 45.338 0.056 6.97 5.11 12.46
3/29/2021 3:15:00 PM 7.51 45.518 0.056 6.97 5.91 12.48
3/29/2021 3:30:00 PM 7.58 45.644 0.056 6.98 5.68 12.47
3/29/2021 3:45:00 PM 7.6 45.68 0.056 6.99 5.46 12.5
3/29/2021 4:00:00 PM 7.58 45.644 0.055 6.99 4.89 12.52
3/29/2021 4:15:00 PM 7.59 45.662 0.055 6.99 5.05 12.52
3/29/2021 4:30:00 PM 7.59 45.662 0.056 6.99 4.76 12.52
3/29/2021 4:45:00 PM 7.64 45.752 0.055 6.99 4.73 12.51
3/29/2021 5:00:00 PM 7.66 45.788 0.055 6.99 4.69 12.5
3/29/2021 5:15:00 PM 7.68 45.824 0.055 6.99 4.54 12.48
3/29/2021 5:30:00 PM 7.69 45.842 0.056 6.99 5.06 12.48
3/29/2021 5:45:00 PM 7.7 45.86 0.055 6.99 4.96 12.49
3/29/2021 6:00:00 PM 7.6 45.68 0.055 6.99 4.64 12.47
3/29/2021 6:15:00 PM 7.57 45.626 0.056 6.98 4.69 12.47
3/29/2021 6:30:00 PM 7.53 45.554 0.056 6.98 4.9 12.45
3/29/2021 6:45:00 PM 7.47 45.446 0.056 6.98 5.12 12.42
3/29/2021 7:00:00 PM 7.45 45.41 0.056 6.97 5.04 12.4
3/29/2021 7:15:00 PM 7.37 45.266 0.056 6.96 4.93 12.37
3/29/2021 7:30:00 PM 7.3 45.14 0.056 6.94 4.41 12.34
3/29/2021 7:45:00 PM 7.22 44.996 0.056 6.93 4.5 12.29
3/29/2021 8:00:00 PM 7.2 44.96 0.055 6.92 4.41 12.27
3/29/2021 8:15:00 PM 7.14 44.852 0.056 6.9 4.74 12.21
3/29/2021 8:30:00 PM 7.11 44.798 0.055 6.9 4.5 12.17
3/29/2021 8:45:00 PM 7.1 44.78 0.055 6.89 4.41 12.13
3/29/2021 9:00:00 PM 7.06 44.708 0.055 6.88 4.42 12.08
3/29/2021 9:15:00 PM 7.05 44.69 0.056 6.86 4.5 12.06
3/29/2021 9:30:00 PM 7.01 44.618 0.056 6.85 4.35 12.01
3/29/2021 9:45:00 PM 7 44.6 0.055 6.84 4.73 11.99
3/29/2021 10:00:00 PM 6.97 44.546 0.056 6.83 4.4 11.97
3/29/2021 10:15:00 PM 6.92 44.456 0.055 6.82 4.38 11.93
3/29/2021 10:30:00 PM 6.87 44.366 0.056 6.81 4.39 11.9
3/29/2021 10:45:00 PM 6.86 44.348 0.057 6.81 4.59 11.89
3/29/2021 11:00:00 PM 6.81 44.258 0.056 6.8 4.5 11.87
3/29/2021 11:15:00 PM 6.79 44.222 0.057 6.8 4.73 11.86
3/29/2021 11:30:00 PM 6.75 44.15 0.056 6.79 4.52 11.84
3/29/2021 11:45:00 PM 6.7 44.06 0.056 6.79 4.61 11.82
3/30/2021 12:00:00 AM 6.67 44.006 0.055 6.78 4.79 11.81
3/30/2021 12:15:00 AM 6.62 43.916 0.055 6.77 4.6 11.79
3/30/2021 12:30:00 AM 6.56 43.808 0.056 6.77 4.64 11.79
3/30/2021 12:45:00 AM 6.52 43.736 0.056 6.76 4.54 11.78
3/30/2021 1:00:00 AM 6.47 43.646 0.055 6.76 4.69 11.77
3/30/2021 1:15:00 AM 6.43 43.574 0.054 6.75 4.61 11.76
3/30/2021 1:30:00 AM 6.4 43.52 0.055 6.75 4.79 11.75
3/30/2021 1:45:00 AM 6.37 43.466 0.056 6.75 4.69 11.74
3/30/2021 2:00:00 AM 6.34 43.412 0.056 6.74 4.6 11.72
3/30/2021 2:15:00 AM 6.29 43.322 0.056 6.74 4.73 11.73
3/30/2021 2:30:00 AM 6.27 43.286 0.056 6.74 4.82 11.71
3/30/2021 2:45:00 AM 6.23 43.214 0.057 6.73 4.93 11.68
3/30/2021 3:00:00 AM 6.21 43.178 0.056 6.73 5.1 11.68
3/30/2021 3:15:00 AM 6.21 43.178 0.056 6.73 5.05 11.68
3/30/2021 3:30:00 AM 6.19 43.142 0.056 6.72 4.87 11.67
3/30/2021 3:45:00 AM 6.17 43.106 0.056 6.73 5 11.68
3/30/2021 4:00:00 AM 6.15 43.07 0.056 6.72 4.98 11.67
3/30/2021 4:15:00 AM 6.12 43.016 0.055 6.72 4.94 11.66
3/30/2021 4:30:00 AM 6.11 42.998 0.055 6.72 4.91 11.65
3/30/2021 4:45:00 AM 6.08 42.944 0.055 6.72 5.19 11.64
3/30/2021 5:00:00 AM 6.06 42.908 0.055 6.72 5.15 11.63
3/30/2021 5:15:00 AM 6.06 42.908 0.054 6.72 5.17 11.65
3/30/2021 5:30:00 AM 6.02 42.836 0.055 6.72 5.05 11.65
3/30/2021 5:45:00 AM 6 42.8 0.054 6.72 5.06 11.62
3/30/2021 6:00:00 AM 5.98 42.764 0.056 6.73 4.73 11.62
3/30/2021 6:15:00 AM 5.96 42.728 0.056 6.72 4.76 11.61
3/30/2021 6:30:00 AM 5.95 42.71 0.055 6.73 4.98 11.63
3/30/2021 6:45:00 AM 5.94 42.692 0.056 6.73 4.96 11.65
3/30/2021 7:00:00 AM 5.91 42.638 0.055 6.73 4.8 11.64
3/30/2021 7:15:00 AM 5.9 42.62 0.055 6.73 4.88 11.66
3/30/2021 7:30:00 AM 5.87 42.566 0.055 6.73 4.65 11.64
3/30/2021 7:45:00 AM 5.84 42.512 0.055 6.73 4.95 11.65
3/30/2021 8:00:00 AM 5.83 42.494 0.055 6.74 4.73 11.68
3/30/2021 8:15:00 AM 5.81 42.458 0.055 6.74 4.73 11.69
3/30/2021 8:30:00 AM 5.8 42.44 0.055 6.74 4.88 11.71
3/30/2021 8:45:00 AM 5.82 42.476 0.055 6.75 4.55 11.73
3/30/2021 9:00:00 AM 5.89 42.602 0.055 6.76 4.71 11.8
3/30/2021 9:15:00 AM 5.96 42.728 0.055 6.77 4.66 11.85
3/30/2021 9:30:00 AM 6.04 42.872 0.056 6.78 4.31 11.92
3/30/2021 9:45:00 AM 6.09 42.962 0.055 6.79 4.74 11.94
3/30/2021 10:00:00 AM 6.19 43.142 0.056 6.8 4.65 11.99
3/30/2021 10:15:00 AM 6.31 43.358 0.056 6.82 4.59 12.05
3/30/2021 10:30:00 AM 6.42 43.556 0.055 6.83 4.44 12.07
3/30/2021 10:45:00 AM 6.55 43.79 0.056 6.84 4.69 12.11
3/30/2021 11:00:00 AM 6.69 44.042 0.056 6.85 4.4 12.16
3/30/2021 11:15:00 AM 6.83 44.294 0.056 6.87 4.35 12.24
3/30/2021 11:30:00 AM 6.96 44.528 0.056 6.88 4.29 12.26
3/30/2021 11:45:00 AM 7.1 44.78 0.056 6.89 4.32 12.3
3/30/2021 12:00:00 PM 7.26 45.068 0.056 6.9 4.28 12.34
3/30/2021 12:15:00 PM 7.42 45.356 0.056 6.92 4.32 12.37
3/30/2021 12:30:00 PM 7.59 45.662 0.055 6.93 4.47 12.39
3/30/2021 12:45:00 PM 7.77 45.986 0.056 6.93 4.46 12.4
3/30/2021 1:00:00 PM 7.93 46.274 0.055 6.95 4.38 12.45
3/30/2021 1:15:00 PM 8.05 46.49 0.055 6.96 4.81 12.47
3/30/2021 1:30:00 PM 8.2 46.76 0.056 6.96 4.24 12.5
3/30/2021 1:45:00 PM 8.34 47.012 0.055 6.97 4.38 12.51
3/30/2021 2:00:00 PM 8.49 47.282 0.055 6.98 4.54 12.54
3/30/2021 2:15:00 PM 8.61 47.498 0.055 6.99 4.64 12.55
3/30/2021 2:30:00 PM 8.73 47.714 0.056 6.99 4.46 12.56
3/30/2021 2:45:00 PM 8.81 47.858 0.055 7 4.51 12.57
3/30/2021 3:00:00 PM 8.89 48.002 0.055 7 4.23 12.58
3/30/2021 3:15:00 PM 8.99 48.182 0.055 7.01 4.33 12.59
3/30/2021 3:30:00 PM 9.06 48.308 0.055 7.02 4.52 12.59
3/30/2021 3:45:00 PM 9.13 48.434 0.055 7.03 4.34 12.58
3/30/2021 4:00:00 PM 9.19 48.542 0.055 7.03 4.26 12.57
3/30/2021 4:15:00 PM 9.22 48.596 0.055 7.03 4.23 12.55
3/30/2021 4:30:00 PM 9.27 48.686 0.054 7.04 4.44 12.55
3/30/2021 4:45:00 PM 9.29 48.722 0.056 7.04 4.63 12.53
3/30/2021 5:00:00 PM 9.3 48.74 0.056 7.04 4.68 12.52
3/30/2021 5:15:00 PM 9.32 48.776 0.055 7.05 4.75 12.5
3/30/2021 5:30:00 PM 9.33 48.794 0.055 7.05 4.32 12.48
3/30/2021 5:45:00 PM 9.28 48.704 0.056 7.06 4.38 12.45
3/30/2021 6:00:00 PM 9.21 48.578 0.056 7.06 4.29 12.42
3/30/2021 6:15:00 PM 9.14 48.452 0.056 7.05 4.14 12.4
3/30/2021 6:30:00 PM 9.08 48.344 0.056 7.05 4.32 12.39
3/30/2021 6:45:00 PM 9.03 48.254 0.056 7.05 4.23 12.37
3/30/2021 7:00:00 PM 8.91 48.038 0.057 7.05 4.24 12.34
3/30/2021 7:15:00 PM 8.82 47.876 0.056 7.04 4.31 12.31
3/30/2021 7:30:00 PM 8.7 47.66 0.057 7.02 4.25 12.27
3/30/2021 7:45:00 PM 8.58 47.444 0.057 7.01 4.33 12.23
3/30/2021 8:00:00 PM 8.46 47.228 0.056 7 4.49 12.19
3/30/2021 8:15:00 PM 8.36 47.048 0.056 6.99 4.32 12.15
3/30/2021 8:30:00 PM 8.29 46.922 0.054 6.96 4.4 12.12
3/30/2021 8:45:00 PM 8.19 46.742 0.057 6.94 4.51 12.09
3/30/2021 9:00:00 PM 8.12 46.616 0.057 6.93 4.49 12.06
3/30/2021 9:15:00 PM 8.05 46.49 0.057 6.92 4.4 12.03
3/30/2021 9:30:00 PM 7.97 46.346 0.057 6.9 4.37 11.99
3/30/2021 9:45:00 PM 7.92 46.256 0.057 6.88 4.47 11.96
3/30/2021 10:00:00 PM 7.82 46.076 0.058 6.88 4.34 11.92
3/30/2021 10:15:00 PM 7.78 46.004 0.058 6.85 4.48 11.89
3/30/2021 10:30:00 PM 7.71 45.878 0.057 6.85 4.31 11.85
3/30/2021 10:45:00 PM 7.67 45.806 0.057 6.83 4.54 11.81
3/30/2021 11:00:00 PM 7.63 45.734 0.057 6.83 4.59 11.78
3/30/2021 11:15:00 PM 7.61 45.698 0.058 6.81 4.51 11.75
3/30/2021 11:30:00 PM 7.56 45.608 0.058 6.8 4.54 11.72
3/30/2021 11:45:00 PM 7.54 45.572 0.058 6.81 4.71 11.69
3/31/2021 12:00:00 AM 7.55 45.59 0.058 6.8 4.46 11.67
3/31/2021 12:15:00 AM 7.51 45.518 0.058 6.8 4.41 11.65
3/31/2021 12:30:00 AM 7.47 45.446 0.058 6.79 4.4 11.63
3/31/2021 12:45:00 AM 7.45 45.41 0.058 6.79 4.39 11.62
3/31/2021 1:00:00 AM 7.44 45.392 0.058 6.79 4.45 11.6
3/31/2021 1:15:00 AM 7.42 45.356 0.058 6.79 4.35 11.59
3/31/2021 1:30:00 AM 7.4 45.32 0.058 6.78 4.29 11.57
3/31/2021 1:45:00 AM 7.38 45.284 0.058 6.77 4.41 11.56
3/31/2021 2:00:00 AM 7.36 45.248 0.058 6.79 4.44 11.54
3/31/2021 2:15:00 AM 7.33 45.194 0.059 6.77 4.39 11.53
3/31/2021 2:30:00 AM 7.32 45.176 0.058 6.78 4.27 11.53
3/31/2021 2:45:00 AM 7.3 45.14 0.058 6.78 4.32 11.53
3/31/2021 3:00:00 AM 7.29 45.122 0.058 6.77 4.52 11.5
3/31/2021 3:15:00 AM 7.28 45.104 0.058 6.78 4.72 11.49
3/31/2021 3:30:00 AM 7.26 45.068 0.058 6.77 4.47 11.48
3/31/2021 3:45:00 AM 7.23 45.014 0.058 6.77 4.41 11.49
3/31/2021 4:00:00 AM 7.23 45.014 0.058 6.76 4.43 11.46
3/31/2021 4:15:00 AM 7.21 44.978 0.058 6.78 4.45 11.46
3/31/2021 4:30:00 AM 7.2 44.96 0.058 6.77 4.28 11.45
3/31/2021 4:45:00 AM 7.19 44.942 0.058 6.76 4.61 11.44
3/31/2021 5:00:00 AM 7.18 44.924 0.058 6.77 4.35 11.44
3/31/2021 5:15:00 AM 7.17 44.906 0.058 6.76 4.25 11.43
3/31/2021 5:30:00 AM 7.16 44.888 0.058 6.76 4.3 11.43
3/31/2021 5:45:00 AM 7.15 44.87 0.058 6.76 4.51 11.41
3/31/2021 6:00:00 AM 7.14 44.852 0.058 6.75 4.39 11.44
3/31/2021 6:15:00 AM 7.14 44.852 0.058 6.76 4.67 11.4
3/31/2021 6:30:00 AM 7.13 44.834 0.058 6.76 4.42 11.41
3/31/2021 6:45:00 AM 7.12 44.816 0.058 6.76 4.6 11.4
3/31/2021 7:00:00 AM 7.12 44.816 0.058 6.75 4.46 11.38
3/31/2021 7:15:00 AM 7.12 44.816 0.058 6.76 4.43 11.37
3/31/2021 7:30:00 AM 7.12 44.816 0.058 6.75 4.37 11.36
3/31/2021 7:45:00 AM 7.13 44.834 0.058 6.76 4.43 11.39
3/31/2021 8:00:00 AM 7.13 44.834 0.058 6.76 4.38 11.41
3/31/2021 8:15:00 AM 7.15 44.87 0.058 6.76 4.3 11.4
3/31/2021 8:30:00 AM 7.17 44.906 0.058 6.76 4.25 11.42
3/31/2021 8:45:00 AM 7.2 44.96 0.058 6.77 4.5 11.42
3/31/2021 9:00:00 AM 7.22 44.996 0.058 6.78 4.25 11.45
3/31/2021 9:15:00 AM 7.26 45.068 0.059 6.79 4.03 11.48
3/31/2021 9:30:00 AM 7.3 45.14 0.058 6.79 4.13 11.53
3/31/2021 9:45:00 AM 7.34 45.212 0.058 6.8 4.06 11.57
3/31/2021 10:00:00 AM 7.39 45.302 0.059 6.81 3.93 11.6
3/31/2021 10:15:00 AM 7.43 45.374 0.059 6.82 4.04 11.65
3/31/2021 10:30:00 AM 7.48 45.464 0.059 6.83 4.18 11.67
3/31/2021 10:45:00 AM 7.53 45.554 0.059 6.84 3.92 11.74
3/31/2021 11:00:00 AM 7.58 45.644 0.059 6.85 3.92 11.79
3/31/2021 11:15:00 AM 7.63 45.734 0.058 6.86 3.94 11.83
3/31/2021 11:30:00 AM 7.69 45.842 0.059 6.86 4.03 11.88
3/31/2021 11:45:00 AM 7.76 45.968 0.059 6.87 4.16 11.93
3/31/2021 12:00:00 PM 7.8 46.04 0.059 6.89 3.69 11.97
3/31/2021 12:15:00 PM 7.85 46.13 0.059 6.9 3.75 12.01
3/31/2021 12:30:00 PM 7.89 46.202 0.059 6.92 3.84 12.05
3/31/2021 12:45:00 PM 7.92 46.256 0.059 6.93 3.72 12.07
3/31/2021 1:00:00 PM 7.95 46.31 0.058 6.94 3.86 12.09
3/31/2021 1:15:00 PM 7.98 46.364 0.058 6.93 3.98 12.11
3/31/2021 1:30:00 PM 8 46.4 0.059 6.94 3.72 12.15
3/31/2021 1:45:00 PM 8.04 46.472 0.059 6.96 3.72 12.16
3/31/2021 2:00:00 PM 8.07 46.526 0.05